Aviation Digital Data Service (ADDS)

Output produced by METARs form (0656 UTC 31 October 2014)
found at http://aviationweather.gov/adds/metars/
 
K04V 310633Z AUTO 34010KT 10SM CLR 02/M09 A3042 RMK AO2
K04W 310644Z AUTO 35011G16KT 10SM BKN036 M01/M07 A3040 RMK AO2
K06D 310635Z AUTO 00000KT 10SM CLR M11/M13 A3056 RMK AO2
K08D 310635Z AUTO 15006KT 10SM CLR M08/M08 A3051 RMK AO2
K0A9 310635Z AUTO 00000KT 8SM CLR 01/01 A3000 RMK
K0CO 310630Z AUTO 25010KT 10SM CLR M02/M03 A3057 RMK AO2
K0E0 310635Z AUTO 03003KT 10SM CLR M01/M08 A3044 RMK AO2 T10091082
K0F2 310635Z AUTO 33005KT 10SM CLR 12/05 A3023 RMK AO2 T01200051
K0J4 310558Z AUTO 35003KT 10SM CLR 11/06 A3001 RMK AO2 SLP160 T01060056 10161 20094 58004 $
K0R0 310635Z AUTO 10SM 06/06 A3004 RMK AO2 PWINO TSNO
K0V4 310635Z AUTO 00000KT 10SM OVC060 04/04 A3001 RMK AO1 T00410035
K0VG 310635Z AUTO 00000KT 6SM BR CLR 01/01 A3003 RMK AO2
K11R 310635Z AUTO 00000KT 10SM BKN049 18/14 A3013 RMK AO2 LTG DSNT W T01840135
K12N 310654Z AUTO 00000KT M01/M02 A3002 RMK AO1 SLP173 T10061017
K14Y 310642Z AUTO 32006KT 10SM CLR M03/M08 A3047 RMK AO2
K19A 310635Z AUTO 00000KT 10SM CLR 07/05 A2994 RMK AO2
K1A5 310635Z AUTO 00000KT 10SM 00/00 A3002 RMK AO2 T00010001
K1A6 310635Z AUTO 00000KT 7SM CLR 02/02 A3003 RMK AO2 T00200020
K1A9 310635Z AUTO 00000KT 10SM CLR 06/05 A2999 RMK AO2 T00590052
K1F0 310635Z AUTO 00000KT 10SM CLR 12/03 A3021 RMK AO2
K1H2 310635Z AUTO 00000KT 7SM SCT034 OVC043 08/07 A3004 RMK AO2 T00810065
K1II 310635Z AUTO 00000KT 10SM OVC048 07/05 A3004 RMK AO2
K1J0 310558Z AUTO 00000KT 10SM CLR 08/07 A2999 RMK AO2 SLP139 6//// T00830072 10133 20078 56004 PNO $
K1L0 310635Z AUTO 00000KT 10SM CLR 12/10 A3006 RMK AO2 T01240101
K1M4 310556Z AUTO 00000KT 10SM FEW090 06/06 A3005 RMK AO2 58004 T00610055 10094 20061 SLP186
K1P1 310655Z AUTO 00000KT 10SM OVC048 03/03 A3001 RMK AO2 T00270027
K1R7 310655Z AUTO 00000KT 10SM CLR 07/06 A3007 RMK AO2
K1V4 310654Z AUTO 04/02 A2999 RMK AO1 SLP161 T00390017
K1V6 310635Z AUTO 00000KT 10SM CLR 07/M03 A3043 RMK AO2
K1YT 310556Z AUTO 04001KT 8SM -RA OVC065 11/10 A2981 RMK AO2 LTG DSNT NW SLPNO P0002 T01070095 10128 20105 57016
K20U 310635Z AUTO 15018G25KT 9SM 00/00 A3043 RMK AO2
K20V 310635Z AUTO 00000KT 10SM CLR M01/M04 A3042 RMK AO2
K21D 310631Z AUTO 35014G20KT 10SM CLR 00/M08 A3039 RMK AO2
K24J 310655Z AUTO 00000KT 2 1/2SM CLR 09/09 A2992 RMK AO1
K2C8 310635Z AUTO 34004KT 10SM CLR M06/M09 A3062 RMK AO2
K2D5 310635Z AUTO 36007KT 10SM M07/M08 A3057 RMK AO2
K2DP 310556Z AUTO 36007KT 10SM CLR 07/06 A2996 RMK AO2 SLPNO T00680060 10097 20065 57014
K2G4 310635Z AUTO 00000KT 10SM OVC023 03/01 A2998 RMK AO1
K2I0 310635Z AUTO 00000KT 10SM OVC060 11/08 A3002 RMK AO2 T01050082
K2J9 310635Z AUTO 10SM FEW037 08/07 A2997 RMK AO1
K2V5 310655Z AUTO 04007KT 10SM CLR 01/M02 A3045 RMK AO2 T00081019
K2W6 310634Z AUTO 00000KT 10SM CLR 03/01 A3002 RMK AO1
K2WX 310556Z AUTO 14012KT 01/M02 A3039 RMK AO1 SLP317 T00061022 10028 20006 58000
K33V 310635Z AUTO 12004KT 10SM CLR M01/M04 A3039 RMK AO2
K36U 310635Z AUTO 00000KT 10SM CLR 02/M03 A3020 RMK AO2
K3I2 310635Z AUTO 00000KT 10SM BKN120 04/03 A3004 RMK AO2
K3J7 310635Z AUTO 00000KT 10SM CLR 10/07 A2992 RMK AO2
K3K3 310635Z AUTO 09004KT 10SM CLR 06/00 A3042 RMK AO2
K3LF 310635Z AUTO 36005KT 10SM SCT100 08/06 A3006 RMK AO2 T00750058
K3N8 310635Z AUTO 36007KT 10SM CLR M05/M08 A3053 RMK AO2 T10531077
K3R7 310635Z AUTO 00000KT 10SM CLR 11/10 A3008 RMK AO2 T01100100
K3T5 310635Z AUTO 00000KT 10SM SCT070 17/15 A3010 RMK AO2 LTG DSNT W T01710145
K40J 310635Z AUTO 00000KT 10SM CLR 10/08 A2993 RMK AO2
K42J 310655Z AUTO 01004KT 10SM 14/13 A2988 RMK AO1 TSNO
K46D 310635Z AUTO 06004KT 10SM CLR M07/M08 A3059 RMK AO2
K4A6 310635Z AUTO 00000KT 10SM FEW100 05/05 A3002 RMK AO2
K4A9 310635Z AUTO 00000KT 10SM CLR 03/02 A3000 RMK AO2
K4I3 310636Z AUTO 00000KT 10SM OVC045 06/02 A3000 RMK AO2
K4I7 310655Z AUTO 00000KT 10SM SCT120 07/04 A3003 RMK AO2
K4M9 310635Z AUTO 33006KT 10SM CLR 09/08 A3002 RMK AO2
K4MR 310556Z AUTO 13007KT 10SM CLR 08/M01 A3039 RMK AO2 SLP260 T00811013 10173 20075 52014
K4O4 310635Z AUTO 00000KT 10SM CLR 10/07 A3012 RMK AO2
K54J 310635Z AUTO 32005KT 10SM CLR 10/06 A3000 RMK AO2 T00950064
K5C1 310635Z AUTO 00000KT 10SM CLR 15/12 A3014 RMK AO1
K5H4 310635Z AUTO 23005KT 10SM CLR M10/M11 A3058 RMK AO2
K5M9 310635Z AUTO 00000KT 10SM SCT044 SCT060 OVC065 10/06 A3001 RMK AO2 T01000060
K5R8 310635Z AUTO 00000KT 10SM SCT070 10/09 A3009 RMK AO2 T00950094
K5SM 310639Z AUTO 00000KT 10SM CLR 05/M07 A3051 RMK AO2
K5W8 310635Z AUTO 02003KT 10SM CLR 07/05 A2998 RMK AO2 T00700053
K65S 310635Z AUTO 00000KT 10SM CLR 07/05 A2989 RMK AO2
K66R 310635Z AUTO 00000KT 10SM SCT120 15/13 A3010 RMK AO2 LTG DSNT W T01540132
K6A2 310635Z AUTO 00000KT 10SM CLR 08/04 A2997 RMK AO2
K6B0 310635Z AUTO 00000KT 10SM BKN037 OVC048 05/02 A3001 RMK AO2 T00480017
K6L4 310635Z AUTO 00000KT 10SM CLR 02/01 A3000 RMK AO2
K6R3 310635Z AUTO 00000KT 7SM SCT080 13/13 A3012 RMK AO2 T01340131
K6R6 310653Z AUTO 36008KT 20/16 A3014 RMK AO1 SLP177 T02000161
K79J 310556Z AUTO 00000KT 10SM CLR 09/06 A2999 RMK AO2 SLP154 T00940056 10161 20094 58005
K7BM 310634Z AUTO 00000KT 10SM CLR 02/M06 A3052 RMK AO2
K7L2 310635Z AUTO 10004KT 10SM CLR M08/M08 A3057 RMK AO2 PWINO PNO
K7W4 310635Z AUTO 00000KT 10SM BKN060 04/02 A3002 RMK AO1 T00380023
K82V 310635Z AUTO 13010G15KT 10SM CLR 02/M01 A3043 RMK AO2
K8A0 310635Z AUTO 02004KT 10SM CLR 06/06 A2999 RMK AO2
K8D3 310556Z AUTO 35008KT M05/M07 A3055 RMK AO1 SLP365 T10501067 10011 21050 400561050 51019
K8S0 310645Z 00000KT
K8W2 310635Z AUTO 00000KT 7SM SCT050 00/00 A3004 RMK AO1 T10011005
K96D 310635Z AUTO 30004KT 10SM CLR M08/M09 A3063 RMK AO2
K9D7 310635Z AUTO 02004KT 10SM CLR M09/M10 A3059 RMK AO2
K9L2 310555Z AUTO 17006KT 10SM CLR 17/00 A2997 RMK AO2 SLP142 T01670000 10256 20161 53005 TSNO $
K9MN 310634Z AUTO 33012G24KT 290V360 10SM CLR M01/M12 A3032 RMK AO1 T10091116
K9V9 310635Z AUTO 36003KT 10SM CLR M04/M07 A3057 RMK AO2 T10411071
KAAA 310635Z AUTO 00000KT 7SM OVC065 07/06 A3007 RMK AO2 T00680055
KAAF 310653Z AUTO 36007KT 10SM CLR 14/07 A2995 RMK AO2 SLP141 T01390072 TSNO $
KAAO 310554Z AUTO 35013G19KT 10SM CLR 09/03 A3030 RMK AO2 SLP257 T00940028 10172 20094 402220094 51022
KAAT 310555Z AUTO 15006KT 10SM SCT120 13/01 A2990 RMK AO2 SLP096 T01330006 10172 20128 58007 $
KABE 310651Z 32003KT 10SM CLR 00/M02 A3003 RMK AO2 SLP170 T00001017
KABH 310556Z AUTO 15004KT 10SM CLR 03/M04 A3044 RMK AO2 SLP295 T00331044 10100 20017 401560017 50007 $
KABI 310652Z 04003KT 10SM CLR 17/03 A3026 RMK AO2 SLP227 T01670033
KABQ 310652Z 09019KT 10SM CLR 14/M05 A3033 RMK AO2 SLP213 T01441050 402220078
KABR 310653Z AUTO 34005KT 10SM CLR M07/M09 A3058 RMK AO2 SLP374 T10721094
KABY 310653Z 32003KT 10SM CLR 11/07 A2997 RMK AO2 SLP147 T01060067 PNO
KACB 310635Z AUTO 00000KT 5SM UP BKN017 OVC024 05/04 A2991 RMK AO2 T00500041
KACJ 310635Z AUTO 00000KT 10SM CLR 10/05 A2997 RMK AO2
KACK 310653Z AUTO 05004KT 10SM CLR 07/05 A2997 RMK AO2 SLP147 T00720050
KACP 310635Z AUTO 00000KT 10SM SCT075 08/07 A3009 RMK AO2 T00780070
KACQ 310634Z AUTO 35011G17KT 10SM CLR 00/M11 A3039 RMK AO2
KACT 310651Z 34006KT 10SM CLR 17/14 A3016 RMK AO2 SLP210 T01670144
KACV 310653Z AUTO 16006KT 6SM RA BR SCT033 BKN046 OVC070 15/14 A2982 RMK AO2 RAB03 SLP100 P0003 T01500139
KACY 310654Z 00000KT 10SM CLR 03/01 A3001 RMK AO2 SLP162 T00330011
KADC 310653Z AUTO 33006KT 10SM CLR M05/M08 A3050 RMK AO2
KADF 310556Z AUTO 00000KT 10SM CLR 09/09 A3007 RMK AO2 50002 T00940094 10144 20094 SLP198
KADG 310653Z AUTO 24004KT 10SM BKN044 OVC055 06/02 A2998 RMK AO2 SLP159 T00610022
KADH 310635Z AUTO 35007KT 10SM CLR 13/05 A3020 RMK AO2
KADM 310635Z AUTO 35008KT 10SM CLR 12/06 A3020 RMK AO2 T01170061
KADS 310635Z AUTO 35006KT 10SM CLR 16/09 A3019 RMK AO2 T01580090
KADU 310635Z AUTO 35020G24KT 10SM OVC028 02/M04 A3038 RMK AO2
KADW 310558Z AUTO 00000KT 10SM CLR 05/03 A3002 RMK AO2 SLP173 T00520032 10114 20044 57007 $
KAEG 310635Z AUTO 12009KT 10SM CLR 11/M05 A3035 RMK AO2 T01061054
KAEJ 310635Z AUTO 27004KT 10SM CLR M02/M07 A3048 RMK AO2 T10231067
KAEL 310634Z AUTO 36015G21KT 10SM CLR M01/M11 A3035 RMK AO2
KAEX 310653Z 00000KT 10SM CLR 11/08 A3007 RMK AO2 SLP186 T01060083
KAFF 310558Z AUTO 01002KT 10SM CLR 00/M06 A3045 RMK AO2 SLP294 T10011057 10100 21013 51007
KAFJ 310635Z AUTO 00000KT 10SM OVC048 06/03 A3002 RMK AO1
KAFK 310635Z AUTO 36015G21KT 10SM OVC024 05/M02 A3038 RMK AO2 T00501021
KAFN 310652Z AUTO 17003KT 10SM FEW048 02/01 A3000 RMK AO2 SLP171 T00170011
KAFO 310635Z AUTO 00000KT 10SM CLR 02/00 A3019 RMK AO2
KAFP 310635Z AUTO 00000KT 10SM CLR 04/03 A2996 RMK AO2 T00410033
KAFW 310653Z 34006KT 10SM CLR 12/06 A3019 RMK AO2 SLP219 T01220056
KAGC 310653Z 25003KT 10SM OVC047 07/01 A2999 RMK AO2 SLP163 T00720011
KAGS 310553Z AUTO 00000KT 10SM CLR 06/06 A2994 RMK AO2 SLP136 T00610056 10128 20061 58007
KAHN 310651Z AUTO 00000KT 10SM CLR 06/04 A2994 RMK AO2 SLP137 T00610044
KAHQ 310635Z AUTO 35019G28KT 10SM OVC026 04/M03 A3043 RMK AO2 T00351031
KAIA 310653Z AUTO 08004KT 10SM CLR M03/M05 A3045 RMK AO2 SLP317 T10331050 401611044
KAIB 310635Z AUTO 12010KT 10SM CLR 06/M05 A3031 RMK AO2
KAIG 310635Z AUTO 35010G16KT 1 1/2SM -SN OVC009 00/00 A3007 RMK AO2 P0001 T00001005
KAIK 310655Z AUTO 00000KT 10SM CLR 07/06 A2996 RMK AO2 PNO
KAIO 310635Z AUTO 35016G27KT 10SM OVC028 03/M03 A3038 RMK AO2
KAIT 310633Z AUTO 34012G20KT 10SM BKN038 M01/M08 A3043 RMK AO2
KAIZ 310635Z AUTO 32004KT 10SM CLR 09/05 A3011 RMK AO1
KAJG 310635Z AUTO 00000KT 10SM -RA SCT035 BKN047 OVC060 10/08 A3004 RMK AO2
KAJO 310556Z AUTO 00000KT 10SM OVC001 14/12 A2998 RMK AO2 51006 T01380116 10233 20138 SLP147 $
KAJZ 310635Z AUTO 00000KT 10SM CLR 07/M03 A3026 RMK AO2 T00731033
KAKH 310554Z AUTO 00000KT 10SM CLR 07/03 A2996 RMK AO2 SLP145 T00670033 10111 20067 56005
KAKO 310653Z AUTO 11008KT 10SM CLR 02/M02 A3043 RMK AO2 SLP297 T00171022 401610011
KAKQ 310554Z AUTO 00000KT 10SM CLR 06/04 A3000 RMK AO2 SLP159 T00560044 10094 20056 58010 TSNO
KAKR 310554Z AUTO 00000KT 10SM OVC046 07/02 A3001 RMK AO2 SLP164 T00720022 10083 20072 56012
KALB 310651Z 00000KT 10SM SCT047 01/M01 A3004 RMK AO2 SLP174 T00061011
KALI 310653Z AUTO 00000KT 7SM CLR 21/19 A3007 RMK AO2 SLP180 T02060194
KALK 310556Z AUTO 13011KT 10SM CLR 20/03 A3018 RMK AO2 SLP131 T02000028 10228 20150 51002 TSNO
KALN 310635Z AUTO 00000KT 10SM SCT120 09/07 A3006 RMK AO2 T00900074
KALO 310554Z 34020G26KT 10SM OVC045 05/M03 A3023 RMK AO2 PK WND 35028/0526 SLP241 60000 T00501033 10100 20050 401440000 51022
KALS 310652Z AUTO 15006KT 10SM CLR 01/M08 A3039 RMK AO2 SLP252 T00061083 401831078
KALW 310653Z AUTO 17006KT 5SM BR FEW009 OVC019 11/09 A2981 RMK AO2 SLP097 T01110094
KALX 310635Z AUTO 00000KT 10SM CLR 06/04 A2999 RMK AO2 T00640041
KAMA 310653Z AUTO 06005KT 10SM CLR 08/M01 A3039 RMK AO2 SLP265 T00831011
KAMG 310653Z AUTO 00000KT 10SM CLR 10/08 A2990 RMK AO2 SLP122 T01000083
KAMN 310633Z AUTO 20005KT 10SM SCT060 OVC075 06/04 A2993 RMK AO2 T00620035
KAMW 310653Z AUTO 35020G32KT 10SM BKN037 03/M06 A3032 RMK AO2 PK WND 35032/0646 SLP269 T00331056
KANB 310553Z AUTO 24003KT 10SM CLR 04/03 A3001 RMK AO2 SLP165 T00390028 10100 20039 401940039 58005
KAND 310556Z AUTO 00000KT 10SM CLR 07/06 A2996 RMK AO2 SLP142 T00720056 10117 20061 55004
KANE 310634Z AUTO 34015G19KT 10SM CLR M01/M08 A3041 RMK AO2
KANJ 310646Z AUTO 02009KT 10SM UP BKN015 OVC032 02/00 A2993 RMK AO2 RAE26UPB26SNB04E14 P0001 T00170000
KANK 310635Z AUTO 00000KT 10SM CLR 03/M05 A3054 RMK AO1 T00281050
KANQ 310655Z AUTO 22003KT 10SM FEW045 OVC070 06/02 A2998 RMK
KANW 310635Z AUTO 03013G16KT 10SM OVC011 00/M02 A3051 RMK AO2 T10011024
KAOH 310653Z AUTO 19004KT 10SM OVC044 07/02 A3000 RMK AO2 SLP162 T00670017
KAOO 310653Z AUTO 00000KT 10SM OVC046 06/04 A3000 RMK AO2 SLP165 T00610039 $
KAPA 310653Z 17010KT 10SM CLR 06/M04 A3040 RMK AO2 SLP276 T00611039 401610000
KAPC 310554Z AUTO 24005KT 10SM BKN017 16/14 A2990 RMK AO2 SLP116 T01610144 10183 20144 53004
KAPF 310653Z AUTO 00000KT 10SM CLR 22/21 A2985 RMK AO2 SLP106 T02220206
KAPN 310654Z AUTO 00000KT 10SM FEW019 BKN026 OVC090 05/04 A2989 RMK AO2 RAE43 SLP127 P0002 T00500039 TSNO
KAPY 310635Z AUTO 11005KT 10SM CLR 21/18 A3008 RMK AO2 LTG DSNT N T02190185
KAQO 310630Z AUTO 04006KT 10SM VCTS FEW034 FEW041 BKN060 19/17 A3020 RMK AO2 LTG DSNT SE AND SW P0001
KAQP 310634Z AUTO 34008KT 10SM CLR M03/M06 A3053 RMK AO2
KAQR 310635Z AUTO 35003KT 10SM CLR 09/05 A3018 RMK AO2
KAQV 310556Z AUTO 00000KT 10SM CLR 11/09 A3008 RMK AO2 SLP185 T01060094 10144 20106 402440072 50002
KAQW 310652Z AUTO 00000KT 10SM CLR 01/M01 A3002 RMK AO2 SLP171 T00111006
KARA 310653Z AUTO 00000KT 9SM CLR 10/09 A3007 RMK AO2 SLP183 T01000089
KARB 310653Z AUTO 23007KT 10SM OVC055 07/01 A2996 RMK AO2 SLP149 T00670011
KARG 310635Z AUTO 32007KT 10SM CLR 08/06 A3001 RMK AO1
KARM 310635Z AUTO 00000KT 7SM CLR 15/15 A3011 RMK AO2 LTG DSNT NW T01530145
KARR 310652Z AUTO 30007KT 9SM BKN040 OVC047 07/03 A3004 RMK AO2 RAB09E22 SLP176 P0000 T00720033
KART 310556Z AUTO 00000KT 10SM FEW075 00/M03 A3002 RMK AO2 SLP168 T00001028 10056 21006 55001
KARV 310635Z AUTO 36022G28KT 3SM -SN SCT013 BKN020 BKN030 00/M02 A3016 RMK AO2 T10011021
KARW 310655Z AUTO 01003KT 7SM CLR 15/14 A2989 RMK AO2
KASD 310653Z AUTO 35003KT 10SM CLR 08/06 A3004 RMK AO2 SLP174 T00780061
KASE 310653Z AUTO 21006KT 10SM CLR 02/M06 A3036 RMK AO2 SLP210 T00171056 401671033
KASG 310148Z 00000KT 10SM SKC 13/05 A3011 RMK LAST
KASH 310651Z AUTO 00000KT 10SM OVC049 06/04 A3002 RMK AO2 T00610038 SLP417
KASL 310635Z AUTO 00000KT 10SM CLR 12/11 A3012 RMK AO1 T01180105
KASN 310635Z AUTO 00000KT 10SM CLR 05/04 A3001 RMK AO2 T00530041
KAST 310555Z AUTO 00000KT 10SM FEW030 OVC065 12/11 A2977 RMK AO2 RAB36E46 SLP080 P0000 60017 T01220111 10139 20122 56006
KASW 310635Z AUTO 25005KT 10SM OVC070 06/02 A3000 RMK AO2
KASX 310653Z AUTO 35015KT 10SM OVC037 M01/M06 A3035 RMK AO2 PK WND 01029/0606 SLP289 T10061061 $
KATL 310652Z 30006KT 10SM FEW250 08/05 A2996 RMK AO2 SLP142 T00830050
KATP 310635Z AUTO 01011KT 10SM CLR 22/13 A3002 RMK A01
KATT 310651Z AUTO 00000KT 10SM BKN060 BKN080 OVC095 19/16 A3015 RMK AO2 SLP199 T01940156
KATW 310635Z AUTO 32015G23KT 10SM SCT065 OVC090 02/M01 A3005 RMK AO2
KATY 310653Z AUTO 01009KT 10SM CLR M06/M08 A3051 RMK AO2 SLP355 T10561078
KAUG 310653Z AUTO 30005KT 10SM CLR 02/M02 A3001 RMK AO2 SLP166 T00221017
KAUH 310635Z AUTO 01018G23KT 10SM BKN019 02/M02 A3044 RMK AO2 T00221017
KAUM 310635Z AUTO 35014G21KT 10SM CLR M01/M09 A3032 RMK AO2
KAUN 310635Z AUTO 00000KT 10SM CLR 16/08 A2990 RMK AO1
KAUO 310635Z AUTO 01004KT 10SM CLR 08/02 A3000 RMK AO1
KAUS 310653Z 34003KT 10SM BKN065 BKN075 OVC095 18/15 A3013 RMK AO2 SLP196 OCNL LTG DSNT SW T01830150
KAUW 310642Z AUTO 33013G18KT 1/2SM SN FZFG VV007 M01/M01 A3010 RMK AO2 SNB01 P0001 T10061011
KAVC 310635Z AUTO 01005KT 10SM CLR 07/04 A3005 RMK AO2
KAVK 310630Z AUTO 36008KT 10SM CLR 10/01 A3032 RMK AO2
KAVL 310554Z AUTO 30003KT 10SM CLR 04/02 A3000 RMK AO2 SLP152 T00390017 10117 20039 55003
KAVP 310554Z AUTO 11005KT 10SM CLR 02/M01 A3002 RMK AO2 SLP168 T00221011 10089 20022 55001
KAVX 310651Z AUTO 25005KT 10SM CLR 16/11 A3000 RMK AO2 SLP140 T01610106
KAWG 310635Z AUTO 34020KT 10SM FEW029 BKN034 OVC041 09/04 A3017 RMK AO2
KAWM 310653Z AUTO 31003KT 10SM CLR 12/10 A2998 RMK AO2 SLP149 T01220100 $
KAWO 310635Z AUTO 31007KT 10SM FEW004 BKN010 OVC017 12/11 A2978 RMK AO1
KAXA 310635Z AUTO 36014G22KT 10SM CLR M00/M06 A3038 RMK AO2
KAXH 310635Z AUTO 00000KT 10SM CLR 12/12 A3010 RMK AO2 T01200118
KAXN 310653Z AUTO 35008KT 10SM CLR M02/M08 A3050 RMK AO2 SLP346 T10221078
KAXS 310635Z AUTO 36008KT 10SM CLR 11/00 A3030 RMK AO2 T01110004
KAXV 310634Z AUTO 18004KT 10SM OVC047 06/03 A3001 RMK AO2
KAXX 310635Z AUTO 00000KT 10SM CLR M04/M08 A3051 RMK AO2 T10391080
KAYS 310635Z AUTO 35003KT 10SM CLR 13/12 A2990 RMK AO2 T01310118
KAZC 310635Z AUTO 15004KT 10SM CLR 11/M06 A3018 RMK AO2 T01101061
KAZE 310635Z AUTO 34003KT 10SM CLR 11/11 A2991 RMK AO2 T01100105
KAZO 310653Z AUTO 23005KT 10SM FEW035 OVC046 07/03 A2996 RMK AO2 SLP148 T00720028
KBAB 310558Z AUTO 14011KT 10SM BKN160 OVC180 19/08 A2984 RMK AO2 SLP179 T01880084 10228 20188 53001 $
KBAC 310635Z AUTO 33006KT 10SM CLR M08/M08 A3058 RMK AO2
KBAD 310558Z AUTO 00000KT 10SM CLR 10/09 A3009 RMK AO2 SLP192 T01030090 10165 20103 402350057 50000
KBAF 310553Z 33004KT 10SM CLR 05/00 A3001 RMK AO2 SLP166 T00500000 10072 20022 50003
KBAK 310150Z 00000KT 10SM OVC100 08/06 A3005 RMK LAST
KBAN 310652Z AUTO VRB04KT CLR 10/M08 A3003 RMK AO2 SLP152 T01001083 $
KBAX 310639Z AUTO 23004KT 10SM SCT028 SCT070 OVC090 06/04 A2993 RMK AO2 T00580043
KBAZ 310651Z AUTO 04009KT 5SM -RA BR FEW035 BKN046 OVC075 19/17 A3011 RMK AO2 LTG DSNT N RAB17 SLP191 P0007 T01890167
KBBB 310633Z AUTO 36006KT 10SM CLR M04/M07 A3051 RMK AO2
KBBD 310635Z AUTO 04011KT 10SM SCT036 BKN044 OVC060 19/16 A3020 RMK
KBBF 310635Z AUTO 08006KT 8SM CLR 24/19 A3006 RMK A01
KBBG 310635Z AUTO 32012G17KT 10SM SCT036 11/04 A3011 RMK AO2
KBBP 310635Z AUTO 00000KT 10SM CLR 09/03 A2994 RMK AO2
KBBW 310609Z AUTO 02016G23KT 10SM BKN008 01/M01 A3045 RMK AO2 T00111006
KBCB 310635Z AUTO 00000KT 10SM CLR 02/02 A3002 RMK AO2
KBCE 310553Z AUTO 23004KT 10SM CLR M01/M08 A3032 RMK AO2 SLP199 T10061083 10122 21022 58001 TSNO
KBCK 310635Z AUTO 31013G23KT 10SM OVC041 01/M08 A3023 RMK AO2 T00101083
KBCT 310150Z 11007KT 10SM FEW060 SCT070 24/20 A2989
KBDE 310553Z AUTO 02007KT 10SM FEW035 M03/M09 A3052 RMK AO2 SLP353 T10281089 10000 21028 400441028 53019 TSNO
KBDG 310635Z AUTO 02008KT 10SM CLR 09/M06 A3033 RMK AO1 T00911065
KBDH 310635Z AUTO 34009KT 10SM CLR M01/M07 A3049 RMK AO2
KBDL 310651Z 00000KT 10SM CLR 02/00 A3001 RMK AO2 SLP163 T00220000
KBDN 310635Z AUTO 35004KT OVC004 09/08 A2984 RMK AO2
KBDR 310652Z AUTO 36010KT 10SM SCT055 07/01 A3001 RMK AO2 SLP162 T00720006
KBDU 310637Z AUTO 00000KT 10SM CLR 05/M01 A3040 RMK AO2
KBEA 310635Z AUTO 00000KT 1/2SM FG VV005 20/20 A3008 RMK AO2 LTG DSNT N T02020202
KBED 310556Z 00000KT 10SM SCT049 02/02 A3000 RMK AO2 SLP174 T00220017 10056 20011 53007
KBEH 310553Z AUTO 28008KT 10SM SCT034 SCT047 OVC055 09/03 A2999 RMK AO2 SLP157 T00940028 10094 20072 56012
KBFD 310553Z AUTO 00000KT 10SM OVC039 03/01 A2998 RMK AO2 SLP164 T00280011 10033 20011 58009
KBFF 310553Z AUTO 07007KT 10SM CLR 02/M01 A3043 RMK AO2 SLP304 T00171011 10106 20011 51006
KBFI 310553Z 14006KT 10SM OVC042 14/11 A2977 RMK AO2 RAB43E52 SLP079 P0000 60017 T01440111 10161 20144 58000
KBFL 310554Z VRB03KT 10SM CLR 22/04 A2990 RMK AO2 SLP121 T02170044 10272 20206 53001
KBFM 310553Z AUTO 30003KT 10SM CLR 08/06 A3004 RMK AO2 SLP172 T00830061 10156 20083 402330083 58002
KBFW 310634Z AUTO 34006KT 10SM CLR M02/M07 A3035 RMK AO2
KBGD 310651Z AUTO 27003KT 10SM CLR 11/M03 A3038 RMK AO2 SLP265 T01061028
KBGE 310635Z AUTO 00000KT 10SM CLR 12/07 A2996 RMK AO2
KBGF 310555Z AUTO 00000KT 10SM SCT120 05/04 A3002 RMK
KBGM 310553Z AUTO 00000KT 10SM BKN032 02/M01 A3000 RMK AO2 SLP168 T00221011 10050 20017 56004
KBGR 310553Z 00000KT 10SM OVC050 02/01 A3000 RMK AO2 SLP158 T00220006 10072 20000 53007
KBHB 310635Z AUTO 36003KT 10SM SCT050 03/03 A2999 RMK AO1
KBHC 310635Z AUTO 00000KT 10SM CLR 12/09 A2991 RMK AO2
KBHK 310651Z AUTO 13017G26KT 7SM OVC009 01/M02 A3040 RMK AO2 PK WND 13029/0626 SLP317 T00061022 400441017
KBHM 310553Z 00000KT 10SM FEW250 08/06 A3003 RMK AO2 SLP168 T00780056 10122 20067 402000050 56005
KBID 310635Z AUTO 36008KT 10SM CLR 09/03 A2998 RMK AO1
KBIE 310635Z AUTO 36019G25KT 10SM SCT026 05/00 A3039 RMK AO2 T00450000
KBIF 310558Z AUTO 26003KT 8SM CLR 16/01 A3026 RMK AO2 SLP196 T01640010 10247 20148 52014 $
KBIH 310556Z AUTO 17016G24KT 10SM CLR 19/M08 A2997 RMK AO2 PK WND 17027/0528 SLPNO T01891083 10239 20189 55000
KBIJ 310635Z AUTO 34004KT 10SM CLR 12/07 A2997 RMK AO2
KBIL 310553Z 36006KT 10SM CLR 04/00 A3017 RMK AO2 SLP224 T00440000 10122 20044 58016
KBIS 310652Z 00000KT 10SM CLR M07/M09 A3059 RMK AO2 SLP383 I1000 T10721089
KBIV 310642Z AUTO 29007KT 10SM -RA OVC028 09/04 A2996 RMK AO2 RAB14 P0001 T00890044
KBIX 310558Z AUTO 32003KT 10SM CLR 13/08 A3004 RMK AO2 SLP175 T01330081 10190 20128 402310128 50001
KBJC 310635Z AUTO 35008KT 10SM CLR 07/M02 A3040 RMK AO2
KBJI 310633Z AUTO 01007KT 10SM BKN032 M03/M09 A3051 RMK AO2 T10291087
KBJJ 310556Z AUTO 00000KT 10SM OVC047 07/03 A3002 RMK AO2 SLP169 T00670028 10078 20067 57011 TSNO
KBKB 310654Z AUTO 00000KT 10SM 11/09 A3006 RMK AO2 SLP210 T01110089 $
KBKD 310635Z AUTO 01003KT 7SM CLR 16/03 A3024 RMK AO2 T01590032
KBKE 310553Z AUTO 10004KT 10SM CLR 06/02 A2987 RMK AO2 SLP113 T00610017 10133 20050 58016
KBKF 310558Z 14010KT 10SM CLR 07/M03 A3040 RMK AO2A SLP263 T00661033 10106 20052 58001
KBKL 310353Z 19006KT 10SM SCT055 A3004 RMK AO2 SLPNO $
KBKN 310635Z AUTO 36012KT 10SM CLR 11/03 A3026 RMK AO2
KBKS 310635Z AUTO 00000KT 10SM CLR 19/18 A3007 RMK AO1 T01910184
KBKT 310635Z AUTO 36005KT 10SM CLR 06/03 A3000 RMK AO1 T00590025
KBKV 310553Z AUTO 00000KT 10SM OVC085 21/18 A2990 RMK AO2 SLP122 T02060183 10228 20194 56010
KBKW 310651Z AUTO 00000KT 10SM SCT037 00/M02 A2999 RMK AO2 SLP171 T00001017 TSNO
KBLF 310652Z AUTO 00000KT 10SM CLR 02/M01 A2999 RMK AO2 SLP155 T00221011
KBLH 310652Z AUTO 34007KT 10SM CLR 21/01 A2988 RMK AO2 SLP113 T02110011
KBLI 310553Z AUTO 16004KT 5SM RA BR BKN047 OVC055 12/10 A2977 RMK AO2 SLP089 P0005 60016 T01170100 10167 20117 51016
KBLM 310635Z AUTO 32004KT 10SM CLR 03/M02 A3001 RMK AO1
KBLU 310652Z AUTO 15011G20KT 110V180 10SM CLR 13/M03 A3001 RMK AO2 SLP092 T01281028
KBLV 310558Z AUTO 32004KT 10SM OVC036 09/09 A3004 RMK AO2 SLP176 60000 T00940091 10118 20090 401580012 53003
KBMC 310635Z AUTO 00000KT 10SM CLR 07/02 A3009 RMK AO1 T00740015
KBMG 310553Z AUTO 00000KT 10SM OVC046 08/06 A3004 RMK AO2 RAE29 SLP172 P0001 60001 T00780061 10100 20078 58009
KBMI 310556Z AUTO 34005KT 7SM BKN100 06/06 A3008 RMK AO2 56002 60003 T00610055 10077 20055 401050000 SLP192
KBML 310652Z AUTO 00000KT 10SM OVC037 03/02 A2999 RMK AO2 SLP164 T00280017
KBMQ 310645Z AUTO 01006KT 2 1/2SM +RA BR FEW027 BKN041 OVC060 17/16 A3020 RMK AO2 VIS 1 1/2V3 RAB10 P0011 T01720156
KBMT 310635Z AUTO 00000KT 10SM CLR 13/11 A3010 RMK AO2 T01250114
KBNA 310553Z 00000KT 10SM OVC100 11/06 A3001 RMK AO2 SLP162 T01060061 10133 20089 401780039 58010
KBNL 310655Z AUTO 00000KT 10SM CLR 10/08 A2993 RMK AO2
KBNO 310553Z AUTO 00000KT 10SM CLR 08/02 A2989 RMK AO2 SLP107 T00780022 10144 20072 56011
KBNW 310635Z AUTO 36019G32KT 10SM OVC034 03/M04 A3032 RMK AO2
KBOI 310553Z 00000KT 10SM CLR 11/02 A2987 RMK AO2 SLP106 T01110022 10178 20111 58014
KBOK 310645Z AUTO 11003KT 3SM -RA BR OVC003 14/14 A2980 RMK AO2 CIG 001V006 P0002
KBOS 310554Z 01007KT 10SM FEW045 OVC060 08/03 A3000 RMK AO2 SLP159 T00780028 10117 20078 51004
KBOW 310635Z AUTO 31004KT 10SM SCT080 21/19 A2987 RMK AO2
KBPC 310635Z AUTO 23006KT 10SM CLR 05/00 A3037 RMK AO2
KBPG 310635Z AUTO 05010KT 10SM CLR 16/04 A3029 RMK AO2 T01620035
KBPI 310553Z AUTO 00000KT 10SM CLR M02/M07 A3030 RMK AO2 SLP238 T10171067 10111 21017 58006
KBPK 310553Z AUTO VRB04KT 10SM CLR 11/05 A3006 RMK AO2 SLP176 T01110050 10178 20100 402000033 51007 $
KBPT 310553Z AUTO 35004KT 10SM CLR 13/12 A3009 RMK AO2 SLP188 T01330117 10200 20128 402610128 53002
KBQK 310635Z AUTO 35003KT 10SM SCT060 16/15 A2989 RMK AO1
KBQP 310635Z AUTO 00000KT 10SM CLR 09/09 A3006 RMK AO2 T00910086
KBRD 310553Z AUTO 01013KT 10SM FEW037 M02/M09 A3045 RMK AO2 SLP328 T10221089 10017 21022 400441022 51023
KBRL 310653Z AUTO 35012KT 10SM BKN045 OVC055 09/04 A3014 RMK AO2 SLP208 T00890039
KBRO 310553Z 00000KT 10SM CLR 22/21 A3007 RMK AO2 SLP181 T02170206 10256 20217 403110194 50002
KBTA 310635Z AUTO 34017G32KT 10SM OVC025 03/M03 A3041 RMK AO2 T00281031
KBTL 310553Z 21005KT 10SM BKN060 OVC075 07/02 A2997 RMK AO2 SLP155 T00720022 10083 20067 58015
KBTM 310553Z AUTO 00000KT 10SM CLR 04/M01 A3011 RMK AO2 SLP189 T00391011 10100 20033 56010
KBTP 310635Z AUTO 00000KT 10SM OVC046 06/02 A3002 RMK AO1
KBTR 310553Z 00000KT 10SM CLR 10/08 A3007 RMK AO2 SLP181 T01000083 10161 20100 402390094 50002
KBTV 310554Z 36003KT 10SM OVC035 07/M01 A3002 RMK AO2 SLP168 T00671006 10078 20061 53001
KBUF 310554Z 14005KT 10SM BKN041 OVC085 06/02 A3000 RMK AO2 SLP162 T00610022 10083 20061 56009
KBUR 310553Z 09007KT 10SM CLR 18/15 A2998 RMK AO2 SLP139 T01780150 10228 20178 53008
KBUU 310635Z AUTO 32011KT 10SM BKN040 OVC045 05/00 A3003 RMK AO2 T00520004
KBUY 310554Z AUTO 01003KT 10SM CLR 07/03 A2999 RMK AO2 SLP154 T00720033 10117 20072 58003
KBVE 310651Z AUTO 34004KT 10SM CLR 18/10 A3003 RMK AO2 SLP168 T01830100
KBVN 310635Z AUTO 01011G17KT 10SM OVC020 03/M03 A3047 RMK AO2 T00251027
KBVO 310553Z AUTO 35008KT 10SM CLR 12/04 A3023 RMK AO2 SLP229 T01220044 10161 20100 402440039 51021
KBVS 310635Z AUTO 03004KT 7SM FEW001 OVC032 A2978 RMK A01 P002
KBVU 310635Z AUTO 00000KT 10SM CLR 19/01 A2998 RMK AO2
KBVX 310635Z AUTO 29004KT 10SM CLR 11/07 A3003 RMK AO1
KBVY 310553Z AUTO 01003KT 10SM CLR 04/02 A3000 RMK AO2 SLP155 T00390017 10083 20011 51006
KBWD 310635Z AUTO 03004KT 10SM OVC075 18/15 A3022 RMK AO2
KBWG 310553Z AUTO 00000KT 10SM BKN070 OVC090 09/06 A3003 RMK AO2 SLP168 T00890061 10106 20078 401670022 58008
KBWI 310554Z 00000KT 10SM BKN055 08/04 A3002 RMK AO2 SLP165 T00830039 10111 20083 58007
KBWP 310635Z AUTO 32004KT 10SM CLR M06/M08 A3058 RMK AO1
KBXA 310635Z AUTO 00000KT 10SM 08/06 A3007 RMK AO2 T00760058
KBXK 310635Z AUTO 01004KT 10SM BKN120 19/02 A2993 RMK AO1
KBYG 310553Z AUTO 16016KT 10SM CLR 07/M04 A3028 RMK AO2 SLP236 T00721039 10106 20050 58016
KBYI 310553Z AUTO 00000KT 10SM CLR 08/M02 A3001 RMK AO2 SLP145 T00831017 10194 20061 58008
KBYS 310555Z AUTO 23009KT 10SM CLR 21/M04 A2997 RMK AO2 SLP116 T02071042 10258 20207 52003 $
KBYY 310635Z AUTO 00000KT 10SM 16/16 A3009 RMK AO2 T01610161
KBZN 310556Z 00000KT 10SM CLR 03/00 A3010 RMK AO2 SLP200 T00330000 10100 20028 58014
KC09 310635Z AUTO 28004KT 10SM OVC046 07/05 A3004 RMK AO2 T00710045
KC29 310635Z AUTO 34011G16KT 10SM BKN028 BKN035 OVC060 06/M01 A3009 RMK AO1 T00571009
KC35 310635Z AUTO 32013G25KT 10SM SCT050 OVC075 02/M04 A3014 RMK AO2 T00201042
KC75 310635Z AUTO 30004KT 10SM OVC050 07/04 A3008 RMK AO2 T00720040
KCAD 310635Z AUTO 32004KT 10SM DZ SCT012 BKN042 OVC060 03/02 A2990 RMK AO2 T00320022
KCAE 310556Z 28003KT 10SM CLR 08/06 A2994 RMK AO2 SLP136 T00780056 10178 20078 56008
KCAG 310553Z AUTO 00000KT 10SM CLR M01/M04 A3031 RMK AO2 SLP251 T10111039 10106 21017 58005
KCAK 310651Z 00000KT 10SM SCT039 OVC048 07/04 A3000 RMK AO2 SLP163 T00670039
KCAO 310555Z AUTO 02004KT 10SM CLR 07/M04 A3042 RMK AO2 SLP270 T00671044 10128 20067 51012
KCAR 310554Z AUTO 31004KT 10SM OVC050 04/M03 A2995 RMK AO2 SLP149 T00391028 10056 20033 53007
KCAV 310635Z AUTO 34017G23KT 10SM OVC039 02/M04 A3034 RMK AO2
KCBE 310635Z AUTO 00000KT 10SM OVC049 08/04 A3006 RMK AO1
KCBF 310635Z AUTO 01016G21KT 10SM OVC025 02/M03 A3039 RMK AO2
KCBG 310636Z AUTO 34008KT 10SM CLR M01/M08 A3040 RMK AO2
KCBK 310635Z AUTO 03008KT 10SM CLR 02/00 A3045 RMK AO2
KCBM 310558Z AUTO 15001KT 10SM SCT110 08/07 A3002 RMK AO2 SLP168 T00830074 10123 20077 402030042 58005 $
KCCO 310635Z AUTO 35005KT 10SM CLR 09/06 A2997 RMK AO2 T00920060
KCCR 310553Z 26004KT 10SM CLR 17/13 A2990 RMK AO2 SLP110 T01670133 10217 20167 51007
KCCU 310638Z AUTO 18015KT CLR 03/M12 A3056 RMK AO2 PWINO
KCCY 310635Z AUTO 34017G25KT 10SM CLR 01/M08 A3029 RMK AO2
KCDA 310635Z AUTO 00000KT 10SM SCT037 OVC043 04/00 A3001 RMK AO2 T00371004
KCDC 310553Z AUTO 00000KT 10SM CLR 11/M09 A3015 RMK AO2 SLP164 T01111094 10200 20083 58001 TSNO
KCDD 310633Z AUTO 36009G16KT 10SM SCT025 BKN033 OVC038 M03/M07 A3048 RMK AO2
KCDH 310635Z AUTO 04003KT 3SM BR CLR 08/07 A3007 RMK AO2
KCDJ 310652Z AUTO 35008KT 11/04 A3023 RMK AO1 SLP236 T01060044
KCDN 310655Z AUTO 00000KT 10SM CLR 08/05 A2995 RMK AO2 TSNO
KCDR 310553Z AUTO 04004KT 7SM CLR M03/M04 A3046 RMK AO2 SLP335 T10281039 10089 21028 50009
KCDS 310553Z AUTO 35006KT 10SM CLR 12/01 A3031 RMK AO2 SLP251 T01170006 10222 20106 402670094 51017
KCDW 310553Z AUTO 00000KT 10SM CLR 02/00 A3003 RMK AO2 SLP175 T00220000 10078 20022 56002 TSNO
KCEC 310634Z AUTO 16008KT 5SM -RA BR BKN004 OVC009 15/14 A2980 RMK AO2 RAB00 P0003 T01500144
KCEF 310653Z AUTO 00000KT 2SM BR CLR M01/M02 A3001 RMK AO2 VIS 1 1/2V5
KCEU 310554Z AUTO 34004KT 10SM CLR 10/06 A2997 RMK AO2 SLP143 T01000061 10161 20100 56005
KCEW 310553Z AUTO 34004KT 10SM CLR 10/06 A3001 RMK AO2 SLP162 T01000061 10156 20100 402280100 55002
KCEY 310635Z AUTO 00000KT 5SM FEW045 OVC065 11/08 A3001 RMK AO1
KCEZ 310553Z AUTO 11004KT 10SM CLR 01/M04 A3029 RMK AO2 SLP227 T00111044 10167 20006 50002
KCFD 310635Z AUTO 00000KT 10SM -DZ SCT060 BKN075 OVC090 17/13 A3014 RMK AO2 LTG DSNT W T01720132
KCFE 310635Z AUTO 33007KT 10SM CLR M01/M09 A3044 RMK AO2 T10121090
KCFS 310635Z AUTO 00000KT 10SM SCT036 BKN042 OVC100 05/04 A2993 RMK AO2 T00510037
KCFV 310652Z AUTO 35009KT 10SM CLR 11/04 A3023 RMK AO2 SLP234 T01110044
KCGC 310635Z AUTO 00000KT 10SM SCT037 SCT065 OVC100 17/14 A2989 RMK AO2
KCGE 310633Z AUTO 03004KT 10SM CLR 09/05 A3000 RMK AO1
KCGF 310245Z 18006KT 20SM SCT065 BKN200 04/03 A3005
KCGI 310553Z AUTO 00000KT 10SM OVC060 12/10 A3001 RMK AO2 SLP162 60001 T01170100 10128 20111 401720006 56010 TSNO
KCGS 310635Z AUTO 00000KT 10SM CLR 05/05 A3002 RMK AO1
KCGZ 310635Z AUTO 00000KT 10SM CLR 20/05 A2995 RMK AO1
KCHA 310553Z AUTO 00000KT 10SM CLR 07/05 A3001 RMK AO2 SLP161 T00670050 10139 20067 58003
KCHD 310347Z 00000KT 15SM BKN250 22/10 A2993 RMK LAST
KCHO 310553Z AUTO 26003KT 10SM BKN050 04/02 A3004 RMK AO2 SLP172 T00440017 10094 20033 55002
KCHS 310556Z 01005KT 10SM BKN042 16/13 A2991 RMK AO2 SLP127 T01560133 10167 20133 56012
KCIC 310635Z AUTO 14015KT 10SM CLR 19/06 A2983 RMK AO1
KCID 310652Z AUTO 33016G24KT 10SM BKN038 OVC046 06/M01 A3019 RMK AO2 PK WND 34029/0624 SLP226 T00611011
KCIN 310635Z AUTO 36022G29KT 10SM OVC031 02/M04 A3038 RMK AO2
KCIR 310635Z AUTO 35003KT 10SM OVC060 12/11 A3001 RMK AO2 T01240105
KCIU 310635Z AUTO 01009KT 10SM OVC006 02/01 A2992 RMK AO1 P0001
KCJR 310635Z AUTO 00000KT 10SM BKN060 01/01 A3004 RMK AO2
KCKB 310553Z AUTO 00000KT 10SM OVC047 05/03 A3002 RMK AO2 SLP164 T00500033 10083 20050 58012
KCKC 310621Z AUTO 33016G25KT 10SM BKN020 M06/M09 A3027 RMK AO2
KCKF 310635Z AUTO 00000KT 10SM CLR 09/08 A2996 RMK AO2 T00900075
KCKI 310635Z AUTO 00000KT 10SM CLR 10/10 A2992 RMK AO2
KCKM 310635Z AUTO 24007KT 10SM CLR 13/11 A3001 RMK AO1
KCKN 310634Z AUTO 34006KT 10SM CLR M07/M08 A3060 RMK AO2
KCKP 310635Z AUTO 36013G17KT 10SM CLR 00/M07 A3044 RMK AO2 T00001068
KCKV 310652Z AUTO 30003KT 10SM OVC070 10/08 A3000 RMK AO2 SLP158 T01000078
KCLE 310651Z 20006KT 10SM OVC048 07/02 A3002 RMK AO2 SLP167 T00670017
KCLI 310635Z AUTO 32011G17KT 10SM SCT019 SCT075 OVC100 02/M01 A3006 RMK AO2
KCLK 310635Z AUTO 34005KT 10SM CLR 08/00 A3031 RMK AO2
KCLL 310553Z 00000KT 10SM BKN060 OVC090 19/11 A3012 RMK AO2 SLP197 T01940106 10228 20178 402610133 53008
KCLM 310553Z AUTO 10SM FEW009 BKN120 11/09 A2977 RMK AO2 RAE21 SLP081 P0000 60016 T01060089 10133 20106 51014 $
KCLS 310635Z AUTO 00000KT 8SM -RA 12/11 A2977 RMK AO2
KCLT 310652Z 35005KT 10SM CLR 06/02 A2996 RMK AO2 SLP144 T00560022
KCLW 310635Z AUTO 00000KT 10SM BKN017 BKN027 OVC050 21/20 A2987 RMK AO2
KCMA 310555Z AUTO 00000KT 10SM CLR 16/13 A2996 RMK AO2 SLP154 T01560128 10211 20156 53005
KCMD 310635Z AUTO 00000KT 10SM BKN110 06/06 A3002 RMK AO2 T00640059
KCMH 310651Z 00000KT 10SM FEW049 BKN080 BKN100 07/01 A3001 RMK AO2 SLP166 T00670011
KCMI 310553Z AUTO 36006KT 7SM OVC090 07/06 A3005 RMK AO2 SLP179 60005 T00670056 10089 20061 401281011 58004 $
KCMX 310627Z AUTO 01018G27KT 3SM -SN BKN019 OVC026 M01/M03 A3018 RMK AO2 PK WND 02029/0557 P0001 T10061033
KCMY 310635Z AUTO 33014G19KT 10SM SCT043 SCT065 01/M07 A3022 RMK AO2 T00071069
KCNB 310633Z AUTO 33008KT 10SM CLR M03/M05 A3054 RMK AO2 T10271055
KCNC 310635Z AUTO 35019G28KT 10SM BKN033 OVC043 07/00 A3026 RMK AO2
KCNI 310635Z AUTO 00000KT 10SM CLR 07/02 A2996 RMK AO2
KCNK 310555Z AUTO 01015G23KT 10SM OVC021 07/03 A3038 RMK AO2 PK WND 36026/0541 SLP285 T00720028 10144 20061 402000061 51017
KCNM 310553Z AUTO 35005KT 10SM CLR 14/08 A3030 RMK AO2 SLP223 T01390083 10233 20128 51022
KCNO 310553Z 00000KT 7SM CLR 14/13 A2999 RMK AO2 SLP151 T01440128 10233 20144 51007
KCNU 310652Z AUTO 34011KT 10SM CLR 10/04 A3024 RMK AO2 SLP236 T01000044
KCNW 310351Z 00000KT 10SM SCT065 BKN090 18/14 3013
KCNY 310553Z AUTO 00000KT 10SM CLR 06/M07 A3019 RMK AO2 SLP205 T00561072 10183 20050 58002
KCOD 310635Z 16005KT 10SM CLR 03/M04 A3019 RMK AO1
KCOE 310635Z AUTO 02016KT 10SM CLR A2981 RMK AO1
KCOF 310614Z AUTO 00000KT 10SM FEW028 BKN047 OVC060 21/19 A2987 RMK AO2 LTG DSNT NE
KCOM 310635Z AUTO 03008KT 10SM SCT070 BKN080 18/16 A3024 RMK AO2 LTG DSNT SE AND S T01820155
KCON 310651Z AUTO 00000KT 10SM OVC049 04/02 A3001 RMK AO2 SLP166 T00390022
KCOQ 310636Z AUTO 35014G26KT 10SM SCT035 M02/M09 A3038 RMK AO2
KCOS 310554Z 15005KT 10SM CLR 06/M04 A3046 RMK AO2 SLP288 T00611044 10117 20056 51008
KCOT 310553Z AUTO 14006KT 10SM CLR 23/19 A3009 RMK AO2 SLP180 T02280189 10300 20228 403280189 51008
KCOU 310554Z AUTO 32008KT 10SM CLR 07/06 A3010 RMK AO2 SLP194 T00670056 10133 20067 401560039 51016
KCPC 310635Z AUTO 00000KT 10SM CLR 12/10 A2993 RMK AO2 T01150097
KCPK 310635Z AUTO 00000KT 4SM BR CLR 07/06 A2998 RMK AO2
KCPR 310553Z AUTO 00000KT 10SM CLR M01/M06 A3030 RMK AO2 SLP261 T10061061 10117 21006 58002
KCPS 310553Z AUTO 32003KT 10SM BKN120 09/07 A3005 RMK AO2 SLP176 60000 T00890072 10122 20078 401670006 53004
KCPT 310635Z AUTO 33004KT 10SM CLR 14/13 A3021 RMK AO2
KCPW 310628Z AUTO 22015KT 10SM CLR 01/M11 A3059 RMK AO2
KCQB 310635Z AUTO 36005KT 10SM CLR 11/06 A3024 RMK AO2
KCQC 310653Z AUTO 10009KT 10SM CLR 05/M06 A3044 RMK AO2 SLP256 T00501061 401780033 $
KCQF 310635Z AUTO 00000KT 10SM CLR 06/06 A3002 RMK AO2
KCQM 310635Z AUTO 36005KT 10SM BKN027 OVC034 M03/M07 A3045 RMK AO2
KCQT 310647Z AUTO 00000KT 10SM SCT013 18/16 A2996 RMK AO2 SLP143 T01830156
KCQW 310655Z AUTO 00000KT 10SM SCT002 07/06 A2995 RMK AO2
KCQX 310652Z AUTO 00000KT 10SM OVC055 08/06 A2998 RMK AO2 SLP152 T00830061
KCRE 310553Z 03007KT 10SM BKN048 13/11 A2991 RMK AO1 SLP131 T01280106 10150 20117 58011
KCRG 310648Z AUTO 30005KT 10SM BKN024 17/15 A2987 RMK AO2
KCRP 310651Z 14003KT 10SM FEW018 FEW250 21/20 A3007 RMK AO2 SLP180 T02110200
KCRQ 310553Z AUTO 00000KT 10SM CLR 18/16 A2997 RMK AO2 SLP146 T01830161 10211 20178 51011
KCRS 310553Z AUTO 33004KT 10SM CLR 16/12 A3016 RMK AO2 SLP210 T01610117 10211 20156 402560106 51011
KCRW 310554Z 15003KT 10SM SCT190 02/01 A3003 RMK AO2 SLP173 T00220011 10089 20022 56011
KCRX 310635Z AUTO VRB04G11KT 8SM -RA FEW004 BKN034 OVC070 11/09 A3000 RMK AO2
KCSG 310651Z 36004KT 10SM CLR 09/05 A2997 RMK AO2 SLP146 T00940050
KCSM 310553Z 35008KT 10SM CLR 11/01 A3031 RMK AO2 SLP251 T01060011 10178 20100 402500100 51014
KCSQ 310635Z AUTO 36021G28KT 10SM FEW022 OVC029 04/M01 A3032 RMK AO2
KCSV 310553Z AUTO 00000KT 10SM CLR 04/02 A3002 RMK AO2 SLP163 T00390017 10106 20033 401610022 58006
KCTB 310556Z AUTO 12009KT 10SM CLR 02/01 A3000 RMK AO2 SLP170 T00220006 10100 20022 58021
KCTJ 310535Z AUTO 34003KT 07/04 A2999 RMK AO2 PWINO
KCTY 310653Z AUTO 33003KT 16/10 A2990 RMK AO1 SLP122 T01560100
KCTZ 310635Z AUTO 04003KT 10SM CLR 11/09 A2995 RMK AO2 T01080092
KCUB 310553Z AUTO 00000KT 9SM CLR 11/07 A2995 RMK AO2 SLP140 T01060067 10144 20106 58007
KCUH 310635Z AUTO 36006KT 10SM CLR 11/06 A3023 RMK AO2
KCUL 310635Z AUTO 02006KT 10SM BKN042 OVC050 11/09 A3003 RMK AO2 T01050090
KCUT 310553Z AUTO 07006KT 1/4SM FZFG VV001 M02/M03 A3040 RMK AO2 SLP294 I1003 I6004 T10221028 10050 21022 51003
KCVB 310635Z AUTO 00000KT 10SM CLR 19/15 A3011 RMK AO2 LTG DSNT N AND NE T01920151
KCVC 310635Z AUTO 00000KT 10SM CLR 06/06 A2995 RMK AO2
KCVG 310652Z 30006KT 8SM -RA SCT045 OVC060 07/04 A3002 RMK AO2 RAB33 SLP164 P0000 T00670039
KCVH 310635Z AUTO 00000KT 10SM CLR 14/13 A2994 RMK AO1
KCVN 310635Z AUTO 03008KT 10SM CLR 06/M03 A3040 RMK AO1
KCVO 310635Z AUTO 14004KT 6SM FEW048 BKN080 OVC095 15/13 A2978 RMK AO1 P0003
KCVS 310558Z AUTO 05007KT 10SM CLR 08/M02 A3037 RMK AO2 SLP251 52015
KCVW 310635Z AUTO 03003KT 10SM CLR 16/11 A3011 RMK A01
KCVX 310635Z AUTO 34005KT 5SM -RA SCT016 BKN023 OVC029 05/03 A2992 RMK AO2 T00480033
KCWA 310635Z AUTO 32015G22KT 2 1/2SM -SN SCT008 SCT012 OVC024 00/M01 A3011 RMK AO2
KCWC 310635Z AUTO 36003KT 10SM CLR 13/03 A3026 RMK AO2 T01290028
KCWF 310635Z AUTO 00000KT 10SM CLR 12/10 A3009 RMK AO2 T01240104
KCWI 310635Z 33012G22KT 10SM OVC026 08/01 A3014 RMK AO1
KCWN 310556Z AUTO 19013G18KT 10SM CLR 06/M05 A3043 RMK AO2 SLP277 T00641053 10102 20061 50004
KCWV 310635Z AUTO 00000KT 10SM CLR 09/09 A2992 RMK AO2
KCXO 310553Z AUTO 00000KT 10SM SCT120 14/12 A3012 RMK AO2 SLP197 T01440122 10178 20122 402560100 52006
KCXP 310635Z AUTO 00000KT 10SM CLR 09/M03 A2997 RMK AO2
KCXY 310556Z AUTO 00000KT 10SM OVC055 08/04 A3003 RMK AO2 SLP170 T00830044 10111 20078 58003
KCYS 310553Z AUTO 00000KT 10SM CLR 02/M04 A3041 RMK AO2 SLP277 T00171039 10100 20006 50002
KCZT 310635Z AUTO 14004KT 10SM CLR 20/17 A3008 RMK AO2 LTG DSNT NE
KCZZ 310652Z AUTO 00000KT 10/05 A3000 RMK AO1 SLP132 T01000050
KD07 310556Z AUTO 10009KT M01/M03 A3051 RMK AO1 SLP363 T10061028 10028 21006 50009
KD25 310635Z AUTO 35009G20KT 7SM -SN SCT015 BKN032 OVC039 M02/M03 A3019 RMK AO2 T10181033
KD39 310632Z AUTO 33009KT 10SM CLR M03/M08 A3048 RMK AO2 T10291080
KD50 310635Z AUTO 13006KT 10SM CLR M08/M08 A3049 RMK AO2
KD55 310635Z AUTO 00000KT 10SM CLR M13/M15 A3058 RMK AO2
KD57 310635Z AUTO 12006KT 10SM FEW060 M04/M06 A3054 RMK AO2 TSNO
KD60 310635Z AUTO 10005KT 10SM CLR M11/M11 A3051 RMK AO2
KD95 310634Z AUTO 22004KT 10SM SCT027 OVC100 06/03 A2995 RMK AO2 T00630028
KDAA 310558Z AUTO 00000KT 10SM CLR 04/03 A3004 RMK AO2 SLP176 T00360026 10123 20035 57007
KDAB 310553Z 24003KT 10SM SCT100 18/17 A2987 RMK AO2 SLP114 CONS LTGIC DSNT S CB DSNT S 60001 T01830172 10233 20178 56015
KDAG 310650Z AUTO 26008KT 10SM CLR 19/01 A2996 RMK AO2 SLP127 T01890011
KDAL 310553Z 33005KT 10SM CLR 16/12 A3017 RMK AO2 SLP213 T01560122 10206 20156 402610133 51016
KDAN 310553Z AUTO 04004KT 10SM SCT065 07/02 A3002 RMK AO2 SLP159 T00670022 10106 20067 58002
KDAW 310651Z AUTO 31004KT 10SM OVC050 03/02 A3001 RMK AO2 SLP161 T00330017
KDAY 310556Z 00000KT 10SM BKN047 BKN065 OVC095 07/02 A3003 RMK AO2 SLP174 T00670022 10072 20050 58011
KDBN 310635Z AUTO 33003KT 10SM CLR 08/08 A2996 RMK AO2
KDBQ 310613Z AUTO 34015G26KT 10SM SCT029 OVC041 06/M01 A3013 RMK AO2 PK WND 33026/0606 T00611011
KDCA 310652Z 00000KT 10SM FEW055 SCT130 09/03 A3003 RMK AO2 SLP168 T00890028
KDCU 310553Z AUTO 00000KT 10SM CLR 08/06 A3003 RMK AO2 SLP167 T00780061 10106 20061 401890039 58003
KDCY 310635Z AUTO 36003KT 7SM -RA SCT048 OVC055 08/07 A3003 RMK AO2 P0002 T00770073
KDDC 310652Z AUTO 02010KT 10SM CLR 06/00 A3039 RMK AO2 SLP284 T00560000
KDDH 310554Z AUTO 00000KT 10SM OVC042 04/01 A3001 RMK AO2 SLP166 T00440006 10072 20044 53001
KDEC 310554Z AUTO 00000KT 9SM OVC095 08/07 A3006 RMK AO2 SLP182 60017 T00780067 10089 20078 401220000 50000 TSNO
KDED 310635Z AUTO 00000KT 10SM CLR 18/16 A2987 RMK AO1
KDEH 310635Z AUTO 34016G29KT 10SM FEW036 FEW050 01/M06 A3022 RMK AO2
KDEN 310553Z 14009KT 10SM CLR 03/M03 A3039 RMK AO2 SLP269 T00331033 10117 20028 50001
KDEQ 310646Z AUTO 00000KT 3/4SM BR VV002 07/07 A3010 RMK AO2 T00670067
KDET 310553Z 22006KT 10SM BKN043 BKN050 OVC060 09/02 A2998 RMK AO2 SLP156 T00890022 10100 20089 57015
KDEW 310553Z AUTO 01009KT 10SM CLR 10/06 A2982 RMK AO2 SLP100 T01000061 10111 20100 56019
KDFI 310553Z AUTO 21004KT 10SM OVC045 07/02 A3001 RMK AO2 SLP165 T00720022 10083 20067 56013 $
KDFW 310553Z 34009KT 10SM CLR 16/10 A3017 RMK AO2 SLP212 T01560100 10211 20156 402560111 51016
KDGW 310553Z AUTO 14016KT 10SM CLR 04/M01 A3037 RMK AO2 SLP275 T00391011 10094 20033 50001
KDHN 310553Z AUTO 33005KT 10SM CLR 09/06 A3001 RMK AO2 SLP160 T00940056 10150 20089 402280089 58005
KDHT 310553Z AUTO 02005KT 10SM CLR 08/M02 A3041 RMK AO2 SLP268 T00831017 10161 20083 402170044 51016
KDIJ 310556Z AUTO 01004KT 10SM CLR 04/M01 A3019 RMK AO2 58011 T00381011 10116 20033 401720011 SLP179
KDIK 310556Z AUTO 14014KT 9SM OVC008 M02/M04 A3047 RMK AO2 SLP347 T10171039 10006 21017 58001
KDKB 310635Z AUTO 31007KT 10SM OVC041 06/03 A3005 RMK AO2 T00640028
KDKK 310553Z AUTO 20008KT 10SM -RA OVC045 07/03 A3000 RMK AO2 RAB50 SLP161 P0000 60000 T00720033 10078 20061 56010
KDKR 310635Z AUTO 00000KT 10SM FEW110 14/13 A3015 RMK AO2
KDLF 310558Z AUTO 00000KT 10SM CLR 19/16 A3010 RMK AO2 SLP182 T01870155 10268 20186 52008 $
KDLH 310652Z 01016G22KT 10SM BKN031 M02/M09 A3037 RMK AO2 PK WND 35030/0610 $
KDLL 310635Z AUTO 33013G21KT 10SM BKN026 BKN043 OVC060 02/M03 A3012 RMK AO2 T00161032
KDLN 310553Z AUTO 14006KT 10SM CLR 03/M02 A3010 RMK AO2 SLP189 T00281017 10100 20028 58012
KDLS 310635Z AUTO 00000KT 3SM -RA BR SCT019 BKN043 OVC080 12/12 A2982 RMK AO2 P0003 T01220117
KDLZ 310637Z AUTO 00000KT 10SM BKN080 OVC110 03/01 A3002 RMK AO2
KDMA 310558Z AUTO 17007KT 10SM CLR 21/05 A3003 RMK AO2 SLP130 T02070049 10301 20203 52010 $
KDMH 310554Z AUTO 11/03 A3003 RMK AO1 SLP168 T01060033 10122 20106 56005
KDMN 310553Z AUTO 10014KT 10SM CLR 18/M01 A3024 RMK AO2 SLP178 T01781006 10233 20139 51010
KDMO 310553Z AUTO 32011KT 10SM CLR 11/04 A3015 RMK AO2 SLP208 T01060039 10144 20106 401890050 51019
KDMW 310635Z AUTO 00000KT 10SM OVC050 08/04 A3001 RMK AO2
KDNL 310553Z AUTO 01004KT 10SM CLR 13/06 A2994 RMK AO2 SLP136 T01280056 10183 20128 58008
KDNN 310635Z AUTO 33006KT 10SM CLR 05/05 A2999 RMK AO2
KDNS 310635Z AUTO 35012G20KT 10SM OVC028 01/M05 A3040 RMK AO2
KDNV 310635Z AUTO 33004KT 10SM BKN090 OVC100 06/04 A3002 RMK AO2 T00610043
KDOV 310558Z AUTO 33003KT 10SM SCT060 06/04 A3000 RMK AO2 SLP162 T00610036 10102 20043 55004
KDPA 310652Z 32011KT 10SM OVC043 08/03 A3003 RMK AO2 RAB0555E11 SLP171 P0000 T00780033
KDPL 310635Z AUTO 00000KT 7SM CLR 09/08 A2995 RMK AO2 T00850081
KDQH 310635Z AUTO 00000KT 10SM CLR 13/08 A2993 RMK AO2
KDRI 310635Z AUTO 00000KT 7SM SCT080 11/09 A3011 RMK AO2 T01050092
KDRM 310635Z AUTO 36007KT 10SM -RA BKN009 OVC016 04/03 A2989 RMK AO2 T00350029
KDRO 310553Z AUTO 05004KT 10SM CLR 01/M04 A3036 RMK AO2 SLP256 T00111039 10167 20006 51009
KDRT 310553Z AUTO 10004KT 10SM CLR 21/16 A3008 RMK AO2 SLP173 T02060161 10272 20200 403000183 51008 $
KDSM 310554Z 36019G32KT 10SM BKN025 OVC035 07/M01 A3029 RMK AO2 PK WND 35032/0551 RAB52E54 SLP260 P0000 60000 T00671006 10133 20067 401720050 53031
KDSV 310554Z AUTO 10006KT 10SM OVC050 05/02 A3002 RMK AO2 SLP180 T00500017 10078 20050 56005
KDTA 310635Z AUTO 07004KT 10SM CLR 08/M04 A3010 RMK AO1 T00751042
KDTL 310635Z AUTO 34010KT 10SM CLR M03/M06 A3053 RMK AO2
KDTN 310553Z AUTO 00000KT 10SM CLR 13/10 A3009 RMK AO2 SLP188 T01280100 10167 20122 402280061 50001
KDTO 310553Z AUTO 32004KT 10SM CLR 12/07 A3019 RMK AO2 SLP218 60000 T01170067 10206 20117 402560072 51015
KDTS 310553Z AUTO 35007KT 10SM CLR 15/07 A3000 RMK AO2 SLP156 T01500072 10194 20150 402390150 58002 TSNO
KDTW 310553Z 19007KT 10SM BKN055 OVC090 07/02 A2999 RMK AO2 SLP157 T00720022 10083 20072 56015
KDUA 310635Z AUTO 31005KT 10SM CLR 13/05 A3018 RMK AO2
KDUB 310635Z AUTO 30008KT 10SM CLR 00/M03 A3029 RMK AO2
KDUC 310635Z AUTO 00000KT 10SM CLR 15/03 A3024 RMK AO2
KDUG 310556Z AUTO 09009KT 10SM CLR 19/03 A3014 RMK AO2 SLP140 T01940033 10267 20161 50001
KDUH 310635Z AUTO 22003KT 10SM SCT047 OVC055 08/01 A2999 RMK AO2
KDUJ 310553Z AUTO 00000KT 10SM SCT027 OVC045 04/03 A2999 RMK AO2 SLP165 T00440033 10061 20044 57007
KDUX 310635Z AUTO 00000KT 10SM 03/M03 A3039 RMK AO2 T00341032
KDVK 310635Z AUTO 00000KT 10SM SCT060 BKN120 05/03 A3003 RMK AO2
KDVL 310635Z AUTO 05003KT 10SM CLR M07/M12 A3056 RMK AO1
KDVN 310652Z AUTO 34020KT 10SM OVC028 08/00 A3013 RMK AO2 PK WND 34027/0643 SLP207 T00780000 TSNO
KDVO 310635Z AUTO 28003KT FEW017 SCT025 BKN030 17/14 A2991 RMK AO2
KDVP 310634Z AUTO 34014G18KT 10SM CLR M03/M06 A3047 RMK AO2 T10271063
KDVT 310553Z AUTO 04004KT 10SM CLR 24/02 A2993 RMK AO2 SLP114 T02440017 10306 20228 50000 TSNO
KDWH 310553Z 00000KT 10SM OVC100 17/14 A3011 RMK AO2 SLP195 T01670144 10194 20144 402610139 53006
KDWU 310635Z AUTO 00000KT 10SM CLR 02/M01 A3001 RMK AO1
KDWX 310555Z AUTO 05004KT 10SM CLR 04/M03 A3033 RMK AO2 T00401034 10319 21070
KDXR 310553Z AUTO 00000KT 10SM OVC047 06/00 A3003 RMK AO2 SLP169 T00610000 10100 20050 50000
KDXX 310634Z AUTO 34011KT 10SM CLR M01/M04 A3053 RMK AO2
KDYA 310635Z AUTO 00000KT 10SM CLR 05/ A3003 RMK AO2 T0046
KDYB 310655Z AUTO 00000KT 10SM CLR 11/11 A2992 RMK AO1
KDYL 310554Z AUTO 00000KT 10SM CLR 02/01 A3002 RMK AO2 SLP169 T00220006 10072 20017 58003 $
KDYR 310635Z 04004KT 10SM CLR 10/03 A3001 RMK AO1
KDYS 310558Z AUTO 04005KT 10SM CLR 17/05 A3025 RMK AO2 SLP209 T01700052 10247 20170 402820140 51020 $
KDYT 310633Z AUTO 36019G23KT 10SM BKN039 01/M05 A3042 RMK AO2
KDZB 310635Z AUTO 06003KT 10SM TS SCT042 BKN048 OVC085 19/18 A3016 RMK AO2 LTG DSNT SE THRU W T01860177
KE11 310635Z AUTO 05005KT 10SM CLR 12/04 A3031 RMK AO2 T01190042
KE16 310635Z AUTO 00000KT 10SM BKN018 14/13 A2995 RMK AO2
KE38 310635Z AUTO 33003KT 10SM CLR 13/05 A3035 RMK AO2 T01250045
KEAR 310635Z 34011G14KT 10SM BKN015 01/M01 A3046 RMK AO1
KEAT 310651Z AUTO 28007KT 2SM -RA BR BKN002 OVC070 10/08 A2980 RMK AO2 VIS 1 1/4V4 P0006
KEAU 310556Z AUTO 33015G23KT 10SM CLR M01/M08 A3027 RMK AO2 PK WND 33028/0543 SLP259 60000 T10061078 10061 21006 400941006 51025
KEBG 310635Z AUTO 00000KT 10SM CLR 21/19 A3008 RMK AO2 T02080186
KEBS 310635Z AUTO 35018G26KT 10SM BKN036 03/M05 A3032 RMK AO2
KECG 310554Z AUTO 36007KT 10SM CLR 12/07 A2997 RMK AO2 SLP148 T01220072 10144 20122 56012 TSNO
KECP 310553Z AUTO 32004KT 10SM CLR 09/06 A2997 RMK AO2 SLP159 T00890061 10144 20089 402390089 58005
KECS 310635Z AUTO 15003KT 7SM OVC008 M01/M01 A3041 RMK AO2
KECU 310630Z AUTO 00000KT 10SM CLR 19/14 A3017 RMK AO2
KEDC 310635Z AUTO 00000KT 10SM OVC070 18/13 A3013 RMK AO2
KEDE 310635Z AUTO 00000KT 10SM CLR 08/06 A2997 RMK AO2 T00810060
KEDJ 310630Z AUTO 16005KT 10SM FEW044 04/02 A3001 RMK AO1
KEDN 310635Z AUTO 36003KT 10SM CLR 08/05 A2998 RMK AO2
KEDU 310635Z AUTO 22006KT 10SM 17/12 A2986 RMK AO1
KEDW 310558Z AUTO 19006KT 10SM CLR 17/02 A2997 RMK AO2 SLP137 T01670024 10254 20164 52006
KEED 310556Z AUTO 24004KT 10SM CLR 23/M03 A2991 RMK AO2 SLP104 T02281028 10311 20228 50000
KEEN 310635Z AUTO 00000KT 10SM FEW049 04/00 A3001 RMK AO1
KEEO 310553Z AUTO 07004KT 10SM CLR 02/M02 A3030 RMK AO2 SLP232 T00171022 10161 20017 58005
KEET 310553Z AUTO 00000KT 10SM FEW120 09/07 A3001 RMK AO2 SLP159 T00890072 10128 20078 402000078 58007
KEFD 310650Z 00000KT 10SM CLR 18/14 A3010
KEFK 310635Z AUTO 00000KT 10SM OVC047 03/00 A3000 RMK AO2 T00281005
KEFT 310635Z AUTO 33010G18KT 10SM OVC049 06/M01 A3008 RMK AO2
KEGE 310635Z AUTO 11004KT 10SM CLR 00/M04 A3039 RMK AO1
KEGI 310558Z AUTO 00000KT 10SM CLR 09/07 A3000 RMK AO2 SLP161 T00850065 10148 20079 402240079 58002 $
KEGV 310635Z AUTO 36013G21KT 4SM -SN BKN012 OVC020 M01/M02 A3013 RMK AO2 T10111025
KEHA 310648Z AUTO 35004KT 07/M04 RMK AO1 PK WND 07 000 T00671038
KEHC 310635Z AUTO 36011KT 10SM CLR 23/09 A3005 RMK A01
KEHO 310635Z AUTO 02006KT 10SM CLR 06/04 A2997 RMK AO2 T00600035
KEHR 310635Z AUTO 02004KT 10SM OVC070 10/07 A3002 RMK AO1
KEHY 310635Z AUTO 12006KT 10SM CLR 00/M05 A3031 RMK AO2
KEIK 310635Z AUTO 00000KT 10SM CLR 02/M02 A3040 RMK AO2 T00151016
KEIR 310635Z AUTO 02010KT 10SM 22/09 A3005 RMK A01
KEKN 310651Z AUTO 00000KT 7SM SCT034 M01/M01 A3002 RMK AO2 SLP183 T10061006 TSNO
KEKO 310556Z AUTO 09006KT 10SM CLR 08/M07 A3000 RMK AO2 SLP140 T00831067 10200 20083 58008
KEKQ 310556Z AUTO 00000KT 5SM BR BKN110 03/03 A3004 RMK AO2 TSNO 58008 T00330027 10061 20011 SLP181
KELM 310553Z AUTO 00000KT 10SM OVC045 01/M01 A3003 RMK AO2 SLP175 T00061006 10061 21017 58001 $
KELN 310627Z AUTO 00000KT 1 3/4SM RA BR OVC070 11/09 A2980 RMK AO2 P0003 T01060089
KELO 310632Z AUTO 36005KT 10SM BKN027 OVC033 M04/M07 A3040 RMK AO2
KELP 310651Z 12005KT 10SM BKN250 17/02 A3026 RMK AO2 SLP188 T01720017 402780106
KELY 310553Z AUTO 17010KT 10SM CLR 07/M06 A3014 RMK AO2 SLP138 T00721061 10194 20061 58006
KELZ 310556Z AUTO 12003KT 10SM OVC032 03/00 A3000 RMK AO2 SLP172 T00280000 10039 20011 58006
KEMK 310635Z AUTO 04011KT 10SM CLR 24/15 A3006 RMK A01
KEMM 310635Z AUTO 36009KT 10SM CLR 06/M03 A3026 RMK AO2
KEMP 310553Z AUTO 36011KT 10SM CLR 08/04 A3028 RMK AO2 SLP255 T00830039 10150 20083 402110072 51024
KEMT 310247Z 18004KT 10SM CLR 20/13 A2997
KEMV 310635Z AUTO 32003KT 10SM CLR 05/03 A3001 RMK AO2
KEND 310558Z AUTO 01014KT 10SM CLR 13/02 A3027 RMK AO2 SLP247 T01260020 10171 20126 52017 $
KENL 310635Z AUTO 08004KT 10SM SCT033 SCT039 OVC050 09/07 A3004 RMK AO2 T00900070
KENV 310635Z AUTO 00000KT 10SM CLR 05/M04 A3007 RMK AO1
KENW 310624Z AUTO 33010G17KT 10SM SCT024 OVC033 07/02 A3002 RMK AO2 RAE0556 P0000 T00720017
KEOE 310635Z AUTO 03004KT 10SM CLR 07/06 A2997 RMK AO2
KEOK 310635Z AUTO 32006KT 10SM BKN060 OVC065 09/06 A3014 RMK AO2
KEPH 310553Z AUTO 36008KT 10SM BKN100 12/08 A2979 RMK AO2 SLP088 T01170083 10139 20111 58013
KEQA 310635Z AUTO 36018G23KT 10SM CLR 09/03 A3029 RMK AO2
KEQY 310553Z AUTO 05003KT 10SM CLR 08/03 A2996 RMK AO2 SLP153 T00780028 10122 20067 56007
KERI 310651Z AUTO 18006KT 10SM SCT110 05/02 A2999 RMK AO2 SLP159 T00500022
KERV 310635Z AUTO 00000KT 10SM VCTS SCT060 17/15 A3014 RMK AO2 LTG DSNT N AND E T01730151
KERY 310634Z AUTO 02012G18KT 10SM OVC007 01/01 A2994 RMK AO2 T00130008
KESC 310635Z AUTO 35017G25KT 10SM BKN019 OVC024 02/M01 A2999 RMK AO1
KESF 310553Z AUTO 00000KT 10SM BKN075 09/08 A3009 RMK AO2 SLP187 T00940083 10139 20089 402390044 50000
KESN 310648Z AUTO 00000KT 10SM CLR 06/05 A3004 RMK AO2 T00640050
KEST 310652Z AUTO 35013KT 10SM CLR M02/M08 A3042 RMK AO2 SLP311 T10171078
KETB 310635Z AUTO 30009G19KT 10SM SCT035 04/00 A3002 RMK AO2
KETC 310635Z AUTO 00000KT 4SM BR CLR 06/05 A2999 RMK AO2 T00590053
KETH 310636Z AUTO 32008KT 10SM CLR M05/M07 A3057 RMK AO2
KEUF 310558Z AUTO 00000KT 10SM CLR 06/05 A2998 RMK AO2 SLP149 T00610050 10111 20061 402280061 58004
KEUG 310554Z 14008KT 9SM -RA FEW030 BKN038 OVC046 14/13 A2979 RMK AO2 SLP088 P0003 60026 T01440133 10156 20144 57006
KEUL 310635Z AUTO 00000KT 10SM CLR 08/02 A2989 RMK AO1
KEVB 310147Z 00000KT 10SM SCT110 22/20 A2992 RMK LAST
KEVM 310631Z AUTO 36008G16KT 10SM BKN030 M03/M08 A3042 RMK AO2
KEVV 310554Z 01005KT 10SM BKN055 OVC070 11/06 A3004 RMK AO2 SLP172 60000 T01060056 10117 20106 401440022 56005
KEVW 310553Z AUTO 13004KT 10SM CLR 08/M06 A3025 RMK AO2 SLP178 T00831056 10144 20083 57006 TSNO
KEWB 310553Z AUTO 00000KT 10SM CLR 02/02 A2998 RMK AO2 SLP151 T00220017 10089 20017 55002
KEWK 310635Z AUTO 36019KT 10SM CLR 07/00 A3034 RMK AO1
KEWN 310554Z AUTO 03006KT 10SM CLR 12/09 A2996 RMK AO2 SLP145 T01220094 10144 20117 58011
KEWR 310651Z 02006KT 10SM FEW050 06/01 A3002 RMK AO2 SLP164 T00560011
KEXX 310635Z AUTO 02003KT 10SM CLR 07/04 A2998 RMK AO2 T00730042
KEYE 310553Z AUTO 29005KT 10SM BKN075 08/04 A3003 RMK AO2 SLP170 60000 T00830039 10106 20083 58007
KEYF 310635Z AUTO 00000KT 10SM CLR 10/09 A2994 RMK AO2 T00990086
KEYW 310553Z AUTO 29003KT 10SM CLR 24/22 A2989 RMK AO2 SLP122 T02390217 10261 20233 58009
KEZF 310635Z AUTO 00000KT 10SM CLR 04/04 A3002 RMK AO2 T00360036
KEZM 310635Z AUTO 00000KT 10SM CLR 09/09 A2996 RMK AO2 T00870087
KEZS 310635Z AUTO 32011G16KT 10SM SCT023 BKN050 OVC100 04/00 A3006 RMK AO2 T00401005
KF05 310636Z AUTO 36006KT 10SM CLR 12/01 A3029 RMK AO2
KF44 310635Z AUTO 34005KT 10SM CLR 16/11 A3013 RMK AO2
KF46 310635Z AUTO 34004KT 10SM CLR 15/09 A3016 RMK AO2 T01450090
KF70 310635Z AUTO 00000KT 10SM CLR 16/14 A3000 RMK AO1
KFAF 310558Z AUTO 01003KT 10SM CLR 10/09 A2998 RMK AO2 SLP155 T00950094 10120 20086 57010 $
KFAM 310635Z AUTO 00000KT 10SM OVC037 07/07 A3005 RMK AO1
KFAR 310553Z 33010KT 10SM CLR M05/M08 A3057 RMK AO2 SLP367 T10501078 10006 21056 400561056 51018
KFAT 310553Z 15005KT 10SM FEW150 SCT200 17/08 A2989 RMK AO2 SLP120 T01720083 10289 20172 53005
KFAY 310553Z 02005KT 10SM CLR 08/07 A2995 RMK AO2 SLP137 T00830072 10144 20083 56007
KFBG 310558Z AUTO 03002KT 10SM CLR 09/08 A2996 RMK AO2 SLP148 T00910077 10130 20085 57007 $
KFBL 310634Z AUTO 34009G17KT 10SM CLR M01/M10 A3038 RMK AO2
KFBR 310635Z AUTO 36006KT CLR 05/M03 A3027 RMK AO2 T00511030 PWINO
KFCI 310555Z AUTO 00000KT 10SM CLR 04/M03 A3003 RMK AO1 10110 20040 57007
KFCM 310553Z AUTO 36015G23KT 10SM CLR 00/M11 A3038 RMK AO2 PK WND 35026/0504 SLP294 T00001106 10067 20000 401000000 51030
KFCS 310558Z AUTO 18005KT 10SM CLR 07/M05 A3044 RMK AO2 SLP300 T00701047 10118 20050 50009
KFDK 310635Z AUTO 00000KT 10SM OVC050 09/06 A3005 RMK AO2
KFDR 310553Z AUTO 36009KT 10SM -RA CLR 12/02 A3023 RMK AO2 SLP229 6//// T01220017 10211 20122 402720094 51016 PNO $
KFDW 310655Z AUTO 05004KT 10SM CLR 10/06 A2993 RMK AO1
KFDY 310553Z AUTO 20004KT 10SM OVC050 06/03 A3000 RMK AO2 SLP160 T00560028 10083 20056 58012
KFEP 310635Z AUTO 33013G22KT 10SM BKN026 OVC033 06/00 A3011 RMK AO2 T00600000
KFET 310635Z AUTO 35010G22KT 10SM OVC028 04/M02 A3045 RMK AO2 T00401024
KFEW 310556Z AUTO 24002KT 10SM CLR M03/M05 A3037 RMK AO2 SLP280 T10281049 10093 21039 401541039 50002 $
KFFA 310635Z AUTO 02006KT 10SM CLR 15/08 A2994 RMK AO2 T01500084
KFFC 310553Z AUTO 00000KT 10SM CLR 04/03 A2999 RMK AO2 SLP157 T00440033 10100 20044 55003
KFFL 310635Z AUTO 33014G21KT BKN029 OVC043 09/03 A3018 RMK AO2
KFFM 310634Z AUTO 35006KT 10SM CLR M04/M08 A3056 RMK AO2
KFFO 310558Z AUTO 00000KT 10SM BKN045 OVC075 05/02 A3003 RMK AO2 SLP175 T00460024 10067 20029 57010
KFFT 310553Z AUTO 34003KT 10SM BKN060 OVC080 06/03 A3002 RMK AO2 SLP168 T00560033 10083 20028 56009
KFFX 310634Z AUTO 32008KT 10SM -RA SCT030 OVC035 06/04 A2994 RMK AO2 T00580039
KFFZ 310247Z VRB05KT 30SM BKN180 26/04 A2992
KFGN 310634Z AUTO 01011KT 10SM BKN031 M02/M07 A3054 RMK AO2
KFGX 310635Z AUTO 19003KT 10SM SCT100 BKN120 05/02 A3004 RMK AO2 T00460020
KFHR 310553Z AUTO 00000KT 10SM -RA OVC070 11/10 A2977 RMK AO2 SLP082 P0000 60000 T01060100 10139 20106 51013
KFHU 310555Z 16005KT 10SM FEW280 18/03 A3017 RMK SLP159 52002
KFIG 310554Z AUTO 00000KT 10SM OVC048 06/03 A3001 RMK AO2 SLP169 T00560028 10072 20050 58006
KFIT 310652Z AUTO 00000KT 10SM SCT041 OVC055 07/03 A3002 RMK AO2 SLP166 T00670033
KFKA 310635Z AUTO 35012G24KT 10SM CLR M01/M09 A3028 RMK AO2 T10111091
KFKL 310635Z 00000KT 10SM OVC049 04/02 A3001 RMK AO1
KFKN 310635Z AUTO 00000KT 10SM CLR 06/ A2999 RMK AO1
KFKR 310635Z AUTO 23004KT 10SM SCT100 06/04 A3004 RMK AO2 T00600040
KFKS 310634Z AUTO 32009KT 10SM -RA SCT019 BKN025 OVC031 05/03 A2993 RMK AO2 T00510033
KFLD 310553Z AUTO 30010KT 10SM BKN037 BKN075 05/00 A3004 RMK AO2 SLP177 T00500000 10083 20044 401061011 51002
KFLG 310557Z AUTO 00000KT 10SM CLR 02/M06 A3031 RMK AO2 SLP203 T00171056 10161 20011 58001 TSNO
KFLL 310553Z 26004KT 10SM FEW075 24/20 A2986 RMK AO2 SLP111 T02440200 10261 20244 58011
KFLO 310553Z AUTO 06003KT 10SM CLR 11/07 A2994 RMK AO2 SLP135 T01060072 10144 20106 58008
KFLP 310635Z AUTO 31006KT 10SM CLR 13/03 A3008 RMK AO1
KFLY 310633Z AUTO 19005KT 10SM CLR 02/M05 A3046 RMK AO2 T00171050
KFME 310636Z AUTO 00000KT 10SM OVC060 06/04 A3004 RMK AO1
KFMH 310635Z AUTO 00000KT 10SM OVC050 07/05 A2998 RMK AO2
KFMM 310635Z AUTO 07007KT 10SM CLR 01/M02 A3043 RMK AO2 T00131025
KFMN 310553Z AUTO 10010KT 10SM CLR 07/M06 A3027 RMK AO2 SLP231 T00671056 10189 20056 50003
KFMY 310553Z 00000KT 10SM CLR 23/21 A2986 RMK AO2 SLP114 T02280206 10256 20228 58012
KFNB 310553Z AUTO 36016G28KT 10SM BKN023 OVC028 09/04 A3030 RMK AO2 PK WND 34028/0544 SLP262 60000 T00890039 10139 20089 401890050 53025
KFNL 310635Z AUTO 07008KT 10SM CLR 04/M03 A3041 RMK AO1
KFNT 310653Z AUTO 21005KT 10SM FEW038 OVC095 08/03 A2995 RMK AO2 SLP145 T00780028
KFOA 310635Z AUTO 03003KT 10SM CLR 09/08 A3005 RMK AO2 T00860075
KFOD 310635Z AUTO 35010G20KT 10SM BKN039 01/M07 A3037 RMK AO1
KFOE 310553Z AUTO 34015KT 10SM OVC055 09/04 A3027 RMK AO2 SLP248 T00890044 10144 20089 402060072 51026
KFOK 310553Z 35005KT 10SM CLR 02/01 A3002 RMK AO2 SLP165 T00220006 10106 20017 53002
KFOZ 310633Z AUTO 35006KT 10SM OVC036 M02/M08 A3048 RMK AO2
KFPK 310635Z AUTO 21003KT 10SM BKN065 OVC110 07/03 A2994 RMK AO2 T00660030
KFPR 310553Z 25003KT 10SM OVC055 20/19 A2987 RMK AO2 SLP113 T02000189 10206 20183 55009
KFQD 310635Z AUTO 36004KT 10SM BKN055 06/04 A2998 RMK AO2 T00640037
KFRG 310553Z AUTO 03005KT 10SM BKN050 07/04 A3001 RMK AO2 SLP164 T00670039 10106 20067 55000
KFRI 310558Z AUTO 01010G18KT 10SM BKN022 08/04 A3033 RMK AO2 SLP269 T00790038 10167 20076 402130066 52024
KFRM 310635Z AUTO 34014KT 10SM CLR M01/M09 A3040 RMK AO1
KFRR 310635Z AUTO 19005KT 10SM BKN055 04/02 A3003 RMK AO1
KFSD 310556Z AUTO 34008KT 10SM CLR M03/M07 A3049 RMK AO2 SLP338 T10281067 10044 21028 401281028 51022
KFSE 310635Z AUTO 32006KT 10SM CLR M07/M09 A3054 RMK AO2
KFSI 310558Z AUTO 01008KT 9SM CLR 10/03 A3024 RMK AO2 SLP237 T01030027 10189 20103 402630080 52016
KFSM 310553Z 35003KT 10SM CLR 10/06 A3013 RMK AO2 SLP200 T01000061 10194 20094 402390067 51012
KFSO 310635Z AUTO 00000KT 10SM BKN050 04/M01 A3002 RMK AO2 T00381006
KFST 310553Z AUTO 34004KT 10SM CLR 15/06 A3024 RMK AO2 SLP200 T01500061 10244 20150 402890133 51014
KFSW 310635Z AUTO 32007KT 10SM SCT041 BKN065 OVC100 09/06 A3015 RMK AO2
KFTG 310641Z AUTO 19010KT 10SM CLR 03/M01 A3041 RMK AO2
KFTK 310647Z AUTO 02003KT 10SM FEW049 OVC070 07/05 A3000 RMK AO2
KFTN 310730Z AUTO 14004KT 10SM CLR 21/16 A3009 RMK AO1
KFTW 310553Z 35006KT 10SM CLR 17/06 A3018 RMK AO2 SLP214 T01670056 10244 20167 402670122 51016
KFTY 310553Z 00000KT 10SM CLR 08/04 A2998 RMK AO2 SLP149 T00780044 10117 20061 56003
KFUL 310553Z 00000KT 10SM CLR 18/14 A2997 RMK AO2 SLP146 T01780144 10228 20178 53007 $
KFVE 310553Z AUTO 30005KT 10SM OVC047 02/M04 A2994 RMK AO2 SLP143 T00171039 10039 20017 53005
KFVX 310635Z AUTO 00000KT 10SM CLR 02/02 A3000 RMK AO2
KFWA 310554Z 23004KT 10SM BKN047 BKN080 BKN150 06/03 A3002 RMK AO2 SLP171 T00560028 10078 20056 58010
KFWB 310635Z AUTO 33009G15KT 10SM FEW039 12/04 A3012 RMK AO2
KFWC 310635Z AUTO 02003KT 10SM OVC041 09/08 A3003 RMK AO1 T00900077
KFWN 310553Z AUTO 00000KT 9SM CLR M01/M02 A3003 RMK AO2 SLP171 I1000 I6000 T10061017 10061 21006 55001
KFWS 310635Z AUTO 00000KT 10SM CLR 16/10 A3020 RMK AO2 T01560095
KFWZ 310635Z AUTO 23004KT 10SM CLR 06/M03 A3027 RMK AO2
KFXE 310553Z 00000KT 10SM CLR 23/18 A2986 RMK AO2 SLP114 T02280183 10256 20222 58011
KFXY 310635Z AUTO 34017G25KT 10SM CLR 00/M07 A3035 RMK AO2
KFYG 310635Z AUTO 34003KT 9SM CLR 05/05 A3007 RMK AO2
KFYJ 310635Z AUTO 00000KT 10SM CLR 04/02 A3002 RMK AO2 T00350020
KFYM 310635Z AUTO 10SM CLR 07/04 A3001 RMK
KFYV 310553Z AUTO 35004KT 10SM CLR 11/04 A3015 RMK AO2 SLP203 T01060039 10156 20072 402060017 51010
KFZG 310635Z AUTO 34006KT 10SM CLR 13/07 A2995 RMK AO2 T01310066
KFZY 310554Z AUTO 18003KT 10SM CLR 04/02 A3002 RMK AO2 SLP168 60000 T00390017 10061 20028 58002
KGAD 310635Z 00000KT 10SM CLR 04/02 A3001 RMK AO1
KGAF 310635Z AUTO 35006KT 10SM CLR M08/M10 A3061 RMK AO2
KGAG 310653Z AUTO 35005KT 10SM CLR 06/00 A3036 RMK AO2 SLP271 T00560000
KGAI 310635Z 00000KT 10SM OVC050 07/04 A3005 RMK AO1
KGBD 310635Z AUTO 02015G19KT 10SM CLR 06/00 A3040 RMK AO1
KGBG 310635Z AUTO 31005KT 10SM BKN044 BKN060 OVC110 07/05 A3011 RMK AO2 T00660048
KGBK 310635Z AUTO 04010KT 10SM FEW036 23/14 A3004 RMK A01
KGCC 310553Z AUTO 17017KT 10SM CLR 03/M01 A3031 RMK AO2 SLP264 T00331006 10083 20017 58007
KGCD 310635Z AUTO 00000KT 10SM CLR 15/02 A2981 RMK AO2 T01470024
KGCK 310554Z AUTO 04010KT 10SM CLR 07/M01 A3039 RMK AO2 SLP281 T00671006 10117 20067 402000044 51020
KGCM 310635Z AUTO 01010G16KT 10SM CLR 12/04 A3022 RMK AO2
KGCN 310554Z 00000KT 10SM CLR 02/M09 A3029 RMK AO2 SLP200 T00171089 10172 20017 50003
KGDB 310632Z AUTO 32009KT 10SM CLR M02/M05 A3052 RMK AO2 T10221052
KGDJ 310635Z AUTO 32004KT 10SM CLR 16/14 A3022 RMK AO2 T01550136
KGDP 310640Z AUTO 05033G39KT 10SM BKN021 13/08 A3034 RMK AO2 PK WND 04039/0556 T01330083
KGDV 310635Z AUTO 13013KT 10SM OVC013 01/M02 A3041 RMK AO1
KGED 310554Z AUTO 00000KT 10SM CLR 07/03 A3002 RMK AO2 SLP167 T00670033 10111 20061 58004 $
KGEG 310553Z 05009KT 10SM SCT160 OVC200 09/06 A2981 RMK AO2 SLP096 T00940061 10111 20094 56018
KGEU 310252Z 00000KT 20SM SCT200 BKN250 25/07 A2993
KGEV 310635Z AUTO 00000KT 10SM CLR 04/00 A2998 RMK AO2 T00350004
KGEY 310553Z AUTO 12005KT 10SM CLR 06/M04 A3020 RMK AO2 SLP232 T00561044 10150 20056 58007
KGEZ 310553Z AUTO 19003KT 10SM OVC044 09/04 A3002 RMK AO2 RAB0457E08 SLP168 P0000 60000 T00890044 10094 20083 58006
KGFA 310556Z AUTO 05003KT 10SM BKN160 05/02 A3003 RMK AO2 SLP185 T00480019 10116 20046 401431022 57018
KGFK 310553Z AUTO 34006KT 10SM CLR M07/M10 A3059 RMK AO2 SLP375 T10721100 10011 21072 400441072 51016 TSNO
KGFL 310653Z AUTO 00000KT 2SM BR FEW001 M01/M02 A3003 RMK AO2 VIS 1V5 SLP175 T10061017
KGGE 310635Z AUTO 00000KT 10SM SCT042 13/12 A2991 RMK AO2
KGGG 310553Z AUTO 28004KT 10SM CLR 12/09 A3010 RMK AO2 SLP192 T01220089 10178 20111 402390072 50005
KGGI 310635Z AUTO 33011G24KT 10SM SCT032 OVC038 06/00 A3025 RMK AO2 T00551005
KGGP 310635Z AUTO 28004KT 10SM SCT060 BKN070 OVC100 05/02 A3003 RMK AO2
KGGW 310653Z AUTO 13018G24KT 9SM OVC012 02/M01 A3030 RMK AO2 PK WND 12027/0619 SLP284 T00221011 400281022
KGHB 310640Z AUTO 02009KT 10SM CLR 23/14 A3004 RMK A01
KGHG 310630Z AUTO 05005KT 10SM BKN023 BKN035 OVC050 11/06 A3001 RMK AO2
KGHW 310633Z AUTO 34009KT 10SM CLR M03/M08 A3049 RMK AO2
KGIC 310635Z AUTO 00000KT 7SM CLR 09/05 A2989 RMK AO1 T00860045
KGIF 310553Z AUTO 32003KT 10SM SCT055 BKN090 BKN110 22/19 A2988 RMK AO2 SLP117 T02170194 10239 20217 58012
KGJT 310553Z AUTO 11010KT 10SM CLR 07/M03 A3022 RMK AO2 SLP205 T00721033 10172 20067 58002
KGKJ 310553Z AUTO 00000KT 10SM OVC048 05/02 A3000 RMK AO2 SLP165 T00500017 10056 20033 56012 TSNO
KGKT 310635Z AUTO 00000KT 10SM CLR 03/02 A3000 RMK
KGKY 310553Z 33008KT 10SM CLR 17/09 A3018 RMK AO2 SLP212 T01720094 10239 20150 402670089 51015 $
KGLD 310553Z AUTO 00000KT 10SM CLR 02/M02 A3044 RMK AO2 SLP303 T00221017 10111 20022 51016
KGLE 310635Z AUTO 31006KT 10SM CLR 12/05 A3022 RMK AO2 T01200046
KGLH 310553Z AUTO 24005KT 9SM CLR 12/08 A3003 RMK AO2 SLP174 T01220083 10161 20106 402330067 58008
KGLR 310628Z AUTO 00000KT 10SM -RA BKN011 OVC026 03/03 A2988 RMK AO2 P0000 T00330028
KGLS 310652Z AUTO 02005KT 10SM SCT110 20/14 A3010 RMK AO2 SLP191 T02000144
KGLW 310635Z AUTO 00000KT 10SM OVC090 07/07 A3001 RMK AO2 T00720072
KGLY 310655Z AUTO 33008KT 10SM CLR 11/04 A3018 RMK AO2
KGMJ 310635Z AUTO 33005KT 10SM CLR 12/06 A3019 RMK AO2
KGMU 310553Z AUTO 36006KT 10SM CLR 11/03 A2997 RMK AO2 SLP143 T01060028 10156 20089 57005
KGNA 310556Z AUTO VRB03KT M01/M07 A3032 RMK AO1 SLP277 60005 T10111072 10017 21011 400891011 51045
KGNC 310635Z AUTO 05006KT 10SM CLR 12/02 A3033 RMK AO2 T01190018
KGNF 310635Z AUTO 00000KT 10SM SCT080 08/08 A3001 RMK AO2 TSNO
KGNR 310556Z AUTO 31003KT 01/M01 A2993 RMK AO1 SLP149 T00111006 10044 20011 53005
KGNT 310637Z AUTO 18009KT 10SM CLR 10/M07 A3037 RMK AO2
KGNV 310553Z AUTO 30003KT 10SM OVC046 17/14 A2989 RMK AO2 SLP119 60000 T01720144 10189 20167 58012
KGOK 310553Z AUTO 01005KT 10SM CLR 12/03 A3025 RMK AO2 SLP241 T01220028 10194 20122 402440100 51018
KGON 310556Z AUTO 36007KT 10SM CLR 06/02 A3000 RMK AO2 SLP157 T00560022 10083 20028 55002 TSNO
KGOO 310640Z AUTO 00000KT 10SM CLR 14/04 A2994 RMK AO1
KGOP 310635Z AUTO 00000KT 10SM CLR 18/14 A3020 RMK AO2 LTG DSNT S AND SW
KGOV 310635Z AUTO 26003KT 4SM UP SCT007 BKN019 OVC024 04/04 A2990 RMK AO2 T00400036
KGPH 310655Z AUTO 34018G26KT 10SM SCT050 10/04 A3023 RMK AO2
KGPI 310648Z AUTO 00000KT 2 1/2SM BR CLR 02/02 A2994 RMK AO2 T00220017
KGPM 310635Z AUTO 34004KT 10SM CLR 18/10 A3019 RMK AO2 T01780100
KGPT 310553Z AUTO 31003KT 10SM CLR 09/07 A3004 RMK AO2 SLP171 T00940072 10161 20094 402390094 55000 $
KGPZ 310635Z AUTO 35010G17KT 10SM OVC032 M03/M08 A3044 RMK AO1
KGRB 310553Z 31012G19KT 10SM FEW027 SCT055 OVC065 04/00 A3003 RMK AO2 SLP173 T00440000 10078 20044 400890022 53003 $
KGRD 310556Z AUTO 00000KT 10SM CLR 06/04 A2996 RMK AO2 SLP144 T00560044 10111 20056 58007
KGRF 310558Z AUTO 16005KT 8SM +RA OVC033 12/12 A2978 RMK AO2 SLP088 P0006 60037 T01190117 10143 20119 50002 $
KGRI 310618Z AUTO 36013KT 10SM BKN020 02/M01 A3045 RMK AO2 T00221006
KGRK 310640Z AUTO 32005KT 4SM HZ OVC043 18/15 A3017 RMK AO2 LTG DSNT S RAB0627E0640
KGRR 310553Z AUTO 21006KT 10SM OVC048 07/04 A2995 RMK AO2 SLP146 T00720039 10083 20072 58017
KGRY 310635Z AUTO 04005G15KT 10SM CLR 22/11 A3003 RMK A01
KGSB 310558Z AUTO 04002KT 10SM CLR 09/09 A2995 RMK AO2 SLP145 T00930090 10138 20091 58007 $
KGSH 310553Z AUTO 24006KT 10SM FEW048 OVC070 07/03 A3001 RMK AO2 SLP164 T00720028 10089 20067 58008
KGSO 310554Z 02005KT 10SM FEW060 07/04 A2999 RMK AO2 SLP153 T00720039 10128 20072 58003
KGSP 310553Z AUTO 05004KT 10SM CLR 07/06 A2995 RMK AO2 SLP138 T00720056 10122 20072 58004
KGTB 310608Z AUTO 18003KT 9SM BKN075 00/00 A3001 RMK AO2
KGTF 310553Z 10003KT 10SM CLR 09/00 A3002 RMK AO2 SLP170 T00890000 10128 20067 56019
KGTR 310635Z AUTO 20005KT 10SM SCT100 08/06 A3001 RMK AO1
KGTU 310635Z 34007KT 10SM FEW050 BKN070 OVC090 18/13 A3015 RMK AO1
KGUC 310635Z AUTO 04003KT 10SM CLR M02/M11 A3043 RMK AO1
KGUL 310635Z AUTO 10SM CLR 23/14 A3005 RMK A01
KGUP 310553Z AUTO 00000KT 10SM CLR 05/M09 A3031 RMK AO2 SLP174 T00501089 10200 20039 50003
KGUR 310635Z AUTO 11003KT 10SM CLR 04/01 A3042 RMK AO2 T00380012 PWINO
KGUS 310558Z AUTO 27004KT 10SM BKN095 OVC140 06/05 A3002 RMK AO2 SLP172 T00590053 10097 20049 57007
KGUY 310553Z AUTO 01005KT 10SM CLR 09/M02 A3036 RMK AO2 SLP259 T00891017 10156 20072 402280044 51012
KGVL 310553Z AUTO 29005KT 10SM CLR 08/04 A2997 RMK AO2 SLP142 T00780044 10128 20072 58007
KGVT 310635Z AUTO 34003KT 10SM CLR 12/07 A3016 RMK AO2 LTG DSNT SW
KGVX 310635Z AUTO 09006KT CLR 23/14 A3008 RMK A01
KGWB 310635Z AUTO 21003KT 10SM OVC070 06/01 A3000 RMK AO2
KGWO 310553Z AUTO 00000KT 10SM FEW080 11/09 A3003 RMK AO2 SLP167 T01060094 10133 20100 402220050 58007 TSNO
KGWR 310615Z AUTO 34007KT 10SM CLR M04/M08 A3058 RMK A01 P000
KGWW 310635Z AUTO 00000KT 10SM CLR 07/07 A2997 RMK AO2 T00730071
KGXA 310555Z AUTO 13002KT 10SM FEW170 BKN230 14/02 A3001 RMK AO2 SLP142 T01370024 10260 20152 52005 TSNO $
KGXF 310355Z COR 18003KT 10SM FEW250 23/05 A2993 RMK SLP126 LAST COR 0441
KGXY 310635Z AUTO 04006KT 10SM CLR 03/M06 A3042 RMK AO1
KGYB 310635Z AUTO 03004KT 10SM SCT075 BKN100 18/13 A3016 RMK AO2 T01750125
KGYH 310635Z AUTO 02005KT 10SM CLR 09/01 A2996 RMK AO2
KGYI 310635Z AUTO 00000KT 10SM CLR 12/08 A3020 RMK AO2 T01170075
KGYL 310634Z AUTO 34011G14KT 10SM CLR M01/M09 A3043 RMK AO2 T10081086
KGYR 310347Z 00000KT 10SM SCT250 23/10 A2993 RMK LAST
KGYY 310635Z AUTO 26004KT 10SM SCT040 BKN080 OVC110 09/03 A3002 RMK AO2 T00850031
KGZH 310553Z AUTO 00000KT 10SM CLR 08/06 A3001 RMK AO2 SLP161 T00780061 10133 20078 402220078 58006
KGZL 310615Z AUTO 00000KT 10SM CLR 10/03 A3017 RMK AO2
KH21 310635Z AUTO 30006KT 10SM CLR 09/05 A3012 RMK AO2
KHAE 310635Z AUTO 35004KT 10SM OVC100 08/05 A3012 RMK AO2
KHAF 310635Z AUTO 18007KT 9SM OVC018 15/14 A2993 RMK AO2
KHAI 310635Z AUTO 22004KT 10SM BKN047 OVC050 07/03 A2997 RMK AO2 T00740033
KHAO 310553Z AUTO 00000KT 10SM OVC070 06/04 A3004 RMK AO2 SLP175 T00560039 10061 20022 57010
KHBG 310553Z AUTO 00000KT 10SM CLR 08/06 A3006 RMK AO2 SLP176 T00780061 10150 20078 402330072 58001
KHBI 310635Z AUTO 00000KT 10SM CLR 07/04 A3000 RMK AO2 T00670042
KHBR 310553Z AUTO 35010KT 10SM CLR 09/01 A3028 RMK AO2 SLP246 T00940011 10183 20094 402610089 51014
KHBV 310635Z AUTO 00000KT 10SM CLR 20/18 A3010 RMK AO2 T01990183 PWINO
KHCD 310632Z AUTO 32010KT 10SM CLR M02/M07 A3046 RMK AO2 T10171067
KHCO 310633Z AUTO 34006KT 10SM CLR M07/M09 A3060 RMK AO2
KHDC 310635Z AUTO 00000KT 10SM CLR 09/07 A3008 RMK AO2
KHDE 310635Z AUTO 00000KT 10SM CLR 02/00 A3044 RMK AO2 T00151005
KHDN 310635Z AUTO 11013KT 10SM CLR 03/M03 A3031 RMK AO1
KHDO 310651Z AUTO 00000KT 10SM CLR 17/16 A3011 RMK AO2 SLP184 T01720156
KHEF 310635Z 00000KT 10SM CLR 02/02 A3004 RMK AO1
KHEI 310553Z AUTO 14009KT 10SM OVC008 M01/M03 A3051 RMK AO2 SLP358 T10111033 10017 21011 50004
KHEQ 310635Z AUTO 00000KT 10SM CLR 00/M03 A3047 RMK AO2
KHEY 310653Z AUTO 00000KT 10SM CLR 09/04 A2998 RMK AO2 SLP136 T00940044
KHEZ 310635Z AUTO 15003KT 10SM CLR 09/07 A3007 RMK AO1
KHFD 310553Z 14007KT 10SM CLR 03/02 A3002 RMK AO2 SLP166 T00330022 10100 20033 50001
KHFF 310556Z AUTO 30002KT 10SM CLR 06/05 A2997 RMK AO2 SLP151 T00550054 10112 20055 57008
KHFJ 310635Z AUTO 33010G16KT 10SM CLR 10/05 A3015 RMK AO2
KHGR 310553Z AUTO 00000KT 10SM BKN055 06/02 A3003 RMK AO2 SLP180 T00610022 10106 20056 56006
KHHF 310635Z AUTO 00000KT CLR 05/01 A3035 RMK AO2 T00450012 PWINO
KHHG 310635Z AUTO 00000KT 10SM BKN041 OVC075 A3001 RMK AO2
KHHR 310553Z AUTO 00000KT 10SM BKN014 19/16 A2997 RMK AO2 SLP149 T01940161 10211 20194 53006
KHHV 310635Z AUTO 06007KT 10SM CLR 24/18 A3006 RMK A01
KHHW 310635Z AUTO 29006KT 10SM CLR 12/05 A3014 RMK AO2 T01200054
KHIB 310653Z AUTO 35016G23KT 10SM BKN029 M03/M09 A3044 RMK AO2 SLP326 T10281089
KHIE 310652Z AUTO 00000KT 10SM OVC039 03/02 A3000 RMK AO2 SLP166 T00280017
KHIF 310558Z AUTO 14011KT 10SM CLR 15/M03 A3010 RMK AO2 SLP156 T01491034 10171 20109 57006
KHII 310635Z AUTO 09005KT 10SM CLR 23/00 A2991 RMK AO2
KHIO 310553Z AUTO 13006KT 6SM -RA BR SCT027 BKN065 OVC080 14/14 A2977 RMK AO2 SLP081 P0010 60040 T01390139 10156 20139 56003 TSNO
KHJH 310635Z AUTO 36013KT 10SM OVC023 05/00 A3041 RMK AO2 T00520001
KHJO 310553Z AUTO 00000KT 10SM CLR 15/04 A2990 RMK AO2 SLP125 T01500044 10272 20150 51007
KHKA 310553Z AUTO 00000KT 10SM CLR 12/09 A2999 RMK AO2 SLP154 60008 T01220094 10156 20122 402000050 56013
KHKS 310553Z AUTO 00000KT 10SM BKN085 11/08 A3006 RMK AO2 SLP171 T01060078 10172 20106 402280067 58001
KHKY 310553Z AUTO 00000KT 10SM CLR 06/04 A2998 RMK AO2 SLP140 T00560039 10122 20050 56003 $
KHLC 310553Z AUTO 03015KT 10SM CLR 06/01 A3042 RMK AO2 SLP299 T00560006 10144 20050 402110050 51020
KHLG 310553Z AUTO 19003KT 10SM OVC048 07/03 A3001 RMK AO2 SLP169 T00670028 10083 20061 56014
KHLN 310553Z AUTO 00000KT 10SM CLR 06/02 A3006 RMK AO2 SLP202 T00610017 10117 20061 58010
KHLX 310635Z AUTO 09003KT 10SM CLR 04/00 A2999 RMK AO2 T00360003
KHMN 310558Z AUTO 32008KT 10SM CLR 12/00 A3025 RMK AO2 SLP195 T01241004 10247 20115 52012 $
KHNB 310635Z AUTO 06007KT 10SM SCT042 BKN049 08/04 A3004 RMK AO1
KHND 310556Z AUTO 17004KT 10SM CLR 18/M01 A2999 RMK AO2 58003 T01771011 10261 20177 SLP141
KHNR 310635Z AUTO 35019G26KT 10SM OVC027 01/M03 A3043 RMK AO2
KHNZ 310635Z AUTO 01004KT 10SM CLR 06/04 A2999 RMK AO2 T00580040
KHOB 310655Z AUTO 06009KT 10SM CLR 13/00 A3034 RMK AO2
KHOE 310635Z AUTO 00000KT 10SM CLR 11/10 A2991 RMK AO2
KHON 310555Z AUTO 30007KT CLR M07/M09 A3056 RMK AO2 SLP366 T10721089 10033 21078 400721078 51018 $
KHOP 310558Z 19003KT 4SM -DZ BR OVC065 10/09 A3001 RMK AO2A SLP163 P0000 60000 T01030087 10123 20101 401590019 57010
KHOT 310553Z AUTO 28003KT 10SM CLR 10/08 A3008 RMK AO2 SLP182 T01000083 10172 20100 402280056 51004
KHOU 310553Z COR 00000KT 10SM FEW120 17/14 A3009 RMK AO2 SLP194 T01720144 10222 20161 402670156 51003
KHPN 310556Z 35005KT 10SM CLR 06/01 A3000 RMK AO2 SLP163 T00560011 10089 20039 58001 $
KHQI 310635Z AUTO 02010KT 10SM CLR 23/13 A3007 RMK A01
KHQM 310649Z AUTO 00000KT 3/4SM BR BKN012 BKN110 12/12 A2976 RMK AO2
KHQU 310635Z AUTO 00000KT 10SM CLR 07/07 A2999 RMK AO1 T00660066
KHQZ 310635Z AUTO 33004KT 10SM CLR 14/10 A3017 RMK AO1 T01440102
KHRI 310553Z AUTO 20005KT 10SM SCT026 BKN032 OVC120 12/09 A2981 RMK AO2 SLP094 T01170094 10150 20106 55002
KHRJ 310635Z AUTO 01003KT 10SM CLR 09/07 A2997 RMK AO2 T00920069
KHRL 310652Z 00000KT 8SM CLR 21/20 A3006 RMK AO2 SLP179 T02060200
KHRO 310553Z AUTO 30006KT 10SM CLR 11/04 A3010 RMK AO2 SLP187 T01110044 10156 20111 402110039 51007
KHRT 310558Z AUTO 01006KT 10SM CLR 09/04 A2999 RMK AO2 SLP157 T00910044 10173 20091 402320091 57003 RVRNO $
KHRX 310635Z AUTO 30004KT 10SM CLR 04/01 A3039 RMK AO2 T00410010
KHSA 310150Z 00000KT 10SM CLR 11/07 A3003
KHSB 310635Z AUTO 02003KT 10SM BKN043 OVC050 10/10 A3003 RMK AO2 T01030098
KHSE 310651Z AUTO 03009G20KT 10SM OVC045 16/10 A2990 RMK AO2 SLP125 T01560100 TSNO
KHSI 310643Z AUTO 35008KT 10SM BKN018 02/M01 A3043 RMK AO2 T00221006
KHSP 310635Z AUTO 09003KT 10SM SCT023 02/M01 A2996 RMK AO2 T00151014
KHST 310558Z AUTO 22005KT 10SM CLR 21/19 A2988 RMK AO2 SLP121 T02120190 10238 20212 57013
KHSV 310553Z AUTO 00000KT 10SM CLR 08/06 A3002 RMK AO2 SLP162 T00830061 10144 20078 402000056 58005
KHTL 310553Z AUTO 26006KT 10SM OVC055 05/03 A2991 RMK AO2 SLP136 60000 T00500028 10061 20050 56016
KHTS 310651Z 00000KT 7SM CLR 02/02 A3001 RMK AO2 SLP166 T00220017
KHUA 310558Z AUTO 20002KT 10SM OVC120 09/06 A3001 RMK AO2 SLPNO T00860063 10119 20077 401870045 57005
KHUF 310553Z 00000KT 10SM OVC050 08/07 A3005 RMK AO2 SLP177 60003 T00830072 10100 20078 56010
KHUL 310553Z AUTO 00000KT 10SM OVC034 03/01 A2996 RMK AO2 SLP150 T00280011 10072 20028 53011
KHUM 310635Z AUTO 00000KT 10SM CLR 13/09 A3005 RMK AO2 T01250092
KHUT 310652Z AUTO 01013KT 10SM CLR 07/02 A3036 RMK AO2 SLP271 T00720017
KHVE 310635Z AUTO 00000KT 10SM CLR 03/M10 A3023 RMK AO2
KHVN 310553Z AUTO 34007KT 10SM CLR 08/01 A3002 RMK AO2 SLP164 T00780011 10094 20056 58000
KHVR 310553Z AUTO 07017KT 10SM CLR 02/01 A3008 RMK AO2 SLP208 T00220006 10033 20022 56028 $
KHWD 310554Z AUTO 28006KT 10SM CLR 17/15 A2990 RMK AO2 SLP134 T01670150 10200 20167 51003
KHWO 310553Z AUTO 26005KT 10SM CLR 23/20 A2988 RMK AO2 SLP117 T02280200 10250 20228 58013
KHWV 310556Z AUTO 36004KT 10SM CLR 06/03 A3002 RMK AO2 SLP164 T00610028 10094 20044 53002 TSNO
KHWY 310635Z AUTO 00000KT 7SM BKN060 00/00 A3003 RMK AO2 T00000000
KHXD 310635Z AUTO 34004KT 15/14 A2990 RMK AO2 P0000
KHYA 310556Z AUTO 00000KT 10SM OVC055 09/07 A2996 RMK AO2 SLP148 T00890067 10100 20078 55002
KHYI 310635Z 11003KT 10SM FEW039 OVC049 18/14 A3014 RMK AO1 LTG DSNT NW TSE18
KHYR 310553Z AUTO 35011G20KT 10SM OVC040 M01/M06 A3030 RMK AO2 SNE12 SLP275 P0000 60001 T10061061 10033 21017 400611017 51027
KHYS 310635Z AUTO 02014KT 10SM CLR 05/M02 A3041 RMK AO1
KHYW 310635Z AUTO 01003KT 7SM CLR 11/11 A2992 RMK AO2 LTG DSNT SE
KHYX 310634Z AUTO 22004KT 10SM SCT036 BKN049 OVC090 06/03 A2993 RMK AO2
KHZE 310635Z AUTO 15004KT 10SM FEW028 M09/M10 A3057 RMK AO2
KHZL 310635Z AUTO 00000KT 10SM CLR 00/M01 A3003 RMK AO2
KHZR 310635Z AUTO 00000KT 10SM BKN090 09/08 A3008 RMK AO2 T00920082
KHZX 310627Z AUTO 36011G18KT 10SM BKN033 M01/M07 A3043 RMK AO2
KHZY 310553Z AUTO 17003KT 10SM SCT049 03/02 A3002 RMK AO2 SLP169 T00330022 10050 20022 56011
KI16 310635Z AUTO 7SM SCT042 01/01 A3006 RMK AO2 T00050005
KI35 310635Z AUTO 10006KT 3/4SM OVC001 02/02 A3001 RMK AO1
KI39 310635Z AUTO 00000KT 7SM OVC100 03/02 A3001 RMK AO2
KI67 310635Z AUTO 00000KT 10SM SCT046 OVC065 05/03 A3002 RMK AO1
KI69 310636Z AUTO 00000KT 10SM BKN070 OVC080 06/05 A3002 RMK AO1
KI75 310635Z AUTO 33017G23KT 10SM OVC025 07/01 A3028 RMK AO2 T00650011
KIAB 310558Z AUTO 02018G22KT 10SM CLR 11/02 A3029 RMK AO2 SLP256 T01070021 10183 20107 402210081 52019
KIAD 310652Z 00000KT 10SM OVC050 03/02 A3003 RMK AO2 SLP169 T00280017
KIAG 310553Z AUTO 00000KT 10SM FEW050 BKN075 OVC100 04/02 A2999 RMK AO2 SLP165 T00440022 10067 20044 56010
KIAH 310553Z 00000KT 10SM BKN110 17/13 A3010 RMK AO2 SLP192 T01670133 10194 20144 402610128 53004
KIBM 310640Z AUTO 13006KT 10SM CLR M01/M02 A3041 RMK AO2 T10071022
KICL 310635Z AUTO 36019G28KT 10SM OVC025 05/00 A3036 RMK AO2
KICR 310553Z AUTO 03014KT 10SM OVC018 01/M04 A3054 RMK AO2 SLP355 T00111039 10050 21006 401221006 53010
KICT 310553Z 36016G23KT 10SM CLR 12/02 A3029 RMK AO2 SLP250 T01170022 10189 20117 402330072 51018
KIDA 310553Z 30004KT 6SM HZ CLR 04/M01 A3010 RMK AO2 SLP182 T00441006 10150 20044 56012
KIDI 310635Z AUTO 00000KT 10SM OVC038 06/05 A3003 RMK A01
KIDP 310635Z AUTO 35011G17KT 10SM CLR 11/04 A3023 RMK AO2
KIEN 310652Z AUTO 06007KT 7SM CLR M05/M06 A3048 RMK AO2 SLP336 I1000 T10501061 401501056
KIER 310635Z AUTO 00000KT 10SM CLR 09/09 A3009 RMK AO2 T00880086
KIFA 310635Z AUTO 34019G30KT 10SM BKN039 03/M04 A3030 RMK AO2 T00321043
KIFP 310635Z AUTO 00000KT 10SM CLR 22/00 A2991 RMK AO2 PWINO
KIGM 310651Z AUTO 20005KT CLR 16/01 A3005 RMK AO2 SLP114 T01560006 402890072
KIGQ 310635Z AUTO 26004KT 10SM OVC055 07/03 A3002 RMK AO2 T00670032
KIGX 310556Z AUTO 04004KT 10SM CLR 09/05 A3000 RMK AO2 SLP155 T00890050 10106 20083 58004
KIIB 310635Z AUTO 34022G26KT 10SM OVC043 05/M02 A3020 RMK AO2
KIIY 310635Z AUTO 00000KT 10SM CLR 08/08 A2994 RMK AO2
KIJD 310652Z AUTO 00000KT 10SM BKN055 02/01 A3002 RMK AO2 SLP165 T00220006
KIJX 310635Z AUTO 35005KT 7SM OVC075 08/06 A3010 RMK AO2 T00750062
KIKK 310635Z AUTO 27005KT 10SM OVC060 06/04 A3005 RMK AO2 T00600041
KIKT 310635Z AUTO VRB06G12KT 10SM CLR 22/10 A2998 RMK A01
KIKV 310635Z AUTO 34014G24KT 10SM BKN035 05/M02 A3031 RMK AO2
KIKW 310631Z AUTO 00000KT 10SM SCT031 BKN050 OVC070 06/04 A2992 RMK AO2 T00610036
KILE 310635Z AUTO 32004KT 10SM OVC046 18/13 A3015 RMK AO1
KILG 310651Z 35003KT 10SM BKN055 05/03 A3003 RMK AO2 SLP168 T00500028
KILM 310553Z AUTO 03009KT 10SM CLR 12/11 A2992 RMK AO2 SLP132 T01170106 10139 20117 58015
KILN 310554Z AUTO 14003KT 10SM BKN090 OVC110 03/01 A3002 RMK AO2 SLP181 T00330006 10061 20022 56012
KIML 310553Z AUTO 05005KT 10SM CLR 00/M03 A3045 RMK AO2 SLP318 T00001033 10128 20000 51019
KIMM 310655Z AUTO 00000KT 9SM FEW050 BKN060 21/ A2987 RMK A01 P000
KIMT 310631Z AUTO 35019G25KT 10SM SCT013 BKN024 OVC030 01/M02 A3005 RMK AO2 SNE21 P0000 T00111022
KIND 310554Z 29003KT 10SM FEW042 OVC060 08/04 A3003 RMK AO2 SLP170 60000 T00830039 10106 20083 58006
KINF 310635Z AUTO 36004KT 10SM SCT036 BKN060 OVC080 19/17 A2989 RMK AO2
KINJ 310635Z AUTO 35008KT 10SM CLR 16/12 A3017 RMK AO2 LTG DSNT S T01550117
KINK 310553Z AUTO 06010KT 10SM CLR 18/11 A3025 RMK AO2 SLP207 T01780106 10250 20150 402940094 51020
KINL 310555Z AUTO 02014G20KT 10SM OVC031 M02/M09 A3048 RMK AO2 SNB21E30 SLP338 P0000 60000 T10221089 11011 21028 400391028 51020
KINS 310558Z AUTO 25003KT 10SM FEW190 19/M05 A2998 RMK AO2 SLP118 T01941052 10249 20190 55007 $
KINT 310554Z AUTO 03006KT 10SM CLR 07/03 A3001 RMK AO2 SLP159 T00720028 10117 20072 56002
KINW 310556Z AUTO 10007KT 10SM CLR 09/M02 A3021 RMK AO2 SLP194 T00941022 10228 20089 53008
KIOB 310635Z AUTO 00000KT 7SM SCT075 OVC110 02/01 A3003 RMK AO2
KIOW 310652Z AUTO 35015G21KT 10SM SCT037 OVC047 08/00 A3020 RMK AO2 PK WND 33030/0619 SLP228 T00780000
KIPJ 310635Z AUTO 00000KT 10SM CLR 03/02 A2998 RMK AO2 T00260022
KIPL 310553Z AUTO 00000KT 10SM CLR 21/07 A2986 RMK AO2 SLP112 T02060067 10322 20200 50003
KIPN 310635Z AUTO 36010KT 10SM FEW038 22/11 A2998 RMK A01
KIPT 310554Z AUTO 00000KT 10SM CLR 02/M01 A3003 RMK AO2 SLP172 T00171011 10094 20017 56002
KIRK 310555Z AUTO 35012KT 10SM SCT055 OVC085 10/06 A3016 RMK AO2 SLP217 T01000056 10111 20089 401780011 53022
KIRS 310635Z AUTO 21003KT 10SM RA BKN029 BKN039 OVC046 06/04 A2997 RMK AO2
KISM 310150Z 00000KT 10SM FEW060 BKN085 24/19 A2991 RMK LAST
KISN 310652Z AUTO 14014KT 10SM OVC015 M01/M05 A3048 RMK AO2 SLP345 T10111050
KISO 310635Z AUTO 00000KT 10SM CLR 09/08 A2997 RMK AO2 T00900081
KISP 310556Z AUTO 36006KT 10SM BKN050 08/03 A3000 RMK AO2 SLP157 T00780028 10106 20056 53002
KISQ 310634Z AUTO 34006KT 10SM -RA OVC009 03/02 A2995 RMK AO2 T00280023
KISW 310637Z AUTO 33015G31KT 10SM OVC030 01/M04 A3014 RMK AO2 PK WND 31031/0633 T00111044 $
KITH 310556Z AUTO 08003KT 8SM CLR 00/00 A3003 RMK AO2 56005 T00000000 10027 20000 SLP178
KITR 310553Z AUTO 07009KT 10SM CLR 03/M03 A3042 RMK AO2 SLP290 T00281033 10128 20028 51011
KIWA 310647Z 00000KT 20SM BKN250 18/05 A2995 RMK LAST
KIWD 310635Z AUTO 02012G21KT 10SM FEW026 BKN033 OVC049 M01/M03 A3024 RMK AO1
KIWI 310553Z AUTO 00000KT 10SM CLR 00/M01 A3002 RMK AO2 SLP167 T00001011 10083 20000 51007
KIXA 310635Z AUTO 01005KT 10SM CLR 05/04 A2998 RMK AO2
KIXD 310553Z AUTO 33009KT 10SM CLR 08/05 A3024 RMK AO2 SLP236 T00830050 10144 20083 402000072 51024
KIYA 310630Z AUTO 00000KT 10SM CLR 09/08 A3007 RMK AO2 T00930080
KIZA 310635Z AUTO 01005KT 10SM CLR 12/07 A2995 RMK AO2
KIZG 310554Z AUTO 00000KT 10SM CLR M03/M04 A3002 RMK AO2 SLP169 I1001 I6002 T10331044 10039 21033 53009
KJAC 310635Z AUTO 01005KT 10SM CLR 00/M02 A3025 RMK AO1
KJAN 310554Z 00000KT 10SM FEW085 08/06 A3006 RMK AO2 SLP176 T00830061 10144 20078 402280050 58001
KJAS 310635Z AUTO 00000KT 10SM SCT055 BKN075 11/10 A3012 RMK AO2 T01110101
KJAX 310643Z 33003KT 10SM FEW023 SCT029 SCT045 16/14 A2987 RMK AO2 T01560139
KJBR 310553Z AUTO 00000KT 10SM CLR 09/09 A2999 RMK AO2 SLP154 T00940089 10167 20094 402000044 58001
KJCT 310651Z AUTO 07005KT 10SM BKN050 OVC065 21/16 A3017 RMK AO2 SLP182 T02110161
KJDD 310635Z AUTO 00000KT 10SM CLR 14/09 A3015 RMK AO2
KJDN 310648Z AUTO 11009KT 00/M02 A3026 RMK AO1 SLP276 T00001017 400501050
KJEF 310641Z AUTO 32003KT 8SM FEW002 SCT085 06/06 A3011 RMK AO2 T00610056
KJER 310553Z AUTO 05016KT 10SM CLR 11/M01 A2999 RMK AO2 SLP138 T01111011 10200 20111 58010
KJES 310635Z AUTO 32003KT 10SM CLR 13/12 A2990 RMK AO2
KJFK 310651Z 01006KT 10SM SCT050 08/03 A3002 RMK AO2 SLP166 T00830028
KJFX 310655Z AUTO 00000KT 10SM CLR 06/06 A3003 RMK A02 P-128
KJFZ 310635Z AUTO 03004KT 10SM CLR 03/01 A2998 RMK AO2 T00300014
KJGG 310635Z AUTO 00000KT 10SM CLR 08/07 A3000 RMK AO1
KJHW 310635Z AUTO 21005KT 10SM FEW110 03/02 A2998 RMK AO1
KJKA 310635Z AUTO 00000KT 10SM CLR 07/06 A3001 RMK AO2 T00660059
KJKJ 310634Z AUTO 36007KT 10SM CLR M05/M06 A3058 RMK AO2
KJKL 310553Z AUTO 00000KT 10SM CLR 04/01 A3002 RMK AO2 SLP166 T00440006 10078 20044 58009
KJLN 310653Z AUTO 34009KT 10SM CLR 10/05 A3019 RMK AO2 SLP220 T01000050 PWINO $
KJMR 310635Z AUTO 36007G18KT 320V030 10SM CLR M01/M08 A3043 RMK AO2
KJMS 310556Z AUTO 03005KT 10SM CLR M08/M10 A3057 RMK AO2 SLP376 T10781100 11011 21089 400441089 51006
KJNX 310635Z AUTO 00000KT 10SM CLR 08/07 A2997 RMK AO2 LTG DSNT SE
KJOT 310635Z AUTO 28004KT 10SM OVC044 07/03 A3003 RMK AO2 T00690030
KJQF 310640Z AUTO 00000KT 10SM CLR 04/03 A3000 RMK AO2
KJSO 310635Z AUTO 30005KT 10SM CLR 18/09 A3014 RMK AO2 LTG DSNT SW T01810095
KJST 310554Z AUTO 00000KT 10SM OVC037 04/02 A2999 RMK AO2 SLP167 T00440017 10056 20044 58008
KJSV 310635Z AUTO 00000KT 10SM CLR 14/04 A3015 RMK AO2
KJTC 310635Z AUTO 00000KT 10SM CLR 11/M03 A3034 RMK AO2
KJVL 310635Z AUTO 32011G16KT 10SM BKN038 OVC045 07/00 A3006 RMK AO2
KJVW 310635Z AUTO 00000KT 4SM HZ CLR 08/05 A3005 RMK AO2
KJWG 310635Z AUTO 36017KT 10SM CLR 13/03 A3030 RMK AO2 T01310031
KJWY 310635Z AUTO 36007KT 10SM CLR 16/11 A3019 RMK AO2 T01610109
KJXN 310556Z 22005KT 10SM FEW030 BKN041 OVC050 07/02 A2997 RMK AO2 SLP154 T00670022 10072 20067 56015
KJYG 310635Z AUTO 33012G16KT 10SM CLR M01/M07 A3044 RMK AO2
KJYL 310635Z AUTO 00000KT 10SM CLR 13/12 A2992 RMK AO2 T01270122
KJYM 310635Z AUTO 21004KT 10SM SCT030 BKN042 OVC080 07/03 A2997 RMK AO2 T00670029
KJYO 310635Z AUTO 00000KT 10SM SCT055 03/03 A3003 RMK AO2
KJYR 310635Z AUTO 02016G26KT 10SM OVC022 03/00 A3044 RMK AO2
KJZI 310635Z AUTO 35004KT 10SM BKN037 16/16 A2990 RMK A02 P000
KKLS 310635Z AUTO 00000KT 10SM BKN025 OVC032 A2981 RMK AO1 P0007
KL18 310635Z AUTO 00000KT 7SM CLR 16/15 A2999 RMK AO2
KL35 310635Z AUTO 00000KT 10SM CLR 03/M06 A3018 RMK AO2
KL38 310635Z AUTO 00000KT 10SM CLR 10/10 A3006 RMK AO2 T01040104
KLAA 310553Z AUTO 00000KT 10SM CLR 01/M03 A3040 RMK AO2 SLP285 T00111033 10144 20011 51019
KLAF 310554Z AUTO 00000KT 10SM OVC100 06/04 A3004 RMK AO2 SLP174 60000 T00610039 10089 20061 56005 TSNO
KLAL 310635Z AUTO 31004KT 10SM BKN060 BKN065 BKN075 20/19 A2987 RMK AO2
KLAM 310635Z AUTO 21009G14KT 10SM CLR 09/M06 A3045 RMK AO2 T00881065
KLAN 310553Z 22006KT 10SM BKN049 OVC100 06/02 A2997 RMK AO2 SLP152 T00610022 10078 20050 58015
KLAR 310553Z AUTO 15014KT 10SM CLR 03/M04 A3037 RMK AO2 SLP239 T00281044 10083 20022 58005
KLAS 310556Z 21007KT 10SM BKN240 21/M02 A2993 RMK AO2 SLP117 T02061022 10272 20206 58003
KLAW 310553Z AUTO 34007KT 10SM CLR 13/02 A3025 RMK AO2 SLP238 T01280017 10206 20094 402720061 51016
KLAX 310653Z 00000KT 10SM SCT013 19/16 A2996 RMK AO2 SLP143 SCT V BKN T01890161 $
KLBB 310553Z 04008KT 10SM CLR 08/01 A3033 RMK AO2 SLP244 T00780006 10189 20072 402440072 51016
KLBE 310635Z AUTO 00000KT 10SM OVC048 07/05 A3002 RMK AO2
KLBF 310553Z AUTO 02003KT 10SM CLR M01/M03 A3046 RMK AO2 SLP319 T10061028 10111 21017 401831017 51016
KLBL 310635Z AUTO 04008KT 10SM CLR 09/M01 A3041 RMK AO1
KLBT 310554Z AUTO 00000KT 7SM CLR 07/06 A2994 RMK AO2 SLP138 T00720061 10161 20072 56008 $
KLBX 310553Z AUTO 00000KT 10SM CLR 14/14 A3009 RMK AO2 SLP189 T01390139 10206 20139 402670139 50004
KLCG 310635Z AUTO 01015G24KT 10SM BKN028 00/M06 A3050 RMK AO2 T00001059
KLCH 310553Z AUTO 00000KT 10SM CLR 12/10 A3008 RMK AO2 SLP194 T01170100 10167 20111 402500111 50000
KLCI 310635Z AUTO 00000KT 10SM OVC048 04/01 A3000 RMK AO1
KLCK 310635Z AUTO 00000KT 10SM OVC047 03/01 A3002 RMK AO2 T00290010
KLCQ 310635Z AUTO 36004KT 10SM SCT041 13/10 A2989 RMK AO2
KLDJ 310655Z AUTO 33003KT 10SM CLR 08/03 A3004 RMK AO2 T00790030
KLDM 310635Z AUTO 34009G16KT 10SM DZ SCT022 SCT028 OVC045 06/02 A2995 RMK AO2 T00550023
KLEB 310553Z AUTO 00000KT 10SM OVC040 06/02 A3000 RMK AO2 SLP162 T00560022 10067 20039 51004
KLEE 310553Z AUTO 35006KT 10SM FEW060 BKN085 OVC100 21/17 A2989 RMK AO2 SLP121 T02060172 10233 20200 56009
KLEW 310635Z AUTO 00000KT 10SM CLR M01/M03 A3001 RMK AO1
KLEX 310554Z 00000KT 8SM BKN065 OVC100 07/04 A3003 RMK AO2 SLP168 T00670039 10083 20044 56009 $
KLFI 310558Z AUTO 06008KT 10SM FEW041 11/08 A2999 RMK AO2 SLP162 T01080081 10122 20073 57010 $
KLFK 310553Z AUTO 00000KT 10SM SCT070 OVC120 14/11 A3011 RMK AO2 SLP193 T01440111 10178 20139 402610089 51007
KLFT 310553Z 00000KT 10SM CLR 12/11 A3008 RMK AO2 SLP184 T01170106 10172 20117 402440100 50000
KLGA 310651Z 01007KT 10SM SCT050 08/03 A3002 RMK AO2 SLP164 T00830028
KLGB 310553Z 00000KT 10SM CLR 18/16 A2997 RMK AO2 SLP147 T01830161 10211 20183 52005
KLGC 310635Z AUTO 00000KT 10SM CLR 06/05 A2999 RMK AO2 T00560049
KLGD 310635Z AUTO 13013G17KT 10SM SCT120 15/01 A2980 RMK AO1
KLGU 310651Z AUTO 30005KT 10SM CLR 03/01 A3008 RMK AO2 SLP173 T00330006 402061011 TSNO
KLHB 310635Z AUTO 00000KT 10SM SCT060 SCT080 BKN100 16/13 A3014 RMK AO2 LTG DSNT SW T01590133
KLHM 310635Z AUTO 15006KT 10SM CLR 17/10 A2985 RMK AO1
KLHQ 310553Z AUTO 00000KT 10SM BKN049 03/01 A3003 RMK AO2 SLP172 T00330011 10089 20022 58010
KLHW 310558Z AUTO 00000KT 6SM R33/5000FT BR CLR 12/11 A2989 RMK AO2 SLP125 T01180108 10169 20117 57009
KLHX 310553Z AUTO 03006KT 10SM CLR 04/M03 A3041 RMK AO2 SLP276 T00441033 10144 20039 51013
KLHZ 310635Z AUTO 00000KT 10SM CLR 05/05 A2999 RMK AO2
KLIC 310555Z AUTO 00000KT 10SM CLR M01/M05 A3044 RMK AO2 SLP293 T10111050 10100 21022 51009
KLIT 310553Z 31007KT 10SM CLR 12/08 A3005 RMK AO2 SLP177 T01220083 10172 20111 402330072 51004
KLJF 310632Z AUTO 33009KT CLR M02/M07 A3046 RMK AO2 PWINO
KLKR 310655Z AUTO 00000KT 10SM +RA CLR 05/05 A2995 RMK AO2
KLKU 310635Z AUTO 33003KT 10SM OVC060 02/01 A3001 RMK AO2
KLKV 310635Z AUTO 14012KT M1/4SM BKN120 11/00 A2989 RMK AO1
KLLJ 310555Z AUTO 00000KT 9SM CLR 06/00 A3007 RMK AO2 SLP166 T00610000 10128 20056 58009
KLLQ 310553Z AUTO 27006KT 10SM CLR 14/09 A3003 RMK AO2 SLP168 T01440089 10167 20133 402220067 58007
KLMO 310633Z AUTO 00000KT 10SM CLR 03/M02 A3041 RMK AO2 T00301019
KLMT 310553Z 19015G20KT 10SM CLR 13/06 A2986 RMK AO2 SLP093 T01280056 10167 20111 56005
KLNC 310635Z AUTO 34005KT 10SM CLR 16/09 A3018 RMK AO2 T01620087
KLND 310553Z AUTO 31006KT 10SM CLR 04/M03 A3025 RMK AO2 SLP231 T00441028 10111 20039 58008 TSNO
KLNK 310554Z AUTO 02020G29KT 10SM OVC029 05/M01 A3041 RMK AO2 PK WND 02029/0546 SLP301 T00501011 10122 20050 401780022 51029
KLNL 310635Z AUTO 35014G22KT 3SM -SN BKN014 BKN020 OVC032 M01/M02 A3015 RMK AO2 T10081022
KLNP 310635Z AUTO 00000KT 10SM CLR 02/02 A3000 RMK AO2
KLNR 310556Z AUTO 31013KT 10SM SCT040 OVC049 08/M02 A3012 RMK AO2 SLP198 T00831017 10106 20083 401170006 51009
KLNS 310553Z AUTO 00000KT 10SM OVC050 07/03 A3002 RMK AO2 SLP168 T00670033 10100 20061 58004 $
KLOL 310553Z AUTO 00000KT 10SM CLR 08/M04 A2992 RMK AO2 SLP124 T00781044 10206 20072 55003
KLOM 310635Z AUTO 00000KT 10SM CLR 01/01 A3002 RMK AO1
KLOR 310653Z AUTO 00000KT 9SM CLR 06/04 A2997 RMK AO2 SLP147 T00610044 TSNO $
KLOT 310635Z AUTO 29005KT 10SM OVC042 07/03 A3003 RMK AO2 T00720028
KLOU 310553Z AUTO 00000KT 10SM OVC055 09/03 A3004 RMK AO2 SLP173 T00940033 10106 20067 58005
KLOZ 310553Z AUTO 00000KT 10SM CLR 04/02 A3002 RMK AO2 SLP168 T00440017 10100 20044 56007
KLPC 310635Z AUTO 03003KT 10SM CLR 12/08 A2996 RMK AO1
KLPR 310553Z AUTO 22004KT 10SM OVC044 06/03 A3002 RMK AO2 SLP168 T00610033 10061 20044 58011 TSNO
KLQK 310655Z AUTO 00000KT 10SM CLR 04/04 A2995 RMK AO2 T00350035
KLRD 310556Z 13006KT 10SM CLR 23/19 A3011 RMK AO2 51010 T02270194 10294 20227 SLP183
KLRF 310558Z AUTO 27005KT 10SM CLR 11/09 A3005 RMK AO2 SLP178 T01120086 10183 20097 402290042 52004
KLRJ 310635Z AUTO 34008KT 10SM CLR M01/M06 A3049 RMK AO2
KLRU 310635Z AUTO 15007KT 10SM CLR 16/M01 A3026 RMK AO2 T01581012
KLSB 310635Z AUTO 16008KT 10SM CLR 15/00 A3021 RMK AO2
KLSE 310553Z AUTO 34018G24KT 10SM OVC055 04/M06 A3023 RMK AO2 PK WND 33033/0504 SLP242 T00391061 10094 20039 400940022 53025
KLSF 310648Z AUTO 00000KT 2 1/2SM R33/4500FT BR CLR 05/05 A2998 RMK AO2 VIS 2 1/2V10
KLSV 310558Z AUTO 04005KT 10SM FEW220 18/M02 A2996 RMK AO2 SLP130 T01841024 10272 20177 55000 $
KLTS 310558Z 03006KT 10SM CLR 11/01 A3027 RMK AO2A SLP244 T01090008 10181 20109 402680070 52014 $
KLUA 310635Z AUTO 21003KT 10SM BKN050 02/02 A3004 RMK AO2
KLUD 310635Z AUTO 35005KT 10SM CLR 15/03 A3022 RMK AO2 T01520030
KLUF 310558Z AUTO 31003KT 10SM CLR 20/06 A2992 RMK AO2 SLP122 T02030062 10299 20199 51004 $
KLUK 310553Z AUTO 00000KT 10SM BKN075 OVC090 06/03 A3005 RMK AO2 SLP176 T00560033 10067 20028 56009
KLUM 310635Z AUTO 33017G23KT 10SM SCT036 SCT080 00/M07 A3032 RMK AO2 T10021073
KLVJ 310553Z AUTO 00000KT 10SM BKN120 16/14 A3010 RMK AO2 SLP192 T01610139 10228 20156 402670156 50003
KLVK 310553Z AUTO 29011KT 10SM CLR 16/13 A2990 RMK AO2 SLP122 T01610128 10233 20161 53005 TSNO
KLVL 310635Z AUTO 00000KT 10SM CLR 06/04 A2999 RMK AO1 T00610035
KLVM 310553Z AUTO 00000KT 10SM CLR 07/M01 A3015 RMK AO2 SLP202 T00721011 10117 20072 58012
KLVN 310627Z AUTO 34014G18KT 10SM CLR M02/M10 A3038 RMK AO2
KLVS 310553Z AUTO 00000KT 10SM CLR 05/M06 A3047 RMK AO2 SLP255 T00501056 10139 20044 51013
KLWA 310635Z AUTO 30009KT 10SM SCT034 BKN048 OVC060 10/04 A2997 RMK AO2 T01040038
KLWB 310635Z AUTO 00000KT 10SM CLR M01/M03 A3000 RMK AO2 T10151027
KLWC 310652Z AUTO 34015KT 9SM BKN060 09/04 A3027 RMK AO2 SLP248 T00940044
KLWD 310553Z AUTO 36013G24KT 10SM -RA OVC023 08/03 A3024 RMK AO2 PK WND 35030/0538 SLP243 P0000 60000 T00830028 10122 20083 401720056 51030
KLWM 310554Z 02004KT 10SM OVC055 06/03 A3003 RMK AO2 SLP169 T00560033 10083 20044 51007
KLWS 310556Z AUTO 14004KT 10SM CLR 13/08 A2979 RMK AO2 SLP086 T01330083 10150 20117 56015
KLWT 310554Z AUTO 10008KT 10SM CLR 07/00 A3011 RMK AO2 SLP192 T00670000 10106 20061 58020
KLWV 310553Z AUTO 05003KT 8SM -RA BKN050 OVC065 08/07 A3005 RMK AO2 SLP176 P0005 60007 T00830072 10111 20083 401390006 58005 $
KLXL 310637Z AUTO 34006KT 10SM CLR M01/M09 A3046 RMK AO2
KLXN 310635Z AUTO 35005KT 10SM CLR 00/M01 A3046 RMK AO2 T00041009
KLXT 310653Z AUTO 35015G24KT 10SM CLR 10/04 A3024 RMK AO2 SLP237 T01000039
KLXV 310553Z AUTO 03004KT 10SM CLR M02/M10 A3051 RMK AO2 SLP236 T10171100 10078 21022 51006
KLXY 310635Z AUTO 35004KT 10SM BKN100 16/12 A3014 RMK AO2 LTG DSNT SW T01610120
KLYH 310554Z AUTO 02004KT 10SM OVC060 06/02 A3004 RMK AO2 SLP171 T00560017 10094 20022 58004 $
KLYV 310635Z AUTO 36010G16KT 10SM CLR M01/M06 A3049 RMK AO2
KLZZ 310635Z AUTO 34004KT 7SM +RA OVC042 18/17 A3018 RMK AO2 LTG DSNT S AND SW P0002 T01750165
KM19 310556Z AUTO 29007KT 10SM CLR 12/08 A3002 RMK AO2 50001 T01160083 10155 20111 SLP163
KM25 310655Z AUTO 00000KT 10SM -RA OVC065 11/09 A3001 RMK AO2
KM30 310635Z AUTO 35003KT 7SM OVC060 11/11 A3001 RMK AO2 T01080108
KM40 310635Z AUTO 00000KT 8SM SCT085 SCT100 09/00 A3003 RMK AO2
KM63 310556Z AUTO 02031G36KT 10SM CLR 19/02 A3020 RMK AO2 PK WND 02034/53 SLP166 T01870018 10240 20186 58001
KMAE 310553Z AUTO 00000KT 6SM HZ CLR 16/09 A2989 RMK AO2 SLP118 T01610094 10267 20139 53004
KMAF 310553Z AUTO 06015KT 10SM CLR 18/09 A3026 RMK AO2 SLP209 T01780094 10244 20178 403000128 51020 TSNO
KMAI 310553Z AUTO 00000KT 10SM CLR 09/08 A2997 RMK AO2 SLP149 60000 T00940078 10167 20089 402390089 56003 $
KMAN 310635Z AUTO 13003KT 9SM CLR 07/07 A2987 RMK AO1
KMAO 310655Z AUTO 00000KT 10SM CLR 11/08 A2993 RMK AO2
KMBG 310652Z AUTO 06006KT 10SM CLR M06/M08 A3055 RMK AO2 SLP367 T10611083
KMBL 310635Z AUTO 34010G15KT 10SM BKN025 OVC031 06/02 A2995 RMK AO1
KMBS 310653Z 20005KT 10SM -RA SCT036 BKN045 OVC065 07/03 A2993 RMK AO2 RAB20 SLP138 P0000 T00670033
KMCB 310553Z AUTO 33003KT 10SM CLR 09/07 A3007 RMK AO2 SLP178 T00940067 10161 20089 402330089 50001 PWINO $
KMCD 310639Z AUTO 01008KT 10SM -RA OVC009 04/04 A2989 RMK AO2 T00370035
KMCE 310553Z AUTO 00000KT 10SM CLR 16/07 A2987 RMK AO2 SLP114 T01610067 10256 20156 52006
KMCF 310558Z AUTO 34002KT 10SM BKN055 OVC070 21/21 A2988 RMK AO2 SLP121 T02130205 10233 20213 57009
KMCI 310553Z 34010KT 10SM SCT065 09/05 A3023 RMK AO2 SLP234 T00940050 10144 20094 401940072 51025 $
KMCJ 310635Z AUTO 00000KT 10SM BKN110 19/13 A3007 RMK AO1
KMCK 310553Z AUTO 05007KT 10SM CLR 03/M01 A3045 RMK AO2 SLP313 T00281011 10133 20028 402060028 53020
KMCN 310553Z AUTO 00000KT 10SM CLR 07/06 A2995 RMK AO2 SLP140 T00720056 10139 20072 58006 TSNO
KMCO 310553Z 12003KT 10SM FEW042 FEW090 SCT130 20/19 A2987 RMK AO2 SLP113 T02000189 10256 20200 58014
KMCW 310653Z AUTO 35014G24KT 10SM CLR M01/M08 A3035 RMK AO2 SLP281 T10061078 $
KMCX 310635Z AUTO 00000KT 10SM OVC065 05/03 A3002 RMK AO2 T00490033
KMDD 310635Z AUTO 06008KT 10SM CLR 17/06 A3029 RMK AO2 T01660058
KMDH 310652Z AUTO 00000KT 10SM OVC050 10/09 A3003 RMK AO2 SLP166 T01000089
KMDJ 310635Z AUTO 36014KT 10SM CLR 22/08 A3005 RMK A01
KMDQ 310635Z AUTO 00000KT 10SM CLR 07/04 A3001 RMK AO2
KMDS 310635Z AUTO 01012KT 10SM CLR M03/M07 A3050 RMK AO2
KMDT 310556Z 00000KT 10SM BKN055 08/03 A3002 RMK AO2 SLP167 T00830033 10111 20083 58003
KMDW 310553Z 27007KT 10SM -RA BKN050 OVC110 09/03 A3003 RMK AO2 RAB53 SLP170 P0000 60000 T00890028 10100 20089 401170028 58009
KMDZ 310635Z AUTO 33020G23KT 5SM -SN SCT010 BKN014 OVC018 M01/M03 A3016 RMK AO2 T10131031
KMEB 310652Z AUTO 03003KT 10SM CLR 07/06 A2995 RMK AO2 SLP141 T00720056
KMEH 310556Z AUTO 00000KT 10SM BKN110 13/02 A2982 RMK AO2 SLP087 T01330022 10144 20122 56013
KMEI 310558Z AUTO 00000KT 10SM CLR 06/04 A3004 RMK AO2 SLP172 T00610044 10128 20056 402220039 56004
KMEM 310554Z VRB05KT 10SM FEW080 SCT250 15/07 A2998 RMK AO2 SLP151 T01500072 10172 20128 402110067 58008 $
KMER 310635Z AUTO 00000KT 4SM CLR 13/12 A2987 RMK AO1
KMEV 310635Z AUTO 16007KT 10SM CLR 12/M04 A2998 RMK AO2
KMEZ 310635Z AUTO 00000KT 10SM CLR 15/05 A3012 RMK AO2
KMFD 310652Z AUTO 22004KT 10SM OVC042 06/02 A3000 RMK AO2 SLP163 T00610017
KMFE 310653Z AUTO 00000KT 10SM CLR 22/20 A3008 RMK AO2 SLP183 T02170200
KMFI 310640Z AUTO 34021G26KT 1 3/4SM -SN SCT016 BKN026 OVC032 00/M03 A3015 RMK AO2 PK WND 34034/0629 SNB32 P0000 T00001033
KMFR 310642Z AUTO 05005KT 5SM -RA BR FEW016 BKN024 OVC046 13/12 A2979 RMK AO2 P0019 T01330122
KMFV 310635Z AUTO 02003KT 10SM CLR 05/03 A2999 RMK AO2
KMGC 310635Z AUTO 20004KT 10SM SCT031 BKN050 OVC110 06/02 A3000 RMK AO2
KMGE 310558Z AUTO 31005KT 10SM CLR 07/05 A2997 RMK AO2 SLP148 T00700047 10118 20066 56004 $
KMGG 310635Z AUTO 33013G17KT 10SM CLR M01/M08 A3044 RMK AO2 T10101077
KMGJ 310554Z AUTO 00000KT 10SM BKN036 02/01 A3002 RMK AO2 SLP168 T00220006 10083 20017 50001 TSNO
KMGM 310553Z AUTO 00000KT 10SM CLR 07/05 A3001 RMK AO2 SLP162 T00720050 10150 20072 402220072 58004
KMGN 310635Z AUTO 00000KT 10SM RA SCT030 BKN034 OVC050 04/03 A2989 RMK AO2 T00420032
KMGR 310635Z AUTO 00000KT 10SM CLR 11/10 A2994 RMK AO2
KMGW 310553Z AUTO 00000KT 10SM OVC045 08/02 A3002 RMK AO2 SLP169 T00830022 10094 20083 58013 TSNO
KMGY 310553Z AUTO 07003KT 10SM OVC075 05/02 A3002 RMK AO2 SLP168 T00500022 10067 20028 56009
KMHE 310553Z AUTO 32007KT 10SM CLR M03/M07 A3056 RMK AO2 SLP362 T10331067 10056 21033 400941033 51021
KMHK 310652Z AUTO 02013G23KT 10SM OVC023 09/04 A3035 RMK AO2 SLP277 T00890039 TSNO
KMHR 310630Z 22003KT 10SM BKN120 17/13 A2987
KMHS 310556Z AUTO 10SM SCT028 BKN038 BKN046 13/07 A2985 RMK AO2 SLP108 T01280072 10161 20128 58010
KMHT 310553Z 00000KT 10SM OVC055 06/02 A3001 RMK AO2 SLP175 T00610017 10100 20056 53008
KMHV 310635Z AUTO 23008KT 10SM CLR 15/M04 A3000 RMK AO1
KMIA 310553Z 26005KT 10SM FEW050 FEW080 SCT250 24/21 A2987 RMK AO2 SLP114 T02390206 10256 20239 58013
KMIB 310558Z AUTO 16003KT 10SM CLR M10/M11 A3054 RMK AO2 SLP377 T11021108 11019 21107 400111107 58000 $
KMIC 310653Z AUTO 35013G21KT 10SM CLR M01/M09 A3041 RMK AO2 SLP306 T10061094
KMIE 310553Z AUTO 20004KT 10SM OVC047 07/02 A3002 RMK AO2 SLP165 T00720022 10083 20072 58008
KMIS 310635Z AUTO 04012KT 10SM CLR 21/07 A3001 RMK A01
KMIV 310554Z AUTO 00000KT 10SM CLR 02/01 A3003 RMK AO2 SLP166 T00170006 10078 20017 58004
KMIW 310553Z AUTO 34020G29KT 10SM OVC039 05/M02 A3026 RMK AO2 PK WND 34032/0541 SLP249 60000 T00501017 10117 20050 401561006 53026
KMJQ 310634Z AUTO 33013G18KT 10SM CLR M01/M07 A3043 RMK AO2
KMJX 310635Z AUTO 00000KT 10SM CLR M01/M02 A3002 RMK AO1
KMKC 310554Z 36008KT 10SM SCT065 11/05 A3023 RMK AO2 SLP233 T01110050 10167 20111 402060083 51027
KMKE 310652Z 32016G22KT 10SM FEW036 OVC050 07/M01 A3002 RMK AO2 RAE01 SLP169 P0000 T00671006
KMKG 310648Z AUTO 33010KT 8SM -RA FEW020 OVC027 07/04 A2996 RMK AO2 P0003 T00720039
KMKJ 310635Z AUTO 00000KT 10SM CLR 02/01 A3002 RMK AO2 T00170005
KMKL 310553Z AUTO 16006KT 4SM RA BR OVC055 11/09 A3002 RMK AO2 LTG DSNT SW SLP166 P0011 60011 T01060089 10128 20100 401940017 58003
KMKN 310635Z AUTO 36007KT 10SM SCT085 17/17 A3023 RMK AO2 LTG DSNT S T01700170
KMKO 310553Z AUTO 35010KT 10SM CLR 14/04 A3018 RMK AO2 SLP216 T01390039 10178 20133 402390061 51016
KMKS 310655Z AUTO 00000KT 10SM CLR 13/12 A2991 RMK AO2
KMKT 310635Z AUTO 34014G19KT 10SM CLR M01/M12 A3040 RMK AO1
KMKY 310635Z 00000KT 10SM CLR 21/19 A2986 RMK AO1
KMLB 310553Z AUTO 32004KT 6SM -RA BR SCT041 BKN049 OVC070 21/19 A2987 RMK AO2 LTG DSNT N-E RAE15B35 TSE01 SLP114 P0003 60003 T02110194 10256 20211 57004
KMLC 310553Z AUTO 34007KT 10SM CLR 14/04 A3017 RMK AO2 SLP210 T01390044 10172 20111 402560061 51010
KMLE 310635Z AUTO 35011G19KT 10SM OVC025 05/M02 A3042 RMK AO2 T00451016
KMLF 310652Z AUTO 17006KT 10SM CLR 06/M06 A3011 RMK AO2 SLP166 T00561061 402391011 TSNO
KMLI 310652Z AUTO 32009KT 10SM FEW028 OVC048 09/03 A3012 RMK AO2 SLP201 T00890028
KMLJ 310635Z AUTO 00000KT 10SM CLR 08/08 A2994 RMK AO2
KMLP 310553Z AUTO 16011KT 10SM CLR 04/03 A2996 RMK AO2 SLP106 T00390028 10044 20028 56013
KMLS 310553Z AUTO 12012KT 10SM CLR 02/M01 A3034 RMK AO2 SLP291 T00171011 10050 21006 58008
KMLT 310553Z AUTO 00000KT 10SM OVC055 02/00 A2999 RMK AO2 SLP163 T00170000 10061 20011 53011
KMLU 310553Z AUTO 00000KT 10SM CLR 11/09 A3007 RMK AO2 SLP183 T01110094 10156 20106 402330067 58004
KMMH 310635Z AUTO 21005KT 10SM CLR 05/M10 A3011 RMK AO1
KMMI 310635Z AUTO 00000KT 10SM CLR 02/02 A3002 RMK
KMMK 310553Z AUTO 00000KT 10SM CLR 02/01 A3002 RMK AO2 SLP167 T00220006 10072 20022 50002 TSNO
KMML 310635Z AUTO 34013KT 10SM CLR M03/M08 A3049 RMK AO1
KMMT 310558Z AUTO VRB02KT 10SM CLR 09/06 A2994 RMK AO2 SLP141 T00940057 10126 20084 57008
KMMU 310635Z AUTO 00000KT 10SM CLR 01/M00 A3003 RMK AO2
KMMV 310553Z AUTO 22004KT 9SM -RA OVC075 14/13 A2979 RMK AO2 SLP087 P0006 60025 T01390128 10161 20139 56004
KMNE 310634Z AUTO 00000KT 10SM CLR 10/09 A3009 RMK AO2
KMNH 310632Z AUTO 17009KT 10SM CLR 01/M05 A3043 RMK AO2
KMNI 310655Z AUTO 00000KT 10SM SCT050 10/ A2992 RMK AO2
KMNM 310635Z AUTO 34012G17KT 10SM SCT023 BKN039 OVC060 03/M01 A3000 RMK AO1
KMNN 310553Z AUTO 21003KT 10SM OVC043 06/02 A3002 RMK AO2 SLP171 T00610022 10083 20061 56010 TSNO
KMNZ 310635Z AUTO 32007KT 10SM CLR 16/16 A3021 RMK AO2 LTG DSNT S AND SW T01620162
KMOB 310556Z AUTO 31003KT 10SM CLR 07/06 A3003 RMK AO2 SLP168 T00670061 10150 20067 402220067 57003
KMOD 310553Z AUTO 00000KT 9SM CLR 17/11 A2987 RMK AO2 SLP114 T01670111 10250 20150 52003
KMOP 310639Z AUTO 00000KT 10SM -DZ BKN029 BKN034 OVC048 06/03 A2992 RMK AO2 T00610031
KMOR 310635Z AUTO 00000KT 10SM CLR 04/04 A3000 RMK
KMOT 310554Z AUTO 00000KT 10SM CLR M08/M10 A3054 RMK AO2 SLP372 T10781100 11022 21078 400111078 50000
KMOX 310624Z AUTO 32009KT 10SM CLR M04/M07 A3052 RMK AO2
KMPO 310553Z AUTO 00000KT 10SM CLR M01/M03 A3000 RMK AO2 SLP173 T10111033 10050 21028 55000
KMPV 310651Z AUTO 00000KT 10SM FEW021 OVC041 03/00 A3003 RMK AO2 SLP179 T00330000 $
KMPZ 310635Z AUTO 34013KT 10SM BKN040 OVC050 09/03 A3016 RMK AO2 T00850031
KMQB 310635Z AUTO 32003KT 7SM -RA OVC065 07/06 A3013 RMK AO2 T00680055
KMQE 310654Z AUTO 04010KT 07/03 A2998 RMK AO1 SLP165 T00670028
KMQI 310635Z AUTO 02009KT 10SM BKN032 BKN037 BKN043 15/09 A2995 RMK AO2 T01490092
KMQJ 310635Z AUTO 00000KT 10SM SCT045 SCT075 07/03 A3002 RMK AO1
KMQS 310635Z AUTO 00000KT 10SM OVC048 05/03 A3002 RMK AO2
KMQY 310556Z AUTO 00000KT 10SM FEW075 BKN090 09/07 A3003 RMK AO2 58009 T00880072 10094 20061 401660027 SLP179
KMRB 310553Z AUTO 00000KT 10SM OVC050 08/04 A3002 RMK AO2 SLP167 T00780039 10106 20078 58009 TSNO
KMRC 310635Z AUTO 00000KT 10SM BKN110 A3000 RMK
KMRF 310635Z AUTO 01014KT 10SM CLR 14/04 A3032 RMK AO1
KMRH 310558Z AUTO 01010KT 10SM OVC050 13/11 A2992 RMK AO2 SLP131 T01330106 10150 20117 58015 TSNO
KMRJ 310635Z AUTO 32019G26KT 10SM SCT043 OVC049 06/M02 A3011 RMK AO2
KMRN 310635Z AUTO 36003KT 10SM BKN065 05/04 A3004 RMK AO2 T00490040
KMRT 310633Z AUTO 00000KT 10SM SCT080 04/01 A3002 RMK AO2 T00350005
KMRY 310621Z AUTO 07005KT 10SM OVC015 16/13 A2993 RMK AO2
KMSL 310553Z AUTO 00000KT 10SM FEW100 08/06 A3003 RMK AO2 SLP168 T00830061 10144 20072 402000033 58005
KMSN 310553Z AUTO 33012G17KT 10SM SCT034 OVC060 06/M01 A3009 RMK AO2 SLP193 60000 T00611011 10083 20061 401061006 53009
KMSO 310553Z AUTO 00000KT 10SM CLR 04/03 A3000 RMK AO2 SLP170 T00440033 10106 20039 56012
KMSP 310553Z 34014G22KT 10SM CLR M01/M10 A3039 RMK AO2 PK WND 35027/0513 SLP298 T10061100 10061 21006 400941006 51029
KMSS 310553Z AUTO 00000KT 10SM BKN038 03/00 A3004 RMK AO2 SLP177 T00280000 10056 20011 55001
KMSV 310635Z AUTO 00000KT 9SM CLR M01/M02 A3002 RMK AO1
KMSY 310553Z 32005KT 10SM CLR 13/11 A3005 RMK AO2 SLP179 T01330106 10194 20122 402330122 57000
KMTC 310631Z AUTO 22006KT 10SM BKN060 08/03 A2994 RMK AO2
KMTH 310553Z AUTO 00000KT 10SM CLR 22/20 A2988 RMK AO2 SLP119 T02220200 10244 20222 58012
KMTJ 310553Z AUTO 16007KT 10SM CLR 05/M03 A3029 RMK AO2 SLP220 T00501033 10178 20050 58005
KMTN 310633Z AUTO 00000KT 10SM OVC060 08/06 A3004 RMK AO2
KMTO 310553Z AUTO 05003KT 10SM BKN045 OVC055 08/07 A3005 RMK AO2 SLP176 60000 T00780067 10094 20078 401220000 56007
KMTP 310654Z AUTO 36007KT 10/04 A3001 RMK AO1 SLP160 T01000044
KMTV 310635Z AUTO 00000KT 10SM OVC060 04/04 A3004 RMK AO2 T00360036
KMTW 310556Z AUTO 31017G22KT 10SM BKN039 OVC050 06/00 A3000 RMK AO2 SLP184 T00610000 10083 20061 401000033 55001
KMUI 310558Z AUTO 00000KT 10SM OVC050 07/04 A3003 RMK AO2 SLP173 T00670039 10099 20064 58002
KMUO 310558Z AUTO 11019G23KT 10SM CLR 17/00 A2989 RMK AO2 SLP107 T01661004 10219 20156 57008
KMUT 310635Z AUTO 34015KT 10SM FEW034 OVC049 09/03 A3015 RMK AO2
KMVE 310633Z AUTO 01009KT 10SM CLR M03/M05 A3052 RMK AO2
KMVL 310554Z AUTO 00000KT 10SM OVC046 04/00 A3002 RMK AO2 SLP172 T00440000 10061 20044 53002
KMVN 310635Z AUTO 03005KT 10SM OVC036 09/07 A3004 RMK AO1
KMVY 310553Z AUTO 35003KT 10SM CLR 01/00 A2997 RMK AO2 SLP150 T00060000 10067 20000 56004
KMWA 310635Z AUTO 00000KT 10SM SCT050 10/09 A3003 RMK AO2
KMWC 310635Z AUTO 32019G22KT 10SM OVC060 06/M01 A3003 RMK AO2
KMWH 310652Z AUTO 36007KT 10SM OVC110 11/08 A2977 RMK AO2 SLP081 T01060083 TSNO
KMWK 310635Z AUTO 36003KT 10SM BKN055 09/03 A3002 RMK AO2 T00870026
KMWL 310553Z AUTO 35003KT 10SM CLR 14/11 A3020 RMK AO2 SLP218 T01390106 10200 20139 402720106 51017
KMWM 310633Z AUTO 33015G18KT 10SM CLR M02/M06 A3044 RMK AO2
KMWN 310552Z 27014KT 120SM BKN/// BKN/// FEW010 SCT040 M04/M13 RMK TPS LWR BKN030 TPS LWR BKN053 11045 21090
KMWO 310635Z AUTO 00000KT 10SM OVC070 06/03 A3004 RMK AO2 T00590027
KMWT 310653Z AUTO 30004KT 10SM CLR 09/08 A3007 RMK AO2 SLP179 T00940078
KMXF 310558Z AUTO 00000KT 10SM FEW190 08/ A3000 RMK AO2 SLP161 10126 20074 402090072 58005 $
KMXO 310635Z AUTO 34017G24KT 10SM SCT042 OVC048 06/M02 A3017 RMK AO2
KMYF 310553Z AUTO 00000KT 10SM BKN018 19/17 A2999 RMK AO2 SLP149 T01940167 10217 20183 51003 TSNO
KMYL 310651Z AUTO 05003KT 10SM CLR 05/03 A2993 RMK AO2 SLP127 T00500028 401610011
KMYP 310637Z AUTO 21009KT 10SM CLR 02/M11 A3068 RMK AO2
KMYR 310635Z 02007KT 10SM BKN046 14/10 A2991 RMK AO1
KMYV 310553Z AUTO 15008KT 10SM CLR 18/10 A2985 RMK AO2 SLP110 T01780100 10233 20178 53001
KMYZ 310635Z AUTO 01019G23KT 10SM OVC024 07/01 A3035 RMK AO2
KMZG 310635Z AUTO 10004KT 10SM CLR 24/20 A3006 RMK A01
KMZH 310632Z AUTO 01009G19KT 10SM OVC036 M01/M08 A3039 RMK AO2
KMZZ 310635Z AUTO 20003KT 10SM BKN046 OVC110 06/03 A3002 RMK AO2 T00570025
KN03 310635Z AUTO 00000KT 7SM SCT041 00/00 A3002 RMK AO2
KN38 310635Z AUTO 00000KT 10SM OVC036 03/01 A3000 RMK AO2
KN60 310652Z AUTO 09003KT M08/M09 A3055 RMK AO1 SLP375 T10781089
KNAK 310654Z AUTO 00000KT 10SM OVC060 10/04 A3001 RMK AO2 SLP165 T01000044
KNBC 310556Z 00000KT 7SM FEW120 16/14 A2988 RMK AO2 SLP115 LAST WIND DATA ESTIMATED T01560144 56007 $
KNBG 310555Z AUTO 00000KT CLR 10/08 A3004 RMK AO2 SLP172 T01000078 10139 20100 402390100 58001 TSNO $
KNBT 310556Z AUTO 03013G20KT 9SM BKN055 17/09 A2993 RMK AO2 SLP138 6//// T01720094 10178 20167 58013 PNO
KNCA 310556Z AUTO 02005KT 10SM CLR 12/09 A2994 RMK AO2 SLP140 T01170094 10144 20117 56010
KNDZ 310556Z 33005KT 10SM CLR 09/05 A3001 RMK AO2 SLP149 T00940050 10156 20083 402390083 55001 $
KNEW 310553Z AUTO 01010KT 10SM CLR 19/09 A3005 RMK AO2 SLP170 T01940094 10217 20194 402330178 50000 TSNO
KNFE 310556Z AUTO 35003KT 10SM CLR 08/05 A2998 RMK AO2 SLP153 T00830050 10122 20083 58012
KNFG 310654Z 00000KT 7SM FEW011 16/13 A2997 RMK AO2 SLP147 T01560133 $
KNFL 310556Z 15005KT 10SM BKN210 09/M03 A2993 RMK AO2 SLP108 T00891028 10206 20089 53001
KNFW 310652Z AUTO 33008KT 10SM CLR 17/09 A3024 RMK AO2 SLP221 T01720089 CHINO N VISNO N $
KNGP 310556Z AUTO 13006KT 10SM CLR 23/22 A3006 RMK AO2 SLP180 T02330222 10256 20233 402890222 58001
KNGU 310559Z 04009KT 10SM CLR 13/05 A3000 RMK AO2 SLP158 T01330050 10156 20133 58009 $
KNHK 310652Z AUTO VRB03KT 10SM CLR 07/03 A3000 RMK AO2 SLP159 T00670033
KNID 310556Z 16008KT 10SM FEW250 17/M06 A2995 RMK AO2 SLP130 T01721061 10283 20167 53004 $
KNIP 310653Z 30004KT 10SM SCT012 BKN035 19/13 A2988 RMK AO2 SLP112 T01890128 $
KNJK 310556Z 23003KT 10SM FEW120 SCT150 21/03 A2986 RMK AO2 SLP127 T02110028 10322 20206 50002 $
KNJM 310557Z AUTO 36005KT 10SM OVC055 12/10 A2994 RMK AO2 SLP141 T01220100 10139 20117 58012 TSNO $
KNKT 310654Z 02011KT 10SM BKN055 13/09 A2993 RMK AO2 SLP130 T01330094 $
KNKX 310555Z 00000KT 10SM FEW010 SCT017 18/15 A2998 RMK AO2 SLP148 T01780150 10217 20167 51012 $
KNLC 310556Z 25010KT 10SM FEW140 SCT200 18/05 A2989 RMK AO2 SLP122 RH/41 T01830050 10283 20183 51007 $
KNMM 310556Z AUTO 00000KT 10SM CLR 07/05 A3004 RMK AO2 SLP182 T00670050 10144 20067 402170039 56005 $
KNOG 310556Z AUTO 00000KT 10SM CLR 22/21 A3009 RMK AO2 SLP170 T02170206 10256 20206 403220189 50003 $
KNPA 310556Z AUTO 34004KT 10SM CLR 11/07 A3000 RMK AO2 SLP162 T01060072 10161 20078 402330078 58003 $
KNQA 310650Z 00000KT 10SM FEW070 SCT110 11/08 A2999
KNQI 310556Z AUTO 12003KT 10SM CLR 21/21 A3007 RMK AO2 SLP179 T02110211 10250 20206 403170178 50001
KNQX 310653Z AUTO 24005KT 10SM CLR 24/20 A2987 RMK AO2 SLP114 T02390200 $
KNRB 310652Z AUTO VRB05KT 10SM SCT026 OVC034 18/16 A2986 RMK AO2 SLP112 T01830161 TSNO $
KNRS 310642Z AUTO 13003KT 10SM SCT022 16/15 A2998 RMK AO2 T01610150 $
KNSE 310556Z AUTO 33004KT 10SM CLR 09/05 A3001 RMK AO2 SLP149 T00890050 10150 20089 402170089 57002 $
KNSI 310635Z AUTO 21005KT 4SM HZ SCT003 OVC009 A2997 RMK AO2 $
KNTD 310556Z 05003KT 10SM CLR 18/16 A2997 RMK AO2 SLP148 T01780156 10211 20167 53003 $
KNTU 310556Z 34005KT 10SM CLR 08/04 A2997 RMK AO2 SLP151 T00780039 10128 20078 58013
KNUI 310653Z AUTO 00000KT 10SM CLR 06/03 A3000 RMK AO2 SLP157 T00560033
KNUQ 310556Z AUTO 05004KT 10SM CLR 16/14 A2992 RMK AO2 SLP133 T01610139 10200 20156 52010 TSNO
KNUW 310556Z 09004KT 10SM -RA FEW012 SCT020 OVC033 13/10 A2978 RMK AO2 SLP087 P0001 60007 T01280100 10167 20128 50005 $
KNXF 310556Z AUTO 06003KT 7SM CLR A2997 RMK AO2 SLPNO 52007 $
KNXP 310556Z AUTO 26006KT 10SM CLR 20/01 A3003 RMK AO2 SLP139 T02000011 10272 20194 51003 $
KNY0 310635Z AUTO 00000KT 10SM CLR 01/M01 A3002 RMK AO2 T00081007
KNYC 310651Z AUTO VRB04KT 10SM CLR 08/02 A3004 RMK AO2 SLP164 T00830022 $
KNYG 310556Z AUTO 32005KT 10SM CLR 06/03 A3004 RMK AO2 SLP174 T00560028 10106 20056 56006 $
KNYL 310557Z 17004KT 10SM BKN120 23/05 A2988 RMK AO2 SLP115 T02330050 10322 20233 51007
KNZY 310652Z 00000KT 10SM BKN017 BKN140 BKN220 18/16 A2996 RMK AO2 SLP146 T01830161 $
KO22 310635Z AUTO 00000KT 10SM CLR 10/03 A2991 RMK AO1
KO54 310635Z AUTO 00000KT 10SM BKN041 OVC048 13/12 A2984 RMK AO1
KO69 310630Z AUTO 31007KT 10SM FEW011 SCT017 OVC025 16/15 A2993 RMK AO1
KO86 310635Z AUTO 19003KT 10SM BKN050 12/10 A2985 RMK AO1
KOAJ 310635Z AUTO 36003KT 8SM CLR 09/07 A2994 RMK AO1
KOAK 310553Z 24009KT 10SM FEW010 BKN180 17/13 A2991 RMK AO2 SLP127 T01670128 10189 20167 53004
KOBE 310615Z AUTO 21/20 A2986 RMK AO2 PWINO
KOCF 310635Z AUTO 00000KT 10SM CLR 17/16 A2989 RMK AO1
KOCH 310635Z AUTO 00000KT 10SM CLR 10/08 A3012 RMK AO1
KOCQ 310635Z AUTO 32010G15KT 10SM BKN026 BKN050 OVC080 04/00 A3002 RMK AO1 T00351002
KOCW 310635Z AUTO 03004KT 10SM CLR 08/07 A2996 RMK AO2 T00830065
KODO 310553Z AUTO 07015KT 10SM CLR 17/09 A3027 RMK AO2 SLP214 T01720094 10244 20172 402940128 51019
KODX 310630Z AUTO 35010KT 10SM OVC015 02/M02 A3048 RMK AO2 T00171017
KOEB 310634Z AUTO 21005KT 10SM BKN055 OVC075 07/03 A2997 RMK AO2 T00700030
KOEO 310635Z AUTO 34011KT 10SM CLR M01/M08 A3042 RMK AO2 T10131079
KOFF 310558Z AUTO 35014G29KT 10SM OVC027 05/M01 A3039 RMK AO2 PK WND 35029/49 SLP298 T00491013 10122 20049 401790015 52035
KOFK 310556Z AUTO 36020G24KT 10SM OVC025 03/M03 A3045 RMK AO2 PK WND 35029/0530 SLP319 T00331028 10072 20033 401500022 51024
KOFP 310554Z AUTO 00000KT 10SM CLR 04/03 A3003 RMK AO2 SLP171 T00440028 10094 20044 58008
KOGA 310635Z AUTO 04004KT 10SM CLR 00/M02 A3047 RMK AO2 T00001017
KOGB 310553Z AUTO 00000KT 10SM CLR 10/09 A2993 RMK AO2 SLP133 T01000089 10172 20100 58009
KOGD 310553Z AUTO 13003KT 10SM CLR 10/00 A3008 RMK AO2 SLP157 T01000000 10161 20094 56006 TSNO
KOJA 310635Z AUTO 34006KT 10SM CLR 08/01 A3029 RMK AO2
KOJC 310553Z AUTO 35011KT 10SM CLR 10/05 A3022 RMK AO2 SLP229 T01000050 10161 20100 402000067 51025
KOKB 310652Z AUTO 00000KT 7SM CLR 16/14 A2996 RMK AO2 SLP146 T01560144
KOKC 310652Z 01012KT 10SM CLR 14/02 A3025 RMK AO2 SLP236 T01390017
KOKK 310635Z AUTO 28004KT 10SM CLR 06/03 A3002 RMK AO1
KOKM 310635Z AUTO 35009KT 10SM CLR 13/04 A3020 RMK AO2 T01300042
KOKV 310635Z AUTO 00000KT 10SM SCT060 03/00 A3002 RMK AO2
KOKZ 310635Z AUTO 00000KT 10SM CLR 07/06 A2996 RMK AO2 T00670061
KOLE 310635Z AUTO 19003KT 10SM OVC040 02/02 A2997 RMK AO2
KOLF 310553Z AUTO 12014G19KT 10SM OVC018 03/M01 A3040 RMK AO2 SLP315 T00331011 10039 20033 58009
KOLG 310635Z AUTO 35009G18KT 330V030 10SM OVC036 M01/M06 A3035 RMK AO1
KOLM 310554Z AUTO 20004KT 5SM -RA BR OVC039 12/11 A2978 RMK AO2 SLP086 P0004 60034 T01170111 10150 20117 53000
KOLS 310554Z AUTO 03003KT 10SM CLR 16/06 A3011 RMK AO2 SLP138 T01610056 10283 20156 50002
KOLV 310635Z AUTO 00000KT 7SM CLR 10/09 A2999 RMK A01 P000
KOLY 310635Z AUTO 00000KT 10SM OVC036 07/07 A3005 RMK AO2
KOLZ 310635Z AUTO 33020G26KT 10SM BKN046 04/M04 A3022 RMK AO2
KOMA 310652Z 01016G26KT 10SM OVC029 03/M03 A3044 RMK AO2 PK WND 35029/0638 SLP311 T00331028
KOMH 310635Z AUTO 00000KT 10SM BKN060 02/01 A3004 RMK AO2
KOMK 310553Z AUTO 00000KT 3SM -RA BR SCT002 OVC065 09/08 A2983 RMK AO2 SLP107 P0001 60006 T00890083 10100 20089 57017
KONA 310634Z AUTO 35009G21KT 311V011 10SM SCT060 01/M08 A3030 RMK AO2
KONL 310635Z AUTO 01007G20KT 10SM OVC020 00/M03 A3052 RMK AO2 T00011034
KONM 310635Z AUTO 00000KT 10SM CLR 10/M02 A3031 RMK AO2 T00951020
KONO 310553Z AUTO 25004KT 10SM CLR 08/05 A2989 RMK AO2 SLP123 T00830050 10161 20083 56011
KONP 310635Z AUTO 09006KT 5SM DZ OVC014 12/12 A2979 RMK AO2 P0001
KONT 310553Z 00000KT 10SM FEW180 SCT250 17/13 A2998 RMK AO2 SLP142 T01720133 10244 20172 51009
KONX 310635Z AUTO 00000KT 10SM CLR 09/07 A2997 RMK AO2 T00850065
KONZ 310634Z AUTO 23006KT 10SM BKN045 OVC055 08/03 A2997 RMK AO2
KOOA 310635Z AUTO 35021G25KT 10SM SCT030 OVC036 07/00 A3022 RMK AO2 T00720003
KOPF 310553Z AUTO 26005KT 10SM CLR 23/21 A2987 RMK AO2 SLP116 T02330206 10250 20228 58012
KOPL 310635Z AUTO 00000KT 10SM CLR 09/08 A3008 RMK AO2 T00850081
KOPM 310635Z AUTO 08007KT 10SM BKN021 25/21 A3006 RMK A01
KOPN 310635Z AUTO 36003KT 10SM CLR 10/05 A2997 RMK AO2
KOQT 310653Z AUTO 00000KT 10SM CLR 05/03 A3002 RMK AO2 SLP169 T00500033
KOQU 310250Z 31008KT 15SM SKC 07/02 A2999 RMK LAST
KORB 310633Z AUTO 00000KT 10SM BKN032 M03/M09 A3043 RMK AO2
KORC 310635Z AUTO 35009G14KT 10SM CLR M01/M06 A3047 RMK AO2
KORD 310651Z 32009KT 10SM OVC041 08/02 A3001 RMK AO2 SLP166 T00830022
KORE 310652Z AUTO 00000KT 3SM BR FEW002 00/M01 A3000 RMK AO2 SLP165 T00001006
KORF 310651Z AUTO 03009KT 10SM CLR 13/07 A2997 RMK AO2 SLP148 T01330072 TSNO $
KORG 310635Z AUTO 00000KT 10SM CLR A3011 RMK AO2
KORH 310554Z AUTO 33003KT 10SM BKN034 05/02 A2999 RMK AO2 SLP161 T00500017 10072 20039 53003
KORL 310553Z 00000KT 10SM CLR 22/19 A2987 RMK AO2 SLP117 T02220194 10256 20222 58013
KORS 310635Z AUTO 00000KT 10SM FEW037 11/10 A2975 RMK AO2
KOSA 310635Z AUTO 32005KT 10SM CLR 13/10 A3014 RMK AO1 T01340097
KOSC 310634Z AUTO 24004KT 7SM -RA SCT035 BKN044 OVC050 05/05 A2990 RMK AO2 T00520050
KOSH 310644Z 33016G23KT 10SM FEW025 BKN030 OVC080 04/M01 A3004 RMK AO2 T00441011
KOSU 310553Z AUTO 27003KT 10SM FEW046 BKN100 03/01 A3003 RMK AO2 SLP172 T00330011 10083 20033 56010
KOTG 310635Z AUTO 35012KT 10SM CLR M03/M07 A3045 RMK AO1
KOTH 310635Z 00000KT 5SM BKN015 BKN020 OVC027 14/ A2979 RMK AO1 P0005
KOTM 310638Z AUTO 35019G28KT 10SM -RA OVC033 08/01 A3021 RMK AO2 PK WND 36031/0627 P0000 T00780011
KOUN 310635Z AUTO 36011KT 10SM CLR 13/03 A3025 RMK AO2
KOVE 310553Z AUTO 15017G21KT 10SM CLR 21/07 A2984 RMK AO2 SLPNO T02060067 10233 20206 53001
KOVL 310634Z AUTO 34008KT 10SM CLR M01/M05 A3047 RMK AO2
KOVS 310553Z AUTO 33012G23KT 10SM FEW040 OVC060 07/M03 A3016 RMK AO2 PK WND 32029/0520 SLP219 T00671033 10094 20067 401061017 51015
KOWA 310635Z AUTO 34013G22KT 10SM CLR M01/M11 A3036 RMK AO2
KOWB 310556Z AUTO 00000KT 10SM OVC065 09/07 A3003 RMK AO2 TSNO 58007 T00940072 10127 20094 SLP169
KOWD 310553Z AUTO 00000KT 10SM OVC060 03/02 A2999 RMK AO2 SLP156 T00330022 10056 20011 52001
KOWP 310635Z AUTO 01006KT 10SM CLR 15/04 A3022 RMK AO2 T01450041
KOXB 310553Z AUTO 34005KT 10SM CLR 06/04 A3000 RMK AO2 SLP160 T00610039 10078 20056 58007 TSNO
KOXC 310635Z 35008KT 10SM BKN044 04/M02 A3002 RMK AO1
KOXI 310635Z AUTO 26004KT 10SM OVC055 06/03 A3001 RMK AO1 T00590025
KOXR 310651Z AUTO 00000KT 8SM CLR 16/14 A2996 RMK AO2 SLP143 T01560139
KOXV 310635Z AUTO 33022G29KT 10SM OVC034 06/M00 A3025 RMK AO2
KOZA 310635Z AUTO 04010KT 10SM CLR 19/13 A3023 RMK AO2
KOZR 310558Z AUTO 32006KT 10SM CLR 11/05 A2998 RMK AO2 SLP154 T01050052 10161 20097 402190097 56006 RVRNO
KOZW 310635Z AUTO 21004KT 10SM SCT027 BKN048 OVC100 06/02 A2995 RMK AO2 T00610023
KP28 310556Z AUTO 02015G21KT 11/02 A3030 RMK AO1 SLP256 T01110017 10167 20089 402330028 51015
KP53 310556Z AUTO 02025G35KT 05/03 A2998 RMK AO1 PK WND 02035/0551 WSHFT 0538 PRESRR SLP158 P0014 60028 T00500028 10061 20028 53012
KP58 310651Z AUTO 23005KT 07/04 A2990 RMK AO1 SLP130 T00670039
KP59 310651Z AUTO 06029G39KT 02/M03 A3020 RMK AO1 PK WND 06040/0641 SLP234 T00221028
KP60 310556Z AUTO 29003KT M02/M03 A3029 RMK AO1 SLP242 T10171028 10028 21017 58010
KP68 310553Z AUTO 00000KT 12/M07 A3007 RMK AO1 SLP127 T01171072 10200 20094 56006
KP69 310652Z AUTO 34004KT 09/08 A2989 RMK AO1 SLP122 T00890078
KP92 310653Z AUTO VRB03KT 15/11 A3006 RMK AO1 SLP178 T01500106
KPAE 310553Z AUTO 16006KT 10SM FEW007 OVC040 13/11 A2977 RMK AO2 RAE0455 SLP080 P0000 60028 T01280111 10144 20128 53000
KPAH 310553Z AUTO 00000KT 9SM OVC060 11/10 A3000 RMK AO2 RAE06 SLP159 P0000 60004 T01060100 10139 20106 401780011 58009
KPAM 310558Z AUTO 36009G14KT 10SM CLR 15/07 A2997 RMK AO2 SLP152 P0000 60000 T01490069 10176 20145 57004 $
KPAN 310635Z AUTO 00000KT 10SM CLR 14/01 A3021 RMK AO2
KPAO 310347Z VRB04KT 10SM BKN150 18/15 A2988
KPBF 310553Z AUTO 29009KT 10SM CLR 14/08 A3004 RMK AO2 SLP170 T01390083 10167 20133 402220067 58002
KPBG 310553Z AUTO 00000KT 10SM OVC055 05/02 A3002 RMK AO2 SLP168 T00500017 10072 20050 53001
KPBH 310635Z AUTO 34013G22KT 10SM OVC016 M01/M04 A3020 RMK AO2 T10151039
KPBI 310553Z 24004KT 10SM SCT065 22/21 A2985 RMK AO2 SLP108 T02220206 10256 20222 58010
KPBX 310635Z AUTO 00000KT 10SM CLR 04/01 A3001 RMK AO2 T00380008
KPCM 310635Z AUTO 00000KT 10SM SCT043 OVC060 22/ A2989 RMK AO2
KPCW 310633Z AUTO 22005KT 10SM BKN060 OVC085 08/03 A2999 RMK AO2 $
KPCZ 310635Z AUTO 31017G22KT 10SM SCT029 SCT040 OVC095 04/M01 A3007 RMK AO2 T00401015
KPDC 310635Z AUTO 34018G29KT 10SM OVC060 05/M06 A3019 RMK AO2 T00451056
KPDK 310553Z AUTO 00000KT 10SM CLR 06/04 A2997 RMK AO2 SLP148 T00560039 10128 20056 58005 $
KPDT 310553Z AUTO 30004KT 4SM BR OVC019 09/08 A2982 RMK AO2 SLP092 T00940083 10128 20089 55000 $
KPDX 310553Z 11007KT 7SM -RA FEW020 OVC075 13/13 A2978 RMK AO2 SLP084 P0009 60031 T01330133 10139 20133 56005
KPEA 310635Z AUTO 34015G25KT 10SM OVC034 07/00 A3026 RMK AO2 T00660001
KPEO 310553Z AUTO 21005KT 10SM OVC048 05/03 A3002 RMK AO2 SLP172 T00500033 10050 20006 56004
KPEQ 310635Z AUTO 33006KT 10SM CLR 13/09 A3026 RMK AO2 T01320087
KPEX 310634Z AUTO 28006KT 10SM CLR M04/M09 A3048 RMK AO2 T10451090
KPEZ 310635Z AUTO 00000KT 10SM CLR 19/17 A3010 RMK AO2 LTG DSNT N T01850165
KPGA 310553Z AUTO 27004KT 10SM CLR 13/M06 A3017 RMK AO2 SLP179 T01331056 10206 20122 50002
KPGD 310553Z AUTO 00000KT 10SM BKN055 21/19 A2989 RMK AO2 SLP122 T02110194 10244 20211 58011 $
KPGV 310630Z AUTO 01003KT 10SM CLR 08/06 A2998 RMK AO2
KPHD 310553Z AUTO 00000KT 10SM OVC049 07/04 A3003 RMK AO2 SLP172 T00720044 10089 20072 56012
KPHF 310554Z 36005KT 9SM CLR 10/07 A2999 RMK AO2 SLP155 60000 T01000067 10106 20078 58010
KPHL 310554Z 33003KT 10SM CLR 07/02 A3004 RMK AO2 SLP172 T00670017 10111 20061 56002
KPHN 310636Z AUTO 20003KT 10SM RA OVC050 06/04 A2996 RMK AO2
KPHP 310555Z AUTO 07010KT 10SM OVC012 02/M02 A3053 RMK AO2 SLP351 T00171017 10039 21033 51010
KPHT 310635Z AUTO 00000KT 10SM BKN070 BKN080 OVC100 09/07 A3001 RMK
KPHX 310651Z 00000KT 10SM BKN250 22/10 A2991 RMK AO2 SLP112 T02220100 403440178
KPIA 310554Z 32003KT 9SM OVC065 08/05 A3009 RMK AO2 SLP192 T00780050 10083 20072 401000017 51005
KPIB 310635Z AUTO 00000KT 10SM CLR 07/04 A3006 RMK AO1
KPIE 310600Z AUTO 36005KT 10SM FEW015 OVC065 23/21 A2988 RMK AO2 T02280206
KPIH 310553Z AUTO 33006KT 10SM CLR 05/M01 A3008 RMK AO2 SLP172 T00501006 10172 20039 58006
KPIL 310553Z AUTO 09006KT 9SM CLR 23/20 A3006 RMK AO2 SLP180 T02330200 10250 20233 402940194 50003
KPIR 310653Z AUTO 00000KT 10SM CLR M04/M07 A3057 RMK AO2 SLP371 T10391072
KPIT 310651Z 20003KT 10SM OVC048 07/03 A2999 RMK AO2 SLP168 T00670033
KPKB 310553Z AUTO 00000KT 10SM OVC045 07/03 A3005 RMK AO2 SLP177 T00720028 10100 20067 56014
KPKD 310553Z AUTO 34007KT 10SM CLR M04/M08 A3047 RMK AO2 SLP339 T10391083 10006 21039 400391039 51019 TSNO
KPKV 310635Z AUTO 00000KT 10SM SCT065 19/18 A3009 RMK AO2 T01930180
KPLN 310640Z AUTO 30003KT 10SM -RA FEW017 SCT025 OVC031 04/04 A2990 RMK AO2 P0003 T00440039
KPMD 310553Z AUTO 25012KT 10SM CLR 17/04 A3001 RMK AO2 SLP143 T01670039 10244 20167 53007
KPMP 310553Z 29003KT 10SM CLR 23/19 A2987 RMK AO2 SLP114 T02330189 10261 20233 58010
KPMV 310635Z AUTO 35010G20KT 10SM OVC025 04/M02 A3039 RMK AO2 T00401021
KPNA 310635Z AUTO 28006KT 10SM CLR M02/M04 A3030 RMK AO2
KPNC 310553Z AUTO 01010KT 10SM CLR 09/03 A3025 RMK AO2 SLP239 T00940033 10189 20094 402390083 51019
KPNE 310554Z AUTO 00000KT 10SM CLR 04/M01 A3005 RMK AO2 SLP174 T00441006 10106 20039 56003 TSNO $
KPNM 310634Z AUTO 35011G19KT 10SM CLR M01/M08 A3043 RMK AO2
KPNS 310553Z AUTO 35006KT 10SM CLR 13/04 A3001 RMK AO2 SLP163 T01280044 10178 20106 402330106 58003
KPNT 310635Z AUTO 29005KT 10SM OVC048 07/06 A3006 RMK AO2 T00720055
KPOB 310558Z AUTO 00000KT 10SM CLR 06/05 A2997 RMK AO2 SLP152 T00610054 10123 20060 56006
KPOC 310247Z 24007KT 10SM CLR 18/13 A2999
KPOE 310558Z AUTO 34002KT 10SM SCT080 11/09 A3009 RMK AO2 SLP191 T01070094 10150 20104 402330096 50001
KPOF 310553Z AUTO 36003KT 10SM SCT060 09/07 A3000 RMK AO2 SLP159 60000 T00890072 10139 20089 401830017 56006
KPOU 310553Z AUTO 36003KT 10SM BKN049 06/02 A3003 RMK AO2 SLP165 T00610017 10111 20061 50001 TSNO
KPOV 310638Z AUTO 00000KT 10SM OVC048 06/05 A3000 RMK AO2 T00560052
KPOY 310635Z AUTO 12010KT 10SM CLR 07/M05 A3018 RMK AO2
KPPA 310635Z AUTO 05008KT 10SM CLR 08/M01 A3037 RMK AO2 T00781012 PNO
KPPF 310652Z AUTO 35009KT 10SM CLR 10/05 A3024 RMK AO2 SLP237 T01000050
KPPO 310635Z AUTO 24004KT 10SM SCT060 OVC110 06/04 A3001 RMK AO2 T00630036
KPPQ 310635Z AUTO 32003KT 10SM BKN070 OVC080 08/06 A3011 RMK AO2 T00830060
KPQI 310635Z AUTO 00000KT 10SM SCT060 01/M03 A2997 RMK AO1
KPQL 310553Z AUTO 00000KT 10SM CLR 06/04 A3003 RMK AO2 SLP171 T00560044 10117 20050 402330050 58003 TSNO
KPQN 310634Z AUTO 01008G15KT 10SM CLR M03/M07 A3048 RMK AO2
KPRB 310553Z AUTO 17005KT 10SM CLR 13/07 A2995 RMK AO2 SLP138 T01280067 10206 20117 52002 TSNO $
KPRC 310553Z AUTO 18005KT 10SM CLR 09/01 A3018 RMK AO2 SLP165 T00940006 10222 20089 50002
KPRG 310635Z AUTO 00000KT 10SM BKN090 07/06 A3005 RMK AO2 T00710061
KPRN 310556Z AUTO 35004KT 10SM CLR 08/04 A3000 RMK AO2 SLP155 T00830044 10139 20072 402170072 58007
KPRO 310635Z AUTO 36016G25KT 10SM OVC033 04/M02 A3034 RMK AO2 T00401025
KPRS 310635Z AUTO 01011G15KT 10SM CLR 22/04 A3018 RMK AO2 T02230038
KPRX 310635Z 00000KT 10SM CLR 13/04 A3015 RMK AO1
KPSC 310553Z 00000KT 9SM FEW040 SCT080 BKN110 11/11 A2980 RMK AO2 SLP092 T01110106 10139 20106 56008
KPSF 310554Z AUTO 18004KT 10SM CLR M01/M01 A2999 RMK AO2 SLP160 T10061006 10050 21006 58001
KPSK 310635Z AUTO 00000KT 10SM CLR 02/01 A3002 RMK AO2
KPSM 310558Z 03002KT 10SM FEW048 OVC060 03/01 A3001 RMK AO2A SLP166 T00340011 10078 20023 50006
KPSN 310635Z AUTO 00000KT 10SM CLR 12/11 A3015 RMK AO2 T01240113
KPSO 310635Z AUTO 00000KT 10SM CLR 01/M06 A3042 RMK AO2 T00061058
KPSP 310553Z AUTO 25003KT CLR 26/08 A2991 RMK AO2 SLP125 T02560083 10311 20244 51002 TSNO
KPSX 310553Z AUTO 07005KT 9SM CLR 19/18 A3009 RMK AO2 SLP187 T01890178 10233 20189 402780183 55000
KPTB 310635Z AUTO 00000KT 10SM CLR 02/01 A3001 RMK AO2 T00150011
KPTK 310553Z 22006KT 10SM OVC039 07/02 A2995 RMK AO2 SLP148 60000 T00720017 10078 20072 58015
KPTN 310635Z AUTO 00000KT 1/2SM VV005 11/11 A3009 RMK AO1
KPTS 310635Z AUTO 36007KT 10SM CLR 12/06 A3019 RMK AO2 T01150063
KPTT 310635Z AUTO 02015G20KT 10SM CLR 08/01 A3035 RMK AO2
KPTV 310635Z AUTO 00000KT 10SM CLR 15/04 A2992 RMK AO1
KPTW 310554Z AUTO 00000KT 10SM CLR 01/M01 A3004 RMK AO2 SLP172 T00111006 10078 20011 57003
KPUB 310553Z AUTO 00000KT 10SM CLR 04/M05 A3042 RMK AO2 SLP278 T00441050 10161 20039 51012
KPUC 310553Z AUTO 01008KT 10SM CLR 07/M08 A3025 RMK AO2 SLP227 T00671078 10167 20067 58002 TSNO
KPUJ 310635Z AUTO 33005KT 10SM CLR 10/06 A2997 RMK AO2
KPUW 310553Z AUTO 10013KT 9SM CLR 13/07 A2982 RMK AO2 SLP095 60000 T01330067 10144 20128 56018
KPVB 310635Z AUTO 32020G26KT 10SM SCT034 OVC041 06/M04 A3013 RMK AO1 T00561037
KPVC 310635Z 04011G14KT 10SM OVC065 10/M19 A2999 RMK AO1
KPVD 310651Z 35003KT 10SM OVC055 06/03 A3000 RMK AO2 SLP160 T00610028
KPVE 310555Z AUTO 00000KT 10SM SCT090 07/06 A3000 RMK
KPVF 310635Z AUTO 18004KT 10SM SCT033 BKN042 BKN060 15/02 A2994 RMK AO1
KPVG 310635Z AUTO 00000KT 5SM CLR 02/00 A3000 RMK AO1
KPVJ 310635Z AUTO 32005KT 10SM CLR 11/04 A3021 RMK AO2 T01110038
KPVU 310635Z AUTO 12007KT 10SM CLR 08/00 A3012 RMK AO1
KPVW 310635Z AUTO 05006KT 10SM CLR 09/01 A3034 RMK AO2 T00850006 TSNO
KPWA 310553Z 34005KT 10SM CLR 12/03 A3025 RMK AO2 SLP237 T01170028 10183 20111 402500111 51014
KPWC 310633Z AUTO 01010G19KT 10SM OVC035 M02/M07 A3049 RMK AO2
KPWG 310635Z AUTO 33004KT 10SM CLR 17/11 A3018 RMK AO1
KPWK 310652Z AUTO 31015G20KT 10SM OVC042 09/02 A3004 RMK AO2 SLP173 T00890022
KPWM 310651Z AUTO 00000KT 10SM SCT055 02/00 A3003 RMK AO2 SLP168 T00170000
KPWT 310635Z AUTO 17003KT 10SM OVC060 11/11 A2979 RMK AO1
KPXE 310635Z AUTO 00000KT 10SM CLR 10/07 A2996 RMK AO2 T00970065
KPYM 310552Z AUTO 00000KT 10SM OVC060 06/05 A2999 RMK AO2 SLP154 T00610050 10100 20050 55001
KPYX 310635Z AUTO 01005KT 10SM CLR 05/M02 A3037 RMK AO2 T00491020
KPZQ 310625Z AUTO 26003KT 10SM SCT029 BKN035 OVC047 04/04 A2990 RMK AO2
KQAJ 310555Z 17016G25KT 1600 BLDU BKN080 29/09 A2984 RMK SLP096 T02900093 10253 20239 50000
KQAY 310647Z AUTO 15009G17KT 6000 FEW004 BKN006 BKN009 30/09 A2982 RMK AO2 SLP095 $
KQBL 310556Z AUTO 34003KT 10SM BKN240 12/06 A3001 RMK AO2 SLP169 T01210056 10182 20121 58003
KQEA 310552Z AUTO VRB05KT 30/23 A2971 RMK AO2 SLP059 PWINO TSNO $
KQEB 310625Z AUTO 12SM FEW022 SCT044 19/14 Q1025 RMK AO2 SLP190 $
KQEI 310650Z AUTO 25001KT 9999 SCT065 BKN085 17/03 A3007 RMK A02 TSNO
KQEJ 310650Z AUTO 22004KT 9999 BKN070 19/02 A3002 RMK A02 TSNO
KQEL 310650Z AUTO 08001KT 9999 OVC090 18/05 A3009 RMK A02 TSNO
KQEP 310650Z AUTO 18002KT 9999 CLR 14/09 A2999 RMK A02 TSNO
KQEQ 310650Z AUTO 13005G12KT 9999 SCT095 19/05 A2989 RMK A02 TSNO
KQER 310650Z AUTO 19005G10KT / /CLR 21/03 A3000 RMK A02 TSNO
KQES 310650Z AUTO 6000 // SCT006 BKN021 13/11 A3003 RMK A02 TSNO
KQEV 310650Z AUTO 10003KT 1600 +RA BR CLR 13/11 A3002 RMK A02 TSNO
KQEW 310650Z AUTO 03003KT 2800 -RA BR OVC004 11/10 A3006 RMK A02 TSNO
KQEX 310650Z AUTO 34002KT 2800 -RA BR CLR 13/11 A3010 RMK A02 TSNO
KQEY 310650Z AUTO 15003KT 9999 BKN014 12/09 A3001 RMK A02 TSNO
KQFG 310555Z AUTO VRB03KT 9999 FEW220 20/08 A3022 RMK AO2 SLP215 T02040076 10191 20139 50001
KQFQ 310632Z AUTO 12006G15KT 10SM FEW041 BKN090 17/08 A3001 RMK AO2 SLP161 $
KQFT 310650Z AUTO 18004KT 9999 OVC012 15/07 A3003 RMK A02 TSNO
KQFU 310650Z AUTO 33004KT 6000 // CLR 18/05 A3004 RMK A02 TSNO
KQFV 310650Z AUTO 13004KT 9999 CLR 18/04 A3003 RMK A02 TSNO
KQFX 310650Z AUTO 25001KT 6000 HZ FEW014 BKN020 13/10 A3005 RMK A02 TSNO
KQGA 310559Z AUTO 01004KT 9000 HZ CLR 26/02 A2986 RMK CDP03659 CLR
KQGV 310555Z 15012G21KT 9999 FEW050 BKN080 BKN150 29/10 A2980 RMK SLPNO QNH1010 PA +576 5////
KQGX 310558Z AUTO 15015KT 9999 CLR 31/18 A2991 RMK AO2 SLPNO T03060176 10306 20224 52009
KQHY 310556Z AUTO 36004KT 10SM CLR 12/05 A3002 RMK AO2 SLP172 T01200053 10180 20120 58003
KQIR 310558Z 11011KT 9000 BR HZ CLR 31/21 A2989 RMK AO2A SLP123 T03120214 10312 20229 $
KQL5 310555Z 36008KT 9999 FEW120 BKN200 23/03 A3017 RMK SLP204 T02260025 10163 20142 50001
KQLP 310555Z AUTO VRB04KT 19/11 Q1025 RMK AO2 SLP186 T01880106 PWINO TSNO $
KQRB 310550Z AUTO 04003KT 9999 SCT001 BKN047 22/22 A2992 RMK AO2 SLP130
KQRH 310555Z AUTO VRB03KT 7SM CLR 32/19 A2994 RMK AO2 SLP135 T03210192 10259 20239 51012
KQSA 310558Z COR VRB02KT 9999 FEW050 SCT160 BKN200 13/02 A3025 RMK AO2 SLP190 T01320015 10132 20046 50003 COR 0620
KQTC 310455Z AUTO 07006KT 10SM CLR 21/02 A2997 RMK AO2 SLP124 T02130018
KQTH 310555Z VRB03KT 9999 FEW085 31/14 A3005 RMK AO2A SLP148 T03110142 51010
KQTZ 310555Z 34005KT 9000 HZ BKN090 20/11 A2989 RMK SLP121 WND DATA ESTMD ALSTG/SLP ESTMD 52014
KQUD 310555Z AUTO 06002KT 10SM SCT100 21/17 A3020 RMK AO2 SLP185 T02080171 10214 20199 52012 $
KQVF 310636Z AUTO 18007G13KT 9999 FEW023 31/22 A2999 RMK AO2 SLP154
KQWM 310555Z 17020G29KT 8000 BLDU FEW140 BKN200 27/15 A2979 RMK SLP080 QNH1008
KQXT 310555Z 22003KT 9999 BKN120 BKN200 19/M11 A3020 RMK SLP217 WND DATA ESTMD ALSTG/SLP ESTMD Q1022 52010
KRAC 310623Z AUTO 32009KT 10SM SCT029 OVC036 07/01 A3003 RMK AO2 RAE0555 P0000 T00720011
KRAL 310553Z AUTO 00000KT 10SM CLR 18/15 A2998 RMK AO2 SLP139 T01780150 10250 20178 51005
KRAP 310652Z 14010KT 6SM BR OVC004 M01/M02 A3049 RMK AO2 SLP343 T10111022 401221022
KRAS 310635Z AUTO 12004KT 10SM CLR 24/21 A3006 RMK AO2 T02360205
KRBD 310553Z 34007KT 10SM CLR 17/12 A3017 RMK AO2 SLP210 T01720117 10228 20156 402670111 51015
KRBG 310638Z AUTO 00000KT 4SM BR BKN004 OVC100 14/13 A2978 RMK AO2 RAE35 P0001 T01440133
KRBL 310554Z AUTO 17007KT 10SM CLR 17/11 A2981 RMK AO2 SLP090 T01670106 10228 20150 55004
KRBW 310635Z AUTO 00000KT 10SM CLR 10/ A2992 RMK AO2
KRCA 310648Z AUTO 15012KT 10SM OVC004 00/M02 A3047 RMK AO2 $
KRCE 310635Z AUTO 02011KT 12/02 A3028 RMK AO2
KRCM 310635Z AUTO 32014G20KT 10SM CLR 10/03 A3019 RMK AO2
KRCR 310635Z AUTO 26005KT 10SM OVC065 07/03 A3002 RMK AO2
KRCV 310630Z AUTO 30004KT 10SM CLR 04/M07 A3042 RMK AO2 T00371075
KRCX 310635Z AUTO 34016G24KT 10SM BKN024 00/M04 A3026 RMK AO2 T10031036
KRCZ 310635Z AUTO 02003KT 10SM CLR 07/05 A2995 RMK AO2 T00720054
KRDD 310553Z AUTO 00000KT 10SM CLR 15/13 A2980 RMK AO2 SLP089 T01500128 10222 20144 55004
KRDG 310554Z 00000KT 10SM BKN050 03/01 A3003 RMK AO2 SLP174 T00280011 10089 20028 56003
KRDK 310635Z AUTO 01019G24KT 10SM OVC025 04/M01 A3038 RMK AO2
KRDM 310637Z AUTO 31005KT 7SM SCT003 BKN065 09/09 A2982 RMK AO2 T00940089
KRDR 310558Z AUTO 01005KT 10SM CLR M07/M09 A3060 RMK AO2 SLP382 T10691094 10003 21069 400401069 52012
KRDU 310651Z 03005KT 10SM FEW250 07/05 A2998 RMK AO2 SLP151 T00720050
KREO 310652Z AUTO 24004KT 05/M02 A2988 RMK AO1 SLP111 T00501017
KRFD 310625Z 34019G27KT 10SM -RA BKN028 BKN037 OVC043 08/02 A3008 RMK AO2 PK WND 33027/0625 RAB11 P0000 T00830022
KRFI 310635Z AUTO 00000KT 10SM CLR 10/10 A3012 RMK AO2 T01030098
KRGK 310631Z AUTO 34009G17KT 212V022 10SM CLR M01/M09 A3035 RMK AO2
KRHI 310653Z AUTO 01010G25KT 3SM -SN BR FEW018 OVC036 M02/M03 A3014 RMK AO2 PK WND 01029/0605 UPB24E32SNE24B32 SLP224 P0000 T10171033
KRHP 310635Z AUTO 00000KT 10SM CLR 01/01 A3000 RMK AO2 T00070007
KRHV 310448Z 00000KT 10SM SCT100 20/12 A2992 RMK LAST
KRIC 310554Z 35004KT 10SM CLR 07/03 A3001 RMK AO2 SLP168 T00720028 10122 20072 58008
KRIL 310553Z AUTO 20003KT 10SM CLR 04/M04 A3028 RMK AO2 SLP234 T00391039 10189 20028 58001
KRIV 310558Z AUTO 00000KT 10SM CLR 15/12 A2999 RMK AO2 SLP147 T01510121 10245 20148 50005
KRIW 310553Z AUTO 33006KT 10SM CLR 03/M04 A3026 RMK AO2 SLP241 T00281044 10111 20022 58009
KRKD 310635Z AUTO 30004KT 10SM SCT050 04/00 A2999 RMK AO1
KRKP 310553Z AUTO 14006KT 10SM CLR 23/21 A3007 RMK AO2 SLP185 T02280206 10244 20228 402890217 50002
KRKR 310635Z AUTO 00000KT 10SM CLR 08/07 A3015 RMK AO2 T00810067
KRKS 310554Z AUTO 14009KT 10SM CLR 07/M04 A3026 RMK AO2 SLP208 T00721039 10133 20067 58010
KRME 310553Z AUTO 12004KT 10SM CLR 01/00 A3004 RMK AO2 SLP174 T00060000 10039 20006 55001
KRMG 310553Z AUTO 00000KT 10SM CLR 04/04 A2999 RMK AO2 SLP151 T00440039 10111 20044 58006
KRMN 310635Z AUTO 00000KT 10SM CLR 01/01 A3006 RMK AO2 T00090009
KRMY 310633Z AUTO 21005KT 10SM OVC060 06/02 A2995 RMK AO2 T00620021
KRNC 310635Z AUTO 00000KT 10SM CLR 06/06 A3001 RMK
KRND 310558Z AUTO 06001KT 10SM CLR 19/16 A3010 RMK AO2 SLP187 T01910161 10250 20190 402900168 50003
KRNH 310635Z AUTO 34015G22KT 10SM SCT036 M02/M08 A3037 RMK AO2 T10181082
KRNM 310610Z AUTO 15004KT 7SM BKN010 17/15 A2999 RMK AO2 CIG 007V011 T01670150 TSNO $
KRNO 310555Z 00000KT 10SM BKN180 BKN230 12/02 A2995 RMK AO2 SLP120 T01170017 10189 20111 58003
KRNP 310634Z AUTO 00000KT 10SM SCT046 BKN080 OVC100 06/03 A2994 RMK AO2 T00610030
KRNT 310553Z AUTO 13003KT 10SM -RA OVC036 13/12 A2977 RMK AO2 RAB30 SLP085 P0001 60045 T01280122 10150 20128 58004
KRNV 310635Z AUTO 22004KT 10SM BKN070 12/11 A3001 RMK AO2 T01230106
KROA 310554Z 00000KT 10SM CLR 04/01 A3005 RMK AO2 SLP175 T00390011 10100 20039 56005
KROC 310554Z 00000KT 10SM BKN039 OVC100 06/03 A3001 RMK AO2 SLP170 T00610028 10061 20039 56006
KROG 310557Z AUTO 34006KT 10SM CLR 12/04 A3015 RMK AO2 SLP204 T01170044 10161 20117 51011 TSNO $
KROS 310634Z AUTO 35013G20KT 10SM CLR M02/M08 A3041 RMK AO2 T10181078
KROW 310651Z AUTO 32005KT 10SM CLR 11/00 A3035 RMK AO2 SLP234 T01060000 402670061
KROX 310634Z AUTO 33005KT 10SM CLR M06/M08 A3056 RMK AO2
KRPD 310635Z AUTO 33009G14KT 10SM SCT037 M01/M06 A3033 RMK AO2 T10131062
KRPH 310630Z AUTO 35003KT 10SM CLR 14/05 A3023 RMK AO2 T01400046
KRPJ 310635Z AUTO 32011G15KT 10SM OVC045 07/03 A3006 RMK AO2 T00730033
KRQB 310635Z AUTO 29007KT 4SM UP SCT015 BKN020 OVC042 06/06 A2992 RMK AO2 P0001 T00550055
KRQE 310553Z AUTO 00000KT 10SM CLR 03/M09 A3032 RMK AO2 SLP201 T00331094 10206 20028 50004 TSNO
KRQO 310635Z AUTO 34009KT 10SM CLR 09/01 A3027 RMK AO2
KRRL 310635Z AUTO 36013G23KT 1 1/4SM -SN OVC005 00/M01 A3012 RMK AO2 P0001 T10041013
KRRT 310634Z AUTO 32005KT 10SM SCT032 M04/M07 A3056 RMK AO2
KRSL 310553Z AUTO 01010KT 10SM CLR 05/01 A3039 RMK AO2 SLP291 T00500011 10139 20050 402110050 51026
KRSN 310635Z AUTO 00000KT 10SM CLR 09/09 A3010 RMK AO2 T00940089
KRSP 310554Z AUTO 10SM OVC040 06/01 RMK AO2 SLPNO T00610006 10067 20050 $
KRST 310554Z AUTO 35018G32KT 10SM CLR M01/M11 A3029 RMK AO2 PK WND 34037/0500 SLP269 T10061106 10072 21006 400891006 53026
KRSV 310635Z AUTO 00000KT 10SM SCT036 OVC042 09/08 A3006 RMK AO2 T00900082
KRSW 310553Z AUTO 25003KT 10SM SCT060 BKN110 22/20 A2987 RMK AO2 SLP112 T02220200 10244 20217 58012
KRTN 310553Z AUTO 21003KT 10SM CLR 06/M05 A3045 RMK AO2 SLP266 T00561050 10144 20033 51012
KRTS 310635Z AUTO 24005KT 10SM CLR 13/M04 A2997 RMK AO2
KRUE 310553Z AUTO 00000KT 10SM CLR 09/08 A3008 RMK AO2 SLP180 T00890078 10139 20083 402280050 51007
KRUG 310635Z AUTO 12005KT 10SM CLR M08/M09 A3058 RMK AO2
KRUQ 310635Z AUTO 00000KT 10SM CLR 03/03 A2998 RMK AO2 T00320028
KRUT 310635Z 00000KT 10SM OVC048 04/01 A3000 RMK AO1
KRVS 310553Z AUTO 35009KT 10SM CLR 15/04 A3020 RMK AO2 SLP234 T01500039 10200 20117 402500061 51019
KRWF 310553Z AUTO 33009KT 10SM CLR M02/M06 A3046 RMK AO2 SLP325 T10171056 10050 21017 401111017 51025
KRWI 310553Z AUTO 03005KT 9SM CLR 07/06 A2998 RMK AO2 SLP153 T00670061 10106 20067 58008
KRWL 310553Z AUTO 00000KT 10SM CLR 02/M07 A3033 RMK AO2 SLP237 T00221067 10111 20006 58005
KRWV 310630Z AUTO 00000KT 10SM FEW048 SCT070 BKN090 17/13 A3016 RMK AO2 LTG DSNT SW AND W
KRXE 310553Z AUTO 06004KT 10SM CLR 05/M01 A3012 RMK AO2 SLP191 T00501006 10156 20044 58010
KRYN 310245Z 18004KT 10SM CLR 25/06 A3001
KRYT 310553Z AUTO 23003KT 10SM OVC049 A3000 RMK AO2 SLPNO 57010 $
KRYV 310635Z AUTO 31016G27KT 10SM SCT027 BKN033 BKN050 05/00 A3006 RMK AO2 T00470001
KRYW 310635Z AUTO 06003KT 10SM VCTS BKN050 OVC070 20/14 A3016 RMK AO2 LTG DSNT SW AND W T02000140
KRYY 310250Z 00000KT 10SM SKC 08/04 A3001
KRZL 310635Z AUTO 25003KT 10SM OVC060 06/05 A3004 RMK AO2
KRZN 310635Z AUTO 35010G17KT 10SM SCT038 M02/M08 A3038 RMK AO2 T10161080
KRZR 310635Z AUTO 00000KT 10SM CLR 03/02 A3000 RMK
KRZT 310634Z AUTO 00000KT 10SM BKN120 02/01 A3003 RMK AO2
KS39 310635Z AUTO 26009KT 10SM SCT008 SCT013 SCT120 10/09 A2982 RMK AO2
KSAA 310635Z AUTO 14010KT 10SM CLR 04/M05 A3032 RMK AO2
KSAC 310553Z AUTO 23012KT 10SM CLR 18/13 A2986 RMK AO2 SLP112 T01780133 10244 20172 53001
KSAD 310651Z AUTO 13005KT 10SM CLR 17/01 A3010 RMK AO2 SLP153 T01720006 402940089
KSAF 310553Z AUTO 12013KT 10SM CLR 11/M07 A3040 RMK AO2 SLP226 T01111067 10183 20111 51010
KSAN 310651Z 00000KT 10SM SCT020 20/16 A2998 RMK AO2 SLP153 T02000161
KSAR 310635Z AUTO 00000KT 10SM SCT031 OVC041 09/09 A3004 RMK AO2 T00930090
KSAT 310651Z 02003KT 10SM BKN010 21/17 A3010 RMK AO2 SLP178 T02060172
KSAV 310640Z AUTO 00000KT 2 1/2SM BR CLR 14/12 A2990 RMK AO2 TSNO
KSAW 310638Z AUTO 36024G31KT BKN006 OVC011 00/M01 A3003 RMK AO2
KSAZ 310634Z AUTO 32005KT 10SM CLR M06/M09 A3048 RMK AO2
KSBA 310553Z AUTO 26003KT 8SM CLR 13/11 A2995 RMK AO2 SLP142 T01280111 10217 20128 50005
KSBD 310345Z 25006KT 10SM BKN150 19/12 A2997
KSBM 310553Z AUTO 32010G18KT 10SM BKN032 BKN047 OVC060 06/00 A3000 RMK AO2 SLP165 T00610000 10078 20061 401001011 57001
KSBN 310554Z 24007KT 10SM FEW048 OVC100 07/02 A3001 RMK AO2 SLP165 T00670022 10094 20067 58010
KSBO 310635Z AUTO 10SM CLR 08/08 A2993 RMK AO2
KSBP 310646Z AUTO 11004KT 10SM OVC014 16/13 A2995 RMK AO2 T01560133
KSBS 310635Z AUTO 00000KT 10SM CLR 02/M03 A3034 RMK AO1 T00171028
KSBY 310554Z AUTO 02005KT 10SM CLR 08/04 A3001 RMK AO2 SLP163 T00830039 10128 20078 58007
KSCD 310635Z AUTO 00000KT 10SM CLR 05/05 A3000 RMK AO2 T00500050
KSCF 310635Z AUTO 01009KT 10SM 21/10 A3006 RMK A01
KSCK 310555Z AUTO 00000KT 10SM CLR 16/10 A2987 RMK AO2 SLP115 T01610100 10267 20161 53004
KSDA 310635Z AUTO 35020KT 10SM OVC026 05/M01 A3038 RMK AO2
KSDB 310648Z AUTO 20014KT 10SM CLR 14/02 A3006 RMK AO2 SLP130 T01440022
KSDF 310556Z 13004KT 10SM -RA BKN050 OVC100 09/04 A3003 RMK AO2 RAB43 SLP170 P0000 60000 T00940039 10111 20094 58005
KSDL 310553Z 00000KT 10SM CLR 23/05 A2995 RMK AO2 SLP119 T02330050 10311 20217 50000
KSDM 310553Z AUTO 00000KT 10SM FEW008 OVC017 19/16 A2998 RMK AO2 SLP148 T01890161 10206 20161 53001 TSNO $
KSDY 310635Z AUTO 13012G15KT 10SM OVC014 01/M03 A3046 RMK AO1
KSEA 310553Z 18005KT 10SM -RA OVC036 12/11 A2978 RMK AO2 RAB39 SLP090 P0001 60032 T01220111 10139 20122 58003
KSEE 310635Z AUTO 00000KT 10SM SCT014 OVC022 19/17 A3000 RMK AO2
KSEG 310553Z AUTO 35003KT 10SM CLR 03/02 A3003 RMK AO2 SLP172 T00330022 10078 20033 56004
KSEM 310635Z AUTO 00000KT 10SM SCT120 05/04 A3001 RMK AO2
KSEP 310635Z AUTO 36007KT 10SM CLR 16/12 A3024 RMK AO2 T01630124
KSET 310554Z AUTO 36007KT 10SM CLR 08/07 A3006 RMK AO2 SLP180 T00830072 10111 20078 401330022 51008
KSEZ 310635Z AUTO 04007KT 10SM CLR 17/M02 A3018 RMK AO2
KSFB 310553Z AUTO 00000KT 10SM CLR 19/17 A2987 RMK AO2 SLP114 T01940167 10239 20194 56013
KSFF 310553Z AUTO 00000KT 10SM CLR 09/07 A2982 RMK AO2 SLP096 T00940067 10122 20094 56019
KSFM 310635Z AUTO 00000KT 10SM OVC050 01/M01 A3002 RMK AO1
KSFO 310556Z 23006KT 10SM BKN018 17/14 A2992 RMK AO2 SLP130 T01720139 10189 20172 53006
KSFQ 310635Z AUTO 00000KT 10SM 06/05 A2998 RMK AO2 T00560052
KSFY 310635Z AUTO 35012G19KT 10SM SCT021 SCT026 OVC033 07/01 A3012 RMK AO2 T00680014
KSFZ 310635Z 00000KT 10SM BKN050 03/M02 A2999 RMK AO1
KSGF 310652Z 33012KT 10SM CLR 11/05 A3013 RMK AO2 SLP200 T01060050
KSGH 310556Z AUTO 00000KT 9SM OVC070 03/02 A3004 RMK AO2 56012 T00330022 10050 20016 SLP175
KSGJ 310609Z AUTO 27006KT 10SM SCT002 OVC050 18/18 A2988 RMK AO2
KSGR 310553Z AUTO 26004KT 10SM FEW120 16/14 A3009 RMK AO2 SLP191 T01560139 10228 20150 402780150 51003
KSGS 310630Z AUTO 34012G18KT 10SM CLR 00/M09 A3039 RMK AO2 T10031092
KSGT 310635Z AUTO 30009KT 10SM CLR 13/09 A3003 RMK AO1
KSGU 310635Z AUTO 10012KT 10SM CLR 18/M07 A3005 RMK AO1
KSHD 310635Z AUTO 00000KT 10SM OVC050 01/M01 A3005 RMK AO2 T00051008
KSHL 310635Z AUTO 35008KT 10SM CLR M02/M06 A3045 RMK AO2
KSHM 310556Z AUTO 03002KT 10SM CLR 05/M04 A3046 RMK AO2 SLP298 T00461044 10109 20046 50009
KSHN 310553Z AUTO 24003KT 10SM -RA SCT065 OVC080 12/11 A2975 RMK AO2 SLP075 P0000 60020 T01170106 10139 20117 56004 TSNO
KSHR 310553Z AUTO 15013KT 10SM CLR 08/M03 A3021 RMK AO2 SLP227 T00831028 10128 20050 58017 TSNO
KSHV 310556Z 24003KT 10SM CLR 11/09 A3008 RMK AO2 SLP185 T01110089 10172 20111 402330067 50000
KSIF 310635Z AUTO 00000KT 10SM CLR 06/03 A3002 RMK AO2 T00610032
KSIY 310553Z AUTO 17017KT 10SM CLR 15/07 A2980 RMK AO2 PK WND 16026/0542 SLP096 T01500072 10206 20150 56005
KSJC 310553Z 17008KT 10SM FEW050 BKN200 16/11 A2991 RMK AO2 SLP128 T01560111 10217 20156 53007
KSJN 310554Z AUTO 11003KT 10SM CLR 13/M03 A3025 RMK AO2 SLP177 T01281033 10217 20111 51008
KSJS 310635Z AUTO 00000KT 10SM CLR 03/02 A3002 RMK AO2 T00250016
KSJT 310651Z AUTO 05012KT 10SM SCT047 OVC055 21/15 A3022 RMK AO2 SLP213 T02110150
KSJX 310636Z AUTO 01006KT 10SM -RA SCT011 BKN019 OVC024 04/03 A2992 RMK AO2 T00410031
KSKA 310558Z AUTO 05007KT 10SM CLR 09/07 A2981 RMK AO2 SLP101 T00850065 10108 20082 57018
KSKF 310558Z AUTO 13004KT 10SM CLR 22/18 A3008 RMK AO2 SLP180 T02160175 10261 20215 402920195 50003 $
KSKX 310635Z AUTO 08005KT 10SM CLR 03/M11 A3043 RMK AO1
KSLB 310635Z AUTO 36015G22KT 10SM SCT032 M00/M07 A3042 RMK AO2
KSLC 310553Z 15010KT 10SM SCT250 13/M01 A3009 RMK AO2 SLP157 T01331006 10161 20089 56007
KSLE 310556Z AUTO 25005KT 4SM -RA BR SCT006 BKN009 OVC016 14/13 A2977 RMK AO2 CIG 008V012 SLP082 P0012 60043 T01440128 10156 20144 56005
KSLG 310635Z AUTO 36008KT 10SM CLR 08/02 A3017 RMK AO1
KSLH 310637Z AUTO 29003KT 7SM -RA SCT010 BKN016 OVC021 04/03 A2989 RMK AO2 T00430040
KSLI 310558Z AUTO 00000KT 10SM CLR 16/15 A2997 RMK AO2 SLP152 T01640152 10220 20162 52006
KSLK 310651Z AUTO 00000KT 10SM BKN011 OVC033 M01/M01 A2996 RMK AO2 SLP162 I1000 T10111011
KSLN 310633Z AUTO 35010KT 10SM BKN020 07/03 A3038 RMK AO2 T00720028
KSLO 310635Z AUTO 06004KT 7SM BKN034 OVC040 10/09 A3005 RMK AO2 T00970088
KSLR 310635Z AUTO 34009KT 10SM CLR 16/08 A3016 RMK AO2 T01600084
KSME 310635Z AUTO 00000KT 10SM OVC100 03/03 A3004 RMK AO2
KSMF 310553Z 21012KT 10SM BKN180 18/12 A2985 RMK AO2 SLP107 T01780117 10239 20172 53002
KSMN 310635Z AUTO 00000KT 10SM CLR 04/03 A3003 RMK AO1
KSMO 310651Z AUTO 00000KT 10SM CLR 17/14 A2996 RMK AO2 SLP144 T01720144 $
KSMQ 310553Z AUTO 00000KT 10SM CLR 00/M01 A3001 RMK AO2 SLP165 T00001011 10067 20000 55002
KSMS 310635Z AUTO 00000KT 10SM FEW060 08/07 A2994 RMK AO2
KSMX 310651Z AUTO 12004KT 6SM HZ CLR 14/12 A2996 RMK AO2 SLP146 T01440117
KSNA 310553Z 00000KT 10SM FEW015 19/16 A2997 RMK AO2 SLP146 T01940156 10228 20194 51006
KSNC 310615Z AUTO 34004KT 10SM CLR 06/01 A3001 RMK AO2
KSNH 310555Z AUTO 00000KT 10SM BKN090 BKN120 06/06 A3002 RMK
KSNK 310635Z AUTO 04008KT 10SM CLR 15/02 A3029 RMK AO2 LTG DSNT SE T01470023
KSNS 310637Z AUTO 34004KT 9SM FEW011 OVC016 17/13 A2992 RMK AO2
KSNT 310651Z AUTO VRB03KT 05/M02 A3006 RMK AO1 SLP125 T00501022 401721011
KSNY 310553Z AUTO 18004KT 10SM CLR M02/M04 A3044 RMK AO2 SLP312 T10171039 10094 21028 51012
KSOA 310635Z AUTO 03007G13KT 10SM CLR 21/15 A3022 RMK AO2 LTG DSNT E
KSOP 310635Z AUTO 02003KT 10SM CLR 06/04 A2997 RMK AO1
KSOW 310635Z AUTO 18006KT 10SM CLR 08/M01 A3030 RMK AO2
KSPA 310715Z AUTO 00000KT 10SM CLR 08/05 A2996 RMK AO2
KSPB 310640Z AUTO 15007KT 5SM -RA BR BKN004 BKN013 OVC075 14/13 A2977 RMK AO2 P0005 T01390133
KSPD 310556Z AUTO 35003KT 05/M04 A3041 RMK AO1 SLP269 T00501039 10117 20017 51010
KSPF 310635Z AUTO 00000KT 5SM BR CLR M04/M05 A3040 RMK AO2
KSPG 310553Z AUTO 36004KT 10SM FEW041 SCT050 BKN060 23/21 A2987 RMK AO2 SLP113 T02280206 10250 20228 58009
KSPI 310652Z AUTO 34005KT 10SM BKN065 OVC110 08/06 A3009 RMK AO2 SLP191 T00780056
KSPL 310635Z AUTO 08006KT A3006 RMK AO1
KSPR 310635Z AUTO 02010KT 10SM CLR 22/09 A3003 RMK A01
KSPS 310652Z AUTO 34007KT 10SM CLR 12/03 A3025 RMK AO2 SLP235 T01170028 TSNO
KSPW 310553Z AUTO 36015G24KT 10SM CLR 00/M08 A3041 RMK AO2 PK WND 35031/0508 SLP306 T00001078 10072 20000 401500000 51023 TSNO
KSQE 310635Z AUTO 02013KT 10SM SCT030 22/08 A3003 RMK A01
KSQI 310635Z AUTO 34012G15KT 10SM OVC045 08/03 A3009 RMK AO1
KSQL 310630Z AUTO 26003KT 10SM CLR 17/11 A2993 RMK AO2
KSRB 310555Z AUTO 00000KT 10SM BKN100 05/05 A3002 RMK
KSRC 310556Z AUTO 30003KT 10SM CLR 11/08 A3004 RMK AO2 SLP178 T01060083 10128 20083 51002 TSNO
KSRQ 310553Z 02004KT 10SM SCT080 22/20 A2986 RMK AO2 SLP111 T02220200 10239 20222 58011
KSRR 310635Z AUTO 16005KT 10SM CLR 06/M03 A3047 RMK AO2
KSSC 310558Z AUTO 04005KT 10SM FEW060 10/07 A2993 RMK AO2 SLP136 T01020065 10140 20094 57007 $
KSSF 310553Z AUTO 00000KT 10SM CLR 20/17 A3008 RMK AO2 SLP177 T02000167 10267 20200 403000189 50005
KSSI 310553Z AUTO 34005KT 10SM SCT044 17/16 A2989 RMK AO2 SLP120 T01720161 10206 20172 58009
KSTC 310553Z AUTO 35012G17KT 10SM CLR M01/M10 A3043 RMK AO2 SLP323 T10061100 10056 21011 400831011 51023
KSTE 310635Z AUTO 31009G20KT 10SM UP OVC025 01/M03 A3011 RMK AO2 T00051035
KSTF 310635Z AUTO 00000KT 10SM CLR 07/06 A3002 RMK AO2
KSTJ 310617Z AUTO 35020G26KT 10SM OVC029 10/04 A3028 RMK AO2 PK WND 36026/0612 T01000044
KSTL 310651Z 34005KT 8SM BKN130 09/07 A3007 RMK AO2 SLP181 T00890067
KSTP 310553Z AUTO 35015G23KT 10SM CLR M01/M09 A3040 RMK AO2 PK WND 33026/0515 SLP298 T10061094 10067 21006 400941006 51031
KSTS 310625Z AUTO 00000KT 10SM SCT024 OVC031 16/14 A2989 RMK AO2
KSUA 310635Z AUTO 27004KT 10SM SCT055 21/19 A2987 RMK AO2
KSUE 310635Z AUTO 33017G22KT 10SM SCT023 OVC031 04/M01 A3000 RMK AO1
KSUN 310635Z AUTO 31007KT 10SM CLR 07/M01 A3010 RMK AO2
KSUS 310554Z AUTO 00000KT 10SM FEW120 08/07 A3006 RMK AO2 SLP180 T00830072 10117 20061 401560006 53006
KSUT 310635Z AUTO 01006KT 10SM CLR 14/10 A2990 RMK AO2 T01360102
KSUU 310558Z AUTO 22015KT 10SM FEW190 16/16 A2986 RMK AO2 SLP118 T01600159 10214 20160 53005 $
KSUW 310635Z AUTO 36010G16KT 10SM OVC036 00/M07 A3042 RMK AO2 T10031071
KSUX 310652Z 36016KT 10SM FEW032 01/M06 A3050 RMK AO2 PK WND 36029/0634 SLP335 T00061061
KSVC 310635Z AUTO 00000KT 10SM CLR 09/00 A3031 RMK AO2
KSVH 310635Z AUTO 02005KT 10SM CLR 07/04 A2998 RMK AO2 T00680035
KSVN 310558Z AUTO 36004KT 10SM CLR 15/14 A2989 RMK AO2 SLP125 T01540140 10190 20152 57009
KSWF 310445Z 00000KT 10SM BKN040 07/03 A3004
KSWO 310553Z AUTO 36009KT 10SM CLR 12/03 A3023 RMK AO2 SLP231 T01220028 10178 20122 402560083 51017
KSWW 310635Z AUTO 04009KT 10SM CLR 16/03 A3030 RMK AO2 LTG DSNT SE T01580033
KSXT 310651Z AUTO 20011G20KT 3/4SM -RA BR FEW003 BKN016 OVC049 08/08 A2980 RMK AO2 PK WND 22028/0615 P0002
KSYF 310635Z AUTO 08004KT 10SM CLR 02/M02 A3045 RMK AO2 T00161020
KSYI 310635Z AUTO 20003KT 10SM SCT070 OVC100 07/07 A3002 RMK
KSYM 310630Z AUTO 00000KT 10SM FEW080 OVC090 04/02 A3004 RMK AO2
KSYN 310634Z AUTO 35015G19KT 10SM CLR 00/M10 A3036 RMK AO2 T10021096
KSYR 310554Z 00000KT 10SM -RA FEW033 OVC050 06/03 A3002 RMK AO2 RAB36 SLP165 P0000 60000 T00560033 10061 20044 56003
KSZL 310558Z AUTO 34012G21KT 9SM R01/5500FT CLR 10/04 A3014 RMK AO2 SLP209 T01030038 10158 20103 52018 $
KSZT 310635Z AUTO 06007KT 10SM CLR 08/07 A2985 RMK AO2
KT20 310635Z AUTO 06003KT 10SM SCT038 BKN070 OVC095 A3010 RMK AO2 LTG DSNT NW P0008
KT35 310635Z AUTO 00000KT 10SM BKN055 OVC075 18/14 A3014 RMK AO2 LTG DSNT W T01810141
KT65 310635Z AUTO 00000KT 10SM CLR 22/19 A3007 RMK AO2 T02170191
KT82 310635Z AUTO 06005KT 10SM TS SCT022 BKN060 OVC070 19/16 A3016 RMK AO2 LTG DSNT NW THRU E T01900157
KTAD 310554Z AUTO 26008KT 10SM CLR 04/M05 A3043 RMK AO2 SLP274 T00391050 10133 20033 50008
KTAN 310652Z AUTO 00000KT 10SM OVC060 03/03 A3000 RMK AO2 SLP157 T00330028
KTAZ 310635Z AUTO 35004KT 7SM BKN040 OVC110 07/06 A3007 RMK AO2
KTBN 310558Z AUTO 31004KT 10SM CLR 08/07 A3008 RMK AO2 SLP190 T00800074 10099 20054 401470027 52012
KTBR 310635Z AUTO 00000KT 10SM CLR 09/09 A2992 RMK AO2 T00920092
KTBX 310635Z AUTO 12023G29KT 10SM CLR 05/M05 A3034 RMK AO2
KTCC 310553Z AUTO 06004KT 10SM CLR 08/M04 A3037 RMK AO2 SLP252 T00831039 10172 20083 51016
KTCL 310553Z AUTO 00000KT 10SM FEW100 08/07 A3004 RMK AO2 SLP170 T00780067 10122 20072 402110050 55005
KTCM 310558Z AUTO 19004KT 10SM -RA OVC033 12/12 A2979 RMK AO2 RAB0510 SLP092 P0004 60023 T01190117 10135 20118 50002
KTCS 310653Z AUTO 32007KT 10SM CLR 11/M03 A3028 RMK AO2 SLP194 T01111028 402560078 TSNO
KTDF 310635Z AUTO 02004KT 10SM CLR 07/03 A3001 RMK AO2
KTDR 310556Z AUTO M 10SM CLR 15/09 A2996 RMK AO2 SLPNO T01470087 10175 20142 402250142 $
KTDZ 310553Z AUTO 21005KT 10SM OVC050 07/02 A3001 RMK AO2 SLP164 T00720022 10089 20072 57013 TSNO
KTEB 310651Z 00000KT 10SM CLR 06/02 A3002 RMK AO2 SLP165 T00560017
KTEW 310632Z AUTO 00000KT 10SM BKN090 OVC110 06/02 A2995 RMK AO2 T00600023
KTEX 310635Z AUTO 12003KT 10SM CLR 07/M10 A3043 RMK AO2 T00691099
KTFP 310635Z AUTO 00000KT 10SM CLR 22/20 A3007 RMK AO2 T02180203
KTHA 310635Z AUTO 05003KT 10SM FEW100 07/04 A3000 RMK
KTHV 310553Z AUTO 00000KT 10SM OVC055 07/04 A3002 RMK AO2 SLP169 T00720044 10083 20050 56005
KTIF 310635Z AUTO 04007KT 7SM OVC005 00/00 A3050 RMK AO2 T00031001
KTIK 310558Z AUTO 36010KT 10SM CLR 12/03 A3023 RMK AO2 SLP239 T01210031 10178 20118 402480078 52014 $
KTIP 310630Z AUTO 32003KT 10SM BKN055 OVC095 07/05 A3005 RMK AO2 T00700051
KTIW 310553Z AUTO 19008KT 10SM -RA BKN038 OVC048 12/11 A2978 RMK AO2 RAB19 SLP085 P0003 60032 T01170106 10139 20117 55000
KTKC 310633Z AUTO 34011KT 10SM CLR M02/M05 A3048 RMK AO2 T10211052
KTKI 310553Z 34007KT 10SM CLR 14/07 A3017 RMK AO2 SLP218 T01390072 10206 20128 402390067 51013
KTKV 310635Z AUTO 34016G22KT 320V020 5SM -SN SCT012 BKN018 OVC024 M01/M03 A3015 RMK AO2 T10101029
KTLH 310553Z AUTO 27003KT 10SM CLR 08/05 A2995 RMK AO2 SLP140 T00780050 10172 20078 57005 $
KTMA 310630Z AUTO 32004KT 10SM CLR 11/08 A2993 RMK AO2 T01120080
KTMB 310553Z 25005KT 10SM CLR 22/19 A2987 RMK AO2 SLP116 T02170189 10267 20217 58013
KTME 310635Z AUTO 36004KT 10SM OVC110 15/ A3012 RMK AO2
KTMK 310635Z AUTO 00000KT 3SM DZ SCT003 BKN021 OVC032 12/11 A2979 RMK AO2 P0002
KTNB 310635Z AUTO 00000KT 10SM CLR 00/00 A3000 RMK AO2 T10051005
KTNU 310635Z AUTO 34023G32KT 10SM OVC037 05/M02 A3027 RMK AO2
KTOA 310250Z 24008KT 10SM FEW015 SCT200 20/16 A2996 RMK LAST
KTOB 310633Z AUTO 36015G25KT 10SM SCT095 M01/M09 A3033 RMK AO2
KTOC 310635Z AUTO 00000KT 10SM CLR 07/05 A2995 RMK AO2 T00710050
KTOI 310553Z AUTO 00000KT 10SM CLR 06/04 A3000 RMK AO2 SLP158 T00560044 10133 20050 402170050 58005
KTOL 310652Z 22005KT 10SM FEW055 OVC100 07/01 A2999 RMK AO2 SLP156 T00670011
KTOP 310553Z AUTO 32009KT 10SM OVC060 09/05 A3029 RMK AO2 SLP254 T00940050 10150 20089 402110061 51026 $
KTOR 310553Z AUTO 10005KT 10SM CLR 01/M02 A3041 RMK AO2 SLP298 T00111017 10111 20000 51008
KTPA 310553Z 34005KT 9SM FEW038 BKN060 OVC075 22/19 A2988 RMK AO2 SLP119 T02170194 10244 20217 58009
KTPH 310556Z AUTO 14010KT 10SM CLR 13/M07 A3007 RMK AO2 SLP134 T01331067 10206 20128 50000
KTPL 310635Z AUTO 34004KT 10SM BKN046 18/12 A3015 RMK AO1
KTQE 310554Z AUTO 36018G29KT 10SM OVC029 03/M03 A3044 RMK AO2 PK WND 36035/0508 SLP306 T00331028 10106 20033 401720000 51019
KTQH 310635Z AUTO 34005KT 10SM CLR 10/05 A3018 RMK AO2
KTRI 310553Z 00000KT 10SM FEW030 SCT250 03/03 A3000 RMK AO2 SLP151 T00330028 10083 20028 58003
KTRK 310635Z AUTO 19009G14KT 10SM CLR 10/M03 A3003 RMK AO2
KTRL 310553Z AUTO 36007KT 10SM CLR 18/08 A3016 RMK AO2 SLP209 T01830083 10211 20144 402500083 51014
KTRM 310652Z AUTO 01006KT 10SM CLR 21/08 A2985 RMK AO2 SLP109 T02060078 TSNO
KTSP 310635Z AUTO 11006KT 10SM CLR 12/M02 A3004 RMK AO2
KTTA 310635Z AUTO 02003KT 10SM CLR 07/07 A2998 RMK AO2 T00670066
KTTD 310607Z AUTO 09010KT 9SM -RA FEW018 BKN055 OVC080 13/12 A2977 RMK AO2 P0001 T01330122
KTTF 310635Z AUTO 24004KT 10SM OVC055 07/03 A2997 RMK AO2
KTTN 310553Z AUTO 32005KT 10SM CLR 03/00 A3002 RMK AO2 SLP160 T00330000 10089 20033 56003
KTTS 310644Z AUTO 08004KT 10SM SCT028 SCT035 BKN080 19/18 A2985 RMK AO2 LTG DSNT E RAE0606DZB0606E0609 TSE0606 VISNO RWY33 CHINO RWY33 $
KTUL 310553Z 35010KT 10SM CLR 12/04 A3019 RMK AO2 SLP220 T01170044 10178 20111 402560106 51019
KTUP 310653Z AUTO 00000KT 10SM FEW070 SCT110 10/08 A2999 RMK AO2 SLP154 T01000083
KTUS 310553Z 16007KT 10SM CLR 21/06 A3005 RMK AO2 SLP132 T02110056 10311 20211 51008
KTVC 310553Z 25003KT 10SM -RA BKN017 OVC026 06/04 A2991 RMK AO2 SLP133 P0000 60001 T00560039 10078 20056 56012
KTVF 310635Z AUTO 34006KT 10SM CLR M06/M09 A3056 RMK AO1
KTVI 310635Z AUTO 33004KT 10SM CLR 11/08 A2994 RMK AO2
KTVK 310635Z AUTO 33012G20KT 10SM BKN024 OVC030 08/03 A3023 RMK AO2
KTVL 310553Z AUTO 21005KT 10SM CLR 11/M04 A3004 RMK AO2 SLP142 T01111044 10172 20100 56007
KTVR 310553Z AUTO 00000KT 10SM FEW080 08/07 A3006 RMK AO2 SLP187 T00830072 10122 20067 402330028 58001
KTWF 310553Z AUTO 14007KT 10SM CLR 16/M06 A2997 RMK AO2 SLP110 T01611061 10194 20117 58015
KTWM 310634Z AUTO 01006KT 10SM SCT033 M01/M06 A3036 RMK AO2
KTXK 310553Z AUTO 31006KT 10SM CLR 14/08 A3010 RMK AO2 SLP189 T01440078 10183 20122 402330067 51005
KTYQ 310635Z AUTO 27003KT 10SM CLR 07/03 A3003 RMK AO2 T00660027
KTYR 310553Z 31005KT 10SM CLR 15/11 A3013 RMK AO2 SLP196 T01500106 10206 20150 402390094 51008
KTYS 310553Z 00000KT 10SM SCT250 06/04 A3000 RMK AO2 SLP159 T00610044 10122 20061 58002
KTZR 310635Z AUTO 10SM BKN120 03/02 A3002 RMK AO2 T00270017
KU16 310558Z AUTO 19003KT 10SM CLR 04/M02 A3006 RMK AO2 SLP804 T00441022 10144 20039 401721011 58005 $
KU68 310635Z AUTO 00000KT 10SM CLR 07/M05 A3020 RMK AO2 PWINO
KUAO 310643Z AUTO 00000KT 3SM +RA BR SCT004 BKN018 OVC033 13/13 A2978 RMK AO2 P0029 T01330133
KUBE 310635Z AUTO 35014G20KT 10SM BKN035 M01/M07 A3032 RMK AO2
KUCP 310556Z AUTO 00000KT 10SM 06/04 A3003 RMK AO2 TSNO 57011 T00550038 10077 20055 SLP187 $
KUCY 310635Z AUTO 00000KT 10SM SCT065 OVC095 10/08 A3000 RMK
KUDG 310635Z AUTO 00000KT 10SM CLR 07/04 A2995 RMK AO1
KUES 310635Z AUTO 31015G22KT 10SM BKN031 OVC050 05/00 A3003 RMK AO2
KUGN 310651Z AUTO 32008G16KT 280V360 10SM SCT023 OVC034 07/01 A3001 RMK AO2 RAB06E18 P0000
KUIL 310553Z AUTO 00000KT 5SM -RA BR SCT047 OVC060 10/10 A2977 RMK AO2 RAB31 SLP080 P0000 60010 T01000100 10117 20100 53002
KUIN 310554Z AUTO 01006KT 10SM BKN070 OVC085 08/05 A3010 RMK AO2 SLP196 T00780050 10100 20072 401390022 51013
KUKF 310635Z AUTO 06003KT 10SM BKN060 06/02 A3005 RMK AO2
KUKI 310644Z AUTO 16003KT 10SM SCT027 BKN031 16/12 A2989 RMK AO2 RAE00 P0000 T01560122
KUKT 310635Z AUTO 00000KT 10SM CLR 00/M01 A3003 RMK AO1
KULM 310634Z AUTO 34011G18KT 10SM CLR M02/M07 A3043 RMK AO2
KUNI 310635Z AUTO 00000KT 10SM OVC047 03/01 A3002 RMK AO2 T00250013
KUNO 310553Z AUTO 31005KT 10SM CLR 09/05 A3005 RMK AO2 SLP175 T00890050 10122 20056 401670022 51004
KUNU 310635Z AUTO 32018G25KT 10SM BKN025 OVC034 04/00 A3006 RMK AO2 T00411004
KUNV 310635Z AUTO 00000KT 10SM OVC050 04/02 A3001 RMK AO2 T00410017
KUOX 310635Z AUTO 22004KT 10SM FEW070 SCT090 12/07 A3001 RMK AO2 PWINO PNO
KUSE 310635Z AUTO 24005KT 10SM FEW050 BKN075 OVC090 07/02 A2999 RMK AO2
KUTA 310635Z AUTO 26003KT 10SM CLR 11/10 A3000 RMK AO2
KUTS 310553Z AUTO 00000KT 10SM FEW048 BKN085 BKN120 15/11 A3012 RMK AO2 SLP195 T01500106 10200 20139 402610094 51007
KUUU 310553Z AUTO 34003KT 10SM CLR 07/03 A2998 RMK AO2 SLP153 T00670028 10111 20061 55001
KUVA 310635Z AUTO 00000KT 10SM SCT100 20/16 A3011 RMK AO2 LTG DSNT N AND NE T02000163
KUXL 310635Z AUTO 33003KT 10SM CLR 11/11 A3010 RMK AO2 T01100105
KUYF 310655Z AUTO 23004KT 10SM OVC075 03/02 A3001 RMK AO2
KUZA 310554Z AUTO 00000KT 10SM CLR 06/05 A2996 RMK AO2 SLP145 T00560050 10111 20050 56008
KVAD 310558Z AUTO 34005KT 10SM CLR 11/08 A2992 RMK AO2 SLP134 T01050080 10149 20099 58009 $
KVAF 310635Z AUTO 34006KT 10SM FEW026 24/18 A3006 RMK A01
KVAY 310554Z AUTO 00000KT 10SM CLR 01/00 A3003 RMK AO2 SLP168 T00110000 10083 20011 56003
KVBG 310647Z AUTO 11004KT 10SM BKN014 14/13 A2996 RMK AO2 TSNO $
KVBS 310635Z AUTO 09009KT 10SM CLR 22/11 A3007 RMK A01
KVBT 310635Z AUTO 36006KT 10SM CLR 11/04 A3015 RMK AO1
KVCB 310553Z AUTO 21007KT 10SM CLR 18/12 A2987 RMK AO2 SLP115 T01780122 10233 20178 51008 TSNO
KVCT 310651Z AUTO 06003KT 3SM BR CLR 18/17 A3009 RMK AO2 SLP186 T01830172
KVCV 310635Z AUTO 24005KT 10SM CLR 16/06 A3001 RMK AO2
KVDF 310635Z AUTO 00000KT 10SM SCT041 BKN055 OVC065 21/20 A2988 RMK AO2
KVDI 310635Z AUTO 00000KT 10SM CLR 11/08 A2992 RMK AO2
KVEL 310553Z AUTO 28005KT 10SM CLR 04/M03 A3024 RMK AO2 SLP227 T00441028 10167 20044 58006
KVER 310635Z AUTO 33005KT 10SM OVC085 09/05 A3014 RMK AO2 T00920052
KVES 310635Z AUTO 19003KT 10SM BKN047 OVC075 05/02 A3001 RMK AO2
KVGT 310553Z 02003KT 10SM CLR 19/M01 A2996 RMK AO2 SLP148 T01891006 10272 20189 58002
KVIH 310553Z AUTO 30004KT 10SM CLR 07/06 A3005 RMK AO2 SLP179 T00720061 10100 20039 401220022 53009
KVIS 310635Z 11004KT 10SM 15/06 A2990 RMK AO1
KVJI 310635Z AUTO 00000KT 10SM CLR 04/02 A2999 RMK AO2 T00440024
KVKY 310635Z AUTO 36014KT 10SM CLR 21/07 A3001 RMK A01
KVLD 310553Z AUTO 00000KT 10SM CLR 10/07 A2992 RMK AO2 SLP141 60001 T01000067 10139 20094 58007
KVLL 310635Z AUTO 23005KT 10SM BKN045 OVC050 08/02 A2998 RMK AO2 T00810015
KVNC 310635Z AUTO 04003KT 10SM 22/20 A2987 RMK AO2 TSNO
KVNY 310651Z 00000KT 10SM CLR 17/14 A2997 RMK AO2 SLP139 T01670139
KVOA 310635Z AUTO 36007G14KT SCT038 21/08 A2999 RMK A01
KVOK 310558Z AUTO 32018G26KT 10SM FEW060 SCT075 02/M04 A3016 RMK AO2 PK WND 33033/02 UPB0518E0527RAB0527E0537 SLP224 P0000 60000 T00231036 10074 20023 400991026 53017
KVPC 310553Z AUTO 00000KT 10SM CLR 05/04 A2999 RMK AO2 SLP151 T00500039 10100 20039 58005
KVPS 310556Z 34008KT 10SM CLR 12/05 A3000 RMK AO2A SLP165 T01180054 10163 20112 402320112 58002 $
KVPZ 310556Z AUTO 27006KT 10SM BKN110 05/02 A3003 RMK AO2 SLP171 T00500022 10078 20044 401060017 58008 TSNO
KVQQ 310635Z AUTO 29003KT 10SM BKN019 15/12 A2989 RMK AO2
KVQT 310635Z AUTO 02010KT 10SM CLR 23/10 A3005 RMK A01
KVRB 310553Z AUTO 22006KT 10SM FEW050 BKN065 21/19 A2987 RMK AO2 LTG DSNT N SLP112 T02060189 10222 20183 56010 PWINO
KVSF 310554Z AUTO 00000KT 10SM SCT031 OVC045 06/03 A3002 RMK AO2 SLP169 T00560028 10061 20028 53005
KVSH 310635Z AUTO 00000KT 10SM CLR 18/07 A3005 RMK AO1
KVTA 310554Z AUTO 00000KT 10SM OVC046 07/03 A3002 RMK AO2 SLP169 T00670033 10083 20067 56013
KVTI 310635Z AUTO 34015G25KT 10SM SCT046 SCT085 05/M03 A3021 RMK AO2 T00521028
KVTN 310652Z AUTO 05010KT 10SM OVC010 00/M03 A3052 RMK AO2 SLP350 T00001028
KVTP 310629Z AUTO 35006KT 10SM CLR M01/M07 A3052 RMK AO2
KVUJ 310635Z AUTO 00000KT 10SM CLR 05/04 A3001 RMK AO2 T00520042
KVUO 310553Z AUTO 13006KT 9SM -RA FEW005 BKN075 OVC095 13/12 A2978 RMK AO2 SLP084 P0007 60033 T01330122 10139 20133 56006
KVVG 310635Z AUTO 31003KT 10SM 19/18 A2978 RMK A01
KVVV 310634Z AUTO 34009KT 10SM CLR M03/M07 A3054 RMK AO2
KVWU 310633Z AUTO 00000KT 10SM OVC035 M02/M08 A3052 RMK AO2
KVYS 310635Z AUTO 30009KT 10SM OVC043 08/04 A3007 RMK AO2 T00750040
KW13 310635Z AUTO 00000KT 10SM SCT041 OVC050 01/00 A3002 RMK AO1 T00051004
KW22 310635Z AUTO 00000KT 10SM OVC037 03/02 A3001 RMK AO2
KW29 310635Z AUTO 10003KT 10SM 08/03 A3002 RMK AO1
KW31 310635Z AUTO 36005KT 10SM CLR 05/03 A3000 RMK AO1 T00530027
KW43 310635Z AUTO 00000KT 5SM BR CLR M01/M01 A3036 RMK AO2
KW63 310635Z AUTO 00000KT 10SM CLR 07/03 A3000 RMK AO1
KW75 310635Z AUTO 02004KT 10SM SCT060 10/06 A2999 RMK AO1 T01030057
KW78 310635Z AUTO 34004KT 10SM CLR 05/03 A3001 RMK AO1 T00500025
KW81 310635Z AUTO 00000KT 7SM CLR 03/02 A3001 RMK AO1 T00260017
KW96 310635Z AUTO 00000KT 10SM CLR 04/03 A3001 RMK AO1 T00370030
KW99 310635Z AUTO 16003KT 10SM BKN048 05/00 A3004 RMK AO2 T00450003
KWAL 310554Z AUTO 36005KT 10SM CLR 07/04 A3001 RMK AO2 SLP158 T00720039 10106 20072 58008
KWDG 310635Z AUTO 36009KT 10SM 10/03 A3027 RMK AO2
KWDR 310635Z AUTO 30005KT 10SM CLR 08/06 A2998 RMK AO2 T00770061
KWHP 310247Z 00000KT 10SM BKN200 21/12 A2999 RMK LAST
KWJF 310556Z 23009KT 10SM CLR 18/01 A3000 RMK AO2 SLP150 T01780006 10239 20161 53008
KWLD 310554Z AUTO 01017G24KT 10SM CLR 12/03 A3027 RMK AO2 SLP245 T01170033 10161 20106 402280100 51019
KWMC 310556Z AUTO 12006KT 10SM CLR 07/M06 A2993 RMK AO2 SLP118 T00721056 10194 20061 56008
KWRB 310558Z AUTO 00000KT 10SM CLR 08/07 A2994 RMK AO2 SLP141 T00840072 10131 20082 50001
KWRI 310558Z AUTO 00000KT 10SM CLR 03/02 A3000 RMK AO2 SLP163 T00290016 10076 20025 57003
KWRL 310553Z AUTO 22007KT 10SM CLR 04/M05 A3021 RMK AO2 SLP234 T00391050 10100 20022 58009
KWST 310553Z AUTO 00000KT 10SM CLR 03/01 A3000 RMK AO2 SLP160 T00330011 10094 20028 55001
KWVI 310604Z AUTO 26003KT 10SM BKN013 OVC019 17/14 A2994 RMK AO2 T01720139
KWVL 310635Z 29005KT 10SM BKN046 02/M02 A2998 RMK AO1
KWWD 310635Z AUTO 02003KT 10SM CLR 06/01 A3002 RMK AO1
KWYS 310630Z AUTO 00000KT 10SM CLR M03/M03 A3021 RMK AO2
KXBP 310635Z AUTO 00000KT 10SM CLR 15/06 A3024 RMK AO2 LTG DSNT S T01460060
KXIH 310635Z AUTO 04008KT 10SM SCT120 22/12 A3008 RMK A01
KXLL 310635Z AUTO 00000KT 10SM CLR 02/00 A3004 RMK AO2
KXMR 310607Z AUTO 35002KT 10SM VCTS CLR 20/18 A2986 RMK AO2 LTG DSNT N-SE RAE0601 CIG 070 RWY31 $
KXNA 310553Z AUTO 35008KT 10SM CLR 11/04 A3015 RMK AO2 SLP202 T01060044 10161 20106 402110039 51013
KXPY 310635Z AUTO 34006KT 10SM CLR 18/11 A3007 RMK A01
KXSA 310635Z AUTO 00000KT 10SM CLR 04/02 A3002 RMK AO2 T00390021
KXVG 310636Z AUTO 01011G18KT 344V044 10SM OVC034 M02/M08 A3047 RMK AO2
KY19 310635Z AUTO 21003KT 10SM FEW030 M07/M08 A3057 RMK AO2
KY23 310635Z AUTO 33011G17KT 300V360 10SM SCT031 M01/M05 A3030 RMK AO2 T10101054
KY49 310635Z AUTO 36011G16KT 10SM OVC032 M03/M09 A3049 RMK AO2 T10281094
KY50 310556Z AUTO 33018G27KT 10SM SCT019 BKN048 OVC080 03/00 A3010 RMK AO2 TSNO 53009 60000 T00270000 10083 20027 401111022 BKN V SCT RAB40E50UPB46E54 P0000 PK WND 33027/0554 SLP194
KY51 310635Z AUTO 33016G22KT 10SM SCT041 BKN047 OVC050 01/M06 A3019 RMK AO1 T00121064
KY63 310636Z AUTO 31007KT 10SM CLR M04/M07 A3052 RMK AO2 T10371066
KY70 310634Z AUTO 22005KT 10SM SCT035 SCT041 OVC048 07/04 A2993 RMK AO2 T00700035
KYIP 310653Z AUTO 22008KT 10SM SCT042 OVC050 09/02 A2997 RMK AO2 SLP150 T00890022 TSNO
KYKM 310553Z AUTO 23006KT 4SM -RA BR OVC070 12/11 A2982 RMK AO2 SLP100 P0002 60005 T01170106 10144 20117 56008
KYKN 310635Z AUTO 33006KT 10SM CLR M01/M07 A3055 RMK AO1
KYNG 310651Z 00000KT 10SM FEW028 OVC050 06/03 A2999 RMK AO2 SLP161 T00560033 $
KZPH 310635Z AUTO 33004KT 10SM BKN047 BKN060 OVC090 20/19 A2989 RMK AO2
KZZV 310553Z AUTO 00000KT 10SM OVC046 06/02 A3002 RMK AO2 SLP169 T00610017 10083 20061 56012